<?xml version="1.0" encoding="UTF-8" standalone="no" ?>
<gpx xmlns="http://www.topografix.com/GPX/1/1" xmlns:xsi="http://www.w3.org/2001/XMLSchema-instance" xsi:schemaLocation="http://www.topografix.com/GPX/1/1 http://www.topografix.com/GPX/1/1/gpx.xsd" version="1.1" creator="VisuGPX - https://www.visugpx.com">
  <metadata>
    <name>Voisins Chevreuse</name>
    <desc><![CDATA[Voisins le bretonneux vers Chevreuse, par St Lambert des bois]]></desc>
  </metadata>
  <trk>
    <name><![CDATA[Voisins Chevreuse_1]]></name>
    <trkseg>
      <trkpt lat="48.75683" lon="2.04165">
        <ele>164</ele>
        <time>2015-07-12T10:47:19Z</time>
      </trkpt>
      <trkpt lat="48.75674" lon="2.04166">
        <ele>164</ele>
        <time>2015-07-12T10:47:30Z</time>
      </trkpt>
      <trkpt lat="48.75673" lon="2.04153">
        <ele>164</ele>
        <time>2015-07-12T10:47:36Z</time>
      </trkpt>
      <trkpt lat="48.75665" lon="2.04148">
        <ele>164</ele>
        <time>2015-07-12T10:47:41Z</time>
      </trkpt>
      <trkpt lat="48.75657" lon="2.04145">
        <ele>164</ele>
        <time>2015-07-12T10:47:48Z</time>
      </trkpt>
      <trkpt lat="48.75632" lon="2.0414">
        <ele>164</ele>
        <time>2015-07-12T10:48:03Z</time>
      </trkpt>
      <trkpt lat="48.75624" lon="2.04134">
        <ele>164</ele>
        <time>2015-07-12T10:48:09Z</time>
      </trkpt>
      <trkpt lat="48.75615" lon="2.04132">
        <ele>164</ele>
        <time>2015-07-12T10:48:16Z</time>
      </trkpt>
      <trkpt lat="48.75607" lon="2.04129">
        <ele>164</ele>
        <time>2015-07-12T10:48:21Z</time>
      </trkpt>
      <trkpt lat="48.75573" lon="2.04136">
        <ele>164</ele>
        <time>2015-07-12T10:48:49Z</time>
      </trkpt>
      <trkpt lat="48.75557" lon="2.04141">
        <ele>165</ele>
        <time>2015-07-12T10:49:01Z</time>
      </trkpt>
      <trkpt lat="48.7555" lon="2.04147">
        <ele>165</ele>
        <time>2015-07-12T10:49:06Z</time>
      </trkpt>
      <trkpt lat="48.75534" lon="2.04155">
        <ele>165</ele>
        <time>2015-07-12T10:49:20Z</time>
      </trkpt>
      <trkpt lat="48.75526" lon="2.04161">
        <ele>164</ele>
        <time>2015-07-12T10:49:28Z</time>
      </trkpt>
      <trkpt lat="48.75518" lon="2.04161">
        <ele>164</ele>
        <time>2015-07-12T10:49:37Z</time>
      </trkpt>
      <trkpt lat="48.75503" lon="2.0417">
        <ele>164</ele>
        <time>2015-07-12T10:49:48Z</time>
      </trkpt>
      <trkpt lat="48.75496" lon="2.04163">
        <ele>164</ele>
        <time>2015-07-12T10:49:54Z</time>
      </trkpt>
      <trkpt lat="48.75494" lon="2.04151">
        <ele>164</ele>
        <time>2015-07-12T10:50:00Z</time>
      </trkpt>
      <trkpt lat="48.75488" lon="2.04142">
        <ele>164</ele>
        <time>2015-07-12T10:50:06Z</time>
      </trkpt>
      <trkpt lat="48.75463" lon="2.04142">
        <ele>164</ele>
        <time>2015-07-12T10:50:26Z</time>
      </trkpt>
      <trkpt lat="48.75451" lon="2.04126">
        <ele>164</ele>
        <time>2015-07-12T10:50:38Z</time>
      </trkpt>
      <trkpt lat="48.75445" lon="2.04116">
        <ele>164</ele>
        <time>2015-07-12T10:50:44Z</time>
      </trkpt>
      <trkpt lat="48.75439" lon="2.0411">
        <ele>164</ele>
        <time>2015-07-12T10:50:49Z</time>
      </trkpt>
      <trkpt lat="48.75431" lon="2.04104">
        <ele>164</ele>
        <time>2015-07-12T10:50:55Z</time>
      </trkpt>
      <trkpt lat="48.75425" lon="2.04097">
        <ele>164</ele>
        <time>2015-07-12T10:51:00Z</time>
      </trkpt>
      <trkpt lat="48.75422" lon="2.04084">
        <ele>164</ele>
        <time>2015-07-12T10:51:07Z</time>
      </trkpt>
      <trkpt lat="48.7543" lon="2.04077">
        <ele>164</ele>
        <time>2015-07-12T10:51:15Z</time>
      </trkpt>
      <trkpt lat="48.75433" lon="2.04066">
        <ele>165</ele>
        <time>2015-07-12T10:51:22Z</time>
      </trkpt>
      <trkpt lat="48.75434" lon="2.04052">
        <ele>165</ele>
        <time>2015-07-12T10:51:29Z</time>
      </trkpt>
      <trkpt lat="48.75432" lon="2.0404">
        <ele>165</ele>
        <time>2015-07-12T10:51:35Z</time>
      </trkpt>
      <trkpt lat="48.75433" lon="2.04028">
        <ele>164</ele>
        <time>2015-07-12T10:51:43Z</time>
      </trkpt>
      <trkpt lat="48.75439" lon="2.0399">
        <ele>163</ele>
        <time>2015-07-12T10:52:05Z</time>
      </trkpt>
      <trkpt lat="48.75458" lon="2.03948">
        <ele>163</ele>
        <time>2015-07-12T10:52:29Z</time>
      </trkpt>
      <trkpt lat="48.75471" lon="2.03901">
        <ele>162</ele>
        <time>2015-07-12T10:52:53Z</time>
      </trkpt>
      <trkpt lat="48.75473" lon="2.03888">
        <ele>162</ele>
        <time>2015-07-12T10:53:01Z</time>
      </trkpt>
      <trkpt lat="48.75455" lon="2.03832">
        <ele>160</ele>
        <time>2015-07-12T10:53:35Z</time>
      </trkpt>
      <trkpt lat="48.75455" lon="2.0382">
        <ele>160</ele>
        <time>2015-07-12T10:53:40Z</time>
      </trkpt>
      <trkpt lat="48.75453" lon="2.03808">
        <ele>160</ele>
        <time>2015-07-12T10:53:46Z</time>
      </trkpt>
      <trkpt lat="48.75449" lon="2.03798">
        <ele>159</ele>
        <time>2015-07-12T10:53:52Z</time>
      </trkpt>
      <trkpt lat="48.7544" lon="2.03795">
        <ele>159</ele>
        <time>2015-07-12T10:53:59Z</time>
      </trkpt>
      <trkpt lat="48.75432" lon="2.03793">
        <ele>158</ele>
        <time>2015-07-12T10:54:06Z</time>
      </trkpt>
      <trkpt lat="48.75424" lon="2.03789">
        <ele>158</ele>
        <time>2015-07-12T10:54:13Z</time>
      </trkpt>
      <trkpt lat="48.75424" lon="2.03777">
        <ele>158</ele>
        <time>2015-07-12T10:54:20Z</time>
      </trkpt>
      <trkpt lat="48.75431" lon="2.03727">
        <ele>156</ele>
        <time>2015-07-12T10:54:43Z</time>
      </trkpt>
      <trkpt lat="48.7543" lon="2.03714">
        <ele>156</ele>
        <time>2015-07-12T10:54:49Z</time>
      </trkpt>
      <trkpt lat="48.75429" lon="2.03702">
        <ele>155</ele>
        <time>2015-07-12T10:54:55Z</time>
      </trkpt>
      <trkpt lat="48.75426" lon="2.0369">
        <ele>154</ele>
        <time>2015-07-12T10:55:01Z</time>
      </trkpt>
      <trkpt lat="48.75425" lon="2.03678">
        <ele>153</ele>
        <time>2015-07-12T10:55:07Z</time>
      </trkpt>
      <trkpt lat="48.7543" lon="2.03668">
        <ele>153</ele>
        <time>2015-07-12T10:55:13Z</time>
      </trkpt>
      <trkpt lat="48.75436" lon="2.03645">
        <ele>152</ele>
        <time>2015-07-12T10:55:24Z</time>
      </trkpt>
      <trkpt lat="48.75437" lon="2.0362">
        <ele>152</ele>
        <time>2015-07-12T10:55:35Z</time>
      </trkpt>
      <trkpt lat="48.75437" lon="2.03608">
        <ele>152</ele>
        <time>2015-07-12T10:55:40Z</time>
      </trkpt>
      <trkpt lat="48.75439" lon="2.03596">
        <ele>151</ele>
        <time>2015-07-12T10:55:46Z</time>
      </trkpt>
      <trkpt lat="48.75443" lon="2.03585">
        <ele>151</ele>
        <time>2015-07-12T10:55:53Z</time>
      </trkpt>
      <trkpt lat="48.75453" lon="2.03538">
        <ele>152</ele>
        <time>2015-07-12T10:56:17Z</time>
      </trkpt>
      <trkpt lat="48.75468" lon="2.03493">
        <ele>154</ele>
        <time>2015-07-12T10:56:43Z</time>
      </trkpt>
      <trkpt lat="48.75468" lon="2.0348">
        <ele>154</ele>
        <time>2015-07-12T10:56:49Z</time>
      </trkpt>
      <trkpt lat="48.75475" lon="2.03455">
        <ele>154</ele>
        <time>2015-07-12T10:57:01Z</time>
      </trkpt>
      <trkpt lat="48.75476" lon="2.03443">
        <ele>154</ele>
        <time>2015-07-12T10:57:06Z</time>
      </trkpt>
      <trkpt lat="48.75479" lon="2.03431">
        <ele>155</ele>
        <time>2015-07-12T10:57:13Z</time>
      </trkpt>
      <trkpt lat="48.75475" lon="2.03406">
        <ele>154</ele>
        <time>2015-07-12T10:57:27Z</time>
      </trkpt>
      <trkpt lat="48.75478" lon="2.03393">
        <ele>154</ele>
        <time>2015-07-12T10:57:33Z</time>
      </trkpt>
      <trkpt lat="48.75481" lon="2.03381">
        <ele>154</ele>
        <time>2015-07-12T10:57:41Z</time>
      </trkpt>
      <trkpt lat="48.75481" lon="2.03355">
        <ele>153</ele>
        <time>2015-07-12T10:57:54Z</time>
      </trkpt>
      <trkpt lat="48.75483" lon="2.03343">
        <ele>153</ele>
        <time>2015-07-12T10:58:00Z</time>
      </trkpt>
      <trkpt lat="48.75487" lon="2.03333">
        <ele>152</ele>
        <time>2015-07-12T10:58:06Z</time>
      </trkpt>
      <trkpt lat="48.75489" lon="2.0332">
        <ele>152</ele>
        <time>2015-07-12T10:58:13Z</time>
      </trkpt>
      <trkpt lat="48.75492" lon="2.03308">
        <ele>152</ele>
        <time>2015-07-12T10:58:20Z</time>
      </trkpt>
      <trkpt lat="48.75498" lon="2.033">
        <ele>151</ele>
        <time>2015-07-12T10:58:26Z</time>
      </trkpt>
      <trkpt lat="48.75508" lon="2.03279">
        <ele>154</ele>
        <time>2015-07-12T10:58:40Z</time>
      </trkpt>
      <trkpt lat="48.75515" lon="2.03272">
        <ele>154</ele>
        <time>2015-07-12T10:58:46Z</time>
      </trkpt>
      <trkpt lat="48.75525" lon="2.03252">
        <ele>154</ele>
        <time>2015-07-12T10:58:58Z</time>
      </trkpt>
      <trkpt lat="48.75532" lon="2.03245">
        <ele>153</ele>
        <time>2015-07-12T10:59:05Z</time>
      </trkpt>
      <trkpt lat="48.75538" lon="2.03237">
        <ele>153</ele>
        <time>2015-07-12T10:59:11Z</time>
      </trkpt>
      <trkpt lat="48.75547" lon="2.03214">
        <ele>154</ele>
        <time>2015-07-12T10:59:25Z</time>
      </trkpt>
      <trkpt lat="48.75553" lon="2.03205">
        <ele>154</ele>
        <time>2015-07-12T10:59:31Z</time>
      </trkpt>
      <trkpt lat="48.75578" lon="2.03153">
        <ele>154</ele>
        <time>2015-07-12T11:00:03Z</time>
      </trkpt>
      <trkpt lat="48.75582" lon="2.03141">
        <ele>154</ele>
        <time>2015-07-12T11:00:14Z</time>
      </trkpt>
      <trkpt lat="48.75583" lon="2.03129">
        <ele>153</ele>
        <time>2015-07-12T11:00:18Z</time>
      </trkpt>
      <trkpt lat="48.75588" lon="2.0312">
        <ele>156</ele>
        <time>2015-07-12T11:00:23Z</time>
      </trkpt>
      <trkpt lat="48.75592" lon="2.03108">
        <ele>156</ele>
        <time>2015-07-12T11:00:31Z</time>
      </trkpt>
      <trkpt lat="48.75613" lon="2.03085">
        <ele>156</ele>
        <time>2015-07-12T11:00:50Z</time>
      </trkpt>
      <trkpt lat="48.75617" lon="2.03074">
        <ele>155</ele>
        <time>2015-07-12T11:00:55Z</time>
      </trkpt>
      <trkpt lat="48.75622" lon="2.03063">
        <ele>155</ele>
        <time>2015-07-12T11:01:00Z</time>
      </trkpt>
      <trkpt lat="48.75621" lon="2.03049">
        <ele>155</ele>
        <time>2015-07-12T11:01:10Z</time>
      </trkpt>
      <trkpt lat="48.75625" lon="2.03039">
        <ele>155</ele>
        <time>2015-07-12T11:01:24Z</time>
      </trkpt>
      <trkpt lat="48.75625" lon="2.03013">
        <ele>155</ele>
        <time>2015-07-12T11:01:33Z</time>
      </trkpt>
      <trkpt lat="48.7562" lon="2.03003">
        <ele>154</ele>
        <time>2015-07-12T11:01:39Z</time>
      </trkpt>
      <trkpt lat="48.75613" lon="2.02967">
        <ele>154</ele>
        <time>2015-07-12T11:02:00Z</time>
      </trkpt>
      <trkpt lat="48.75612" lon="2.02954">
        <ele>154</ele>
        <time>2015-07-12T11:02:05Z</time>
      </trkpt>
      <trkpt lat="48.75609" lon="2.02942">
        <ele>154</ele>
        <time>2015-07-12T11:02:10Z</time>
      </trkpt>
      <trkpt lat="48.75605" lon="2.02918">
        <ele>153</ele>
        <time>2015-07-12T11:02:23Z</time>
      </trkpt>
      <trkpt lat="48.75608" lon="2.02895">
        <ele>155</ele>
        <time>2015-07-12T11:02:34Z</time>
      </trkpt>
      <trkpt lat="48.75605" lon="2.02883">
        <ele>156</ele>
        <time>2015-07-12T11:02:41Z</time>
      </trkpt>
      <trkpt lat="48.75607" lon="2.0287">
        <ele>156</ele>
        <time>2015-07-12T11:02:50Z</time>
      </trkpt>
      <trkpt lat="48.75606" lon="2.02857">
        <ele>157</ele>
        <time>2015-07-12T11:02:57Z</time>
      </trkpt>
      <trkpt lat="48.756" lon="2.02833">
        <ele>158</ele>
        <time>2015-07-12T11:03:13Z</time>
      </trkpt>
      <trkpt lat="48.75599" lon="2.0282">
        <ele>158</ele>
        <time>2015-07-12T11:03:20Z</time>
      </trkpt>
      <trkpt lat="48.75603" lon="2.02808">
        <ele>159</ele>
        <time>2015-07-12T11:03:28Z</time>
      </trkpt>
      <trkpt lat="48.756" lon="2.02796">
        <ele>159</ele>
        <time>2015-07-12T11:03:34Z</time>
      </trkpt>
      <trkpt lat="48.75596" lon="2.02784">
        <ele>159</ele>
        <time>2015-07-12T11:03:40Z</time>
      </trkpt>
      <trkpt lat="48.75595" lon="2.02771">
        <ele>159</ele>
        <time>2015-07-12T11:03:47Z</time>
      </trkpt>
      <trkpt lat="48.75591" lon="2.02759">
        <ele>158</ele>
        <time>2015-07-12T11:03:53Z</time>
      </trkpt>
      <trkpt lat="48.7559" lon="2.02747">
        <ele>158</ele>
        <time>2015-07-12T11:03:58Z</time>
      </trkpt>
      <trkpt lat="48.75589" lon="2.02734">
        <ele>159</ele>
        <time>2015-07-12T11:04:07Z</time>
      </trkpt>
      <trkpt lat="48.7559" lon="2.02723">
        <ele>160</ele>
        <time>2015-07-12T11:04:12Z</time>
      </trkpt>
      <trkpt lat="48.7559" lon="2.02711">
        <ele>160</ele>
        <time>2015-07-12T11:04:16Z</time>
      </trkpt>
      <trkpt lat="48.75588" lon="2.02699">
        <ele>160</ele>
        <time>2015-07-12T11:04:21Z</time>
      </trkpt>
      <trkpt lat="48.75583" lon="2.02687">
        <ele>157</ele>
        <time>2015-07-12T11:04:26Z</time>
      </trkpt>
      <trkpt lat="48.75589" lon="2.0265">
        <ele>160</ele>
        <time>2015-07-12T11:04:46Z</time>
      </trkpt>
      <trkpt lat="48.7559" lon="2.02638">
        <ele>160</ele>
        <time>2015-07-12T11:04:54Z</time>
      </trkpt>
      <trkpt lat="48.75588" lon="2.02626">
        <ele>160</ele>
        <time>2015-07-12T11:05:00Z</time>
      </trkpt>
      <trkpt lat="48.75591" lon="2.02614">
        <ele>160</ele>
        <time>2015-07-12T11:05:08Z</time>
      </trkpt>
      <trkpt lat="48.75596" lon="2.02604">
        <ele>160</ele>
        <time>2015-07-12T11:05:14Z</time>
      </trkpt>
      <trkpt lat="48.75598" lon="2.02593">
        <ele>160</ele>
        <time>2015-07-12T11:05:20Z</time>
      </trkpt>
      <trkpt lat="48.75602" lon="2.02583">
        <ele>159</ele>
        <time>2015-07-12T11:05:25Z</time>
      </trkpt>
      <trkpt lat="48.75605" lon="2.02571">
        <ele>159</ele>
        <time>2015-07-12T11:05:30Z</time>
      </trkpt>
      <trkpt lat="48.75602" lon="2.02559">
        <ele>158</ele>
        <time>2015-07-12T11:05:38Z</time>
      </trkpt>
      <trkpt lat="48.75601" lon="2.02546">
        <ele>158</ele>
        <time>2015-07-12T11:06:16Z</time>
      </trkpt>
      <trkpt lat="48.75619" lon="2.02489">
        <ele>156</ele>
        <time>2015-07-12T11:06:45Z</time>
      </trkpt>
      <trkpt lat="48.75624" lon="2.02479">
        <ele>157</ele>
        <time>2015-07-12T11:06:52Z</time>
      </trkpt>
      <trkpt lat="48.7563" lon="2.0247">
        <ele>157</ele>
        <time>2015-07-12T11:06:59Z</time>
      </trkpt>
      <trkpt lat="48.75636" lon="2.02463">
        <ele>157</ele>
        <time>2015-07-12T11:07:06Z</time>
      </trkpt>
      <trkpt lat="48.75645" lon="2.02441">
        <ele>157</ele>
        <time>2015-07-12T11:07:17Z</time>
      </trkpt>
      <trkpt lat="48.75652" lon="2.02433">
        <ele>158</ele>
        <time>2015-07-12T11:07:23Z</time>
      </trkpt>
      <trkpt lat="48.75659" lon="2.02426">
        <ele>158</ele>
        <time>2015-07-12T11:07:32Z</time>
      </trkpt>
      <trkpt lat="48.75667" lon="2.0242">
        <ele>160</ele>
        <time>2015-07-12T11:07:39Z</time>
      </trkpt>
      <trkpt lat="48.75674" lon="2.02413">
        <ele>160</ele>
        <time>2015-07-12T11:07:46Z</time>
      </trkpt>
      <trkpt lat="48.7568" lon="2.02404">
        <ele>161</ele>
        <time>2015-07-12T11:07:54Z</time>
      </trkpt>
      <trkpt lat="48.75687" lon="2.02396">
        <ele>162</ele>
        <time>2015-07-12T11:08:02Z</time>
      </trkpt>
      <trkpt lat="48.75698" lon="2.0238">
        <ele>163</ele>
        <time>2015-07-12T11:08:13Z</time>
      </trkpt>
      <trkpt lat="48.75702" lon="2.02369">
        <ele>163</ele>
        <time>2015-07-12T11:08:18Z</time>
      </trkpt>
      <trkpt lat="48.75707" lon="2.02359">
        <ele>163</ele>
        <time>2015-07-12T11:08:24Z</time>
      </trkpt>
      <trkpt lat="48.75713" lon="2.02351">
        <ele>163</ele>
        <time>2015-07-12T11:08:30Z</time>
      </trkpt>
      <trkpt lat="48.75719" lon="2.02345">
        <ele>164</ele>
        <time>2015-07-12T11:08:35Z</time>
      </trkpt>
      <trkpt lat="48.75725" lon="2.02335">
        <ele>164</ele>
        <time>2015-07-12T11:08:43Z</time>
      </trkpt>
      <trkpt lat="48.75732" lon="2.02327">
        <ele>164</ele>
        <time>2015-07-12T11:08:50Z</time>
      </trkpt>
      <trkpt lat="48.75739" lon="2.0232">
        <ele>164</ele>
        <time>2015-07-12T11:08:58Z</time>
      </trkpt>
      <trkpt lat="48.75743" lon="2.0231">
        <ele>163</ele>
        <time>2015-07-12T11:09:03Z</time>
      </trkpt>
      <trkpt lat="48.75756" lon="2.02295">
        <ele>166</ele>
        <time>2015-07-12T11:09:14Z</time>
      </trkpt>
      <trkpt lat="48.75763" lon="2.02286">
        <ele>166</ele>
        <time>2015-07-12T11:09:22Z</time>
      </trkpt>
      <trkpt lat="48.7577" lon="2.02278">
        <ele>166</ele>
        <time>2015-07-12T11:09:28Z</time>
      </trkpt>
      <trkpt lat="48.75778" lon="2.02272">
        <ele>166</ele>
        <time>2015-07-12T11:09:33Z</time>
      </trkpt>
      <trkpt lat="48.75786" lon="2.02267">
        <ele>166</ele>
        <time>2015-07-12T11:09:39Z</time>
      </trkpt>
      <trkpt lat="48.75793" lon="2.02264">
        <ele>167</ele>
        <time>2015-07-12T11:09:45Z</time>
      </trkpt>
      <trkpt lat="48.758" lon="2.0226">
        <ele>167</ele>
        <time>2015-07-12T11:09:50Z</time>
      </trkpt>
      <trkpt lat="48.75809" lon="2.0226">
        <ele>167</ele>
        <time>2015-07-12T11:09:55Z</time>
      </trkpt>
      <trkpt lat="48.75817" lon="2.02256">
        <ele>167</ele>
        <time>2015-07-12T11:10:00Z</time>
      </trkpt>
      <trkpt lat="48.75824" lon="2.0225">
        <ele>166</ele>
        <time>2015-07-12T11:10:09Z</time>
      </trkpt>
      <trkpt lat="48.7583" lon="2.0224">
        <ele>165</ele>
        <time>2015-07-12T11:10:18Z</time>
      </trkpt>
      <trkpt lat="48.75845" lon="2.02226">
        <ele>166</ele>
        <time>2015-07-12T11:10:33Z</time>
      </trkpt>
      <trkpt lat="48.75853" lon="2.0222">
        <ele>166</ele>
        <time>2015-07-12T11:10:41Z</time>
      </trkpt>
      <trkpt lat="48.7586" lon="2.02217">
        <ele>166</ele>
        <time>2015-07-12T11:10:46Z</time>
      </trkpt>
      <trkpt lat="48.75868" lon="2.02217">
        <ele>166</ele>
        <time>2015-07-12T11:10:51Z</time>
      </trkpt>
      <trkpt lat="48.75876" lon="2.02212">
        <ele>166</ele>
        <time>2015-07-12T11:10:56Z</time>
      </trkpt>
      <trkpt lat="48.7588" lon="2.02204">
        <ele>166</ele>
        <time>2015-07-12T11:11:00Z</time>
      </trkpt>
      <trkpt lat="48.75899" lon="2.02177">
        <ele>166</ele>
        <time>2015-07-12T11:11:23Z</time>
      </trkpt>
      <trkpt lat="48.75914" lon="2.02166">
        <ele>166</ele>
        <time>2015-07-12T11:11:35Z</time>
      </trkpt>
      <trkpt lat="48.75947" lon="2.02127">
        <ele>168</ele>
        <time>2015-07-12T11:12:07Z</time>
      </trkpt>
      <trkpt lat="48.75963" lon="2.02121">
        <ele>168</ele>
        <time>2015-07-12T11:12:19Z</time>
      </trkpt>
      <trkpt lat="48.75971" lon="2.02114">
        <ele>169</ele>
        <time>2015-07-12T11:12:28Z</time>
      </trkpt>
      <trkpt lat="48.7598" lon="2.02111">
        <ele>169</ele>
        <time>2015-07-12T11:12:37Z</time>
      </trkpt>
      <trkpt lat="48.75988" lon="2.02112">
        <ele>169</ele>
        <time>2015-07-12T11:12:43Z</time>
      </trkpt>
      <trkpt lat="48.76006" lon="2.02107">
        <ele>172</ele>
        <time>2015-07-12T11:12:58Z</time>
      </trkpt>
      <trkpt lat="48.76014" lon="2.02107">
        <ele>172</ele>
        <time>2015-07-12T11:13:04Z</time>
      </trkpt>
      <trkpt lat="48.76023" lon="2.02103">
        <ele>173</ele>
        <time>2015-07-12T11:13:10Z</time>
      </trkpt>
      <trkpt lat="48.76028" lon="2.02094">
        <ele>173</ele>
        <time>2015-07-12T11:13:16Z</time>
      </trkpt>
      <trkpt lat="48.76031" lon="2.02082">
        <ele>172</ele>
        <time>2015-07-12T11:13:26Z</time>
      </trkpt>
      <trkpt lat="48.76035" lon="2.02071">
        <ele>172</ele>
        <time>2015-07-12T11:13:34Z</time>
      </trkpt>
      <trkpt lat="48.76017" lon="2.0203">
        <ele>172</ele>
        <time>2015-07-12T11:14:01Z</time>
      </trkpt>
      <trkpt lat="48.76015" lon="2.02019">
        <ele>171</ele>
        <time>2015-07-12T11:14:08Z</time>
      </trkpt>
      <trkpt lat="48.76009" lon="2.0201">
        <ele>171</ele>
        <time>2015-07-12T11:14:14Z</time>
      </trkpt>
      <trkpt lat="48.76004" lon="2.02">
        <ele>170</ele>
        <time>2015-07-12T11:14:20Z</time>
      </trkpt>
      <trkpt lat="48.76001" lon="2.01989">
        <ele>171</ele>
        <time>2015-07-12T11:14:26Z</time>
      </trkpt>
      <trkpt lat="48.75998" lon="2.01977">
        <ele>168</ele>
        <time>2015-07-12T11:14:32Z</time>
      </trkpt>
      <trkpt lat="48.75991" lon="2.01954">
        <ele>168</ele>
        <time>2015-07-12T11:14:44Z</time>
      </trkpt>
      <trkpt lat="48.75985" lon="2.01944">
        <ele>168</ele>
        <time>2015-07-12T11:14:50Z</time>
      </trkpt>
      <trkpt lat="48.75984" lon="2.01931">
        <ele>168</ele>
        <time>2015-07-12T11:14:56Z</time>
      </trkpt>
      <trkpt lat="48.75973" lon="2.01897">
        <ele>166</ele>
        <time>2015-07-12T11:15:18Z</time>
      </trkpt>
      <trkpt lat="48.75962" lon="2.01878">
        <ele>166</ele>
        <time>2015-07-12T11:15:32Z</time>
      </trkpt>
      <trkpt lat="48.75955" lon="2.01854">
        <ele>165</ele>
        <time>2015-07-12T11:15:45Z</time>
      </trkpt>
      <trkpt lat="48.75949" lon="2.01844">
        <ele>165</ele>
        <time>2015-07-12T11:15:51Z</time>
      </trkpt>
      <trkpt lat="48.75945" lon="2.01832">
        <ele>164</ele>
        <time>2015-07-12T11:15:59Z</time>
      </trkpt>
      <trkpt lat="48.75939" lon="2.01823">
        <ele>164</ele>
        <time>2015-07-12T11:16:08Z</time>
      </trkpt>
      <trkpt lat="48.75936" lon="2.01813">
        <ele>164</ele>
        <time>2015-07-12T11:16:13Z</time>
      </trkpt>
      <trkpt lat="48.7593" lon="2.01802">
        <ele>164</ele>
        <time>2015-07-12T11:16:19Z</time>
      </trkpt>
      <trkpt lat="48.75929" lon="2.01792">
        <ele>164</ele>
        <time>2015-07-12T11:16:23Z</time>
      </trkpt>
      <trkpt lat="48.75927" lon="2.0178">
        <ele>165</ele>
        <time>2015-07-12T11:16:29Z</time>
      </trkpt>
      <trkpt lat="48.75919" lon="2.01775">
        <ele>165</ele>
        <time>2015-07-12T11:16:36Z</time>
      </trkpt>
      <trkpt lat="48.75912" lon="2.01766">
        <ele>164</ele>
        <time>2015-07-12T11:16:45Z</time>
      </trkpt>
      <trkpt lat="48.7589" lon="2.0175">
        <ele>165</ele>
        <time>2015-07-12T11:17:07Z</time>
      </trkpt>
      <trkpt lat="48.75884" lon="2.01743">
        <ele>165</ele>
        <time>2015-07-12T11:17:12Z</time>
      </trkpt>
      <trkpt lat="48.75877" lon="2.01738">
        <ele>165</ele>
        <time>2015-07-12T11:17:17Z</time>
      </trkpt>
      <trkpt lat="48.7587" lon="2.01734">
        <ele>165</ele>
        <time>2015-07-12T11:17:22Z</time>
      </trkpt>
      <trkpt lat="48.75862" lon="2.01728">
        <ele>165</ele>
        <time>2015-07-12T11:17:29Z</time>
      </trkpt>
      <trkpt lat="48.75854" lon="2.01723">
        <ele>165</ele>
        <time>2015-07-12T11:17:38Z</time>
      </trkpt>
      <trkpt lat="48.75847" lon="2.01716">
        <ele>165</ele>
        <time>2015-07-12T11:17:45Z</time>
      </trkpt>
      <trkpt lat="48.75839" lon="2.01714">
        <ele>165</ele>
        <time>2015-07-12T11:17:53Z</time>
      </trkpt>
      <trkpt lat="48.75824" lon="2.01701">
        <ele>167</ele>
        <time>2015-07-12T11:18:06Z</time>
      </trkpt>
      <trkpt lat="48.75816" lon="2.01697">
        <ele>167</ele>
        <time>2015-07-12T11:18:11Z</time>
      </trkpt>
      <trkpt lat="48.75793" lon="2.01677">
        <ele>168</ele>
        <time>2015-07-12T11:18:35Z</time>
      </trkpt>
      <trkpt lat="48.75785" lon="2.01672">
        <ele>168</ele>
        <time>2015-07-12T11:18:41Z</time>
      </trkpt>
      <trkpt lat="48.75778" lon="2.01667">
        <ele>169</ele>
        <time>2015-07-12T11:18:47Z</time>
      </trkpt>
      <trkpt lat="48.75772" lon="2.01659">
        <ele>172</ele>
        <time>2015-07-12T11:18:54Z</time>
      </trkpt>
      <trkpt lat="48.75764" lon="2.01658">
        <ele>172</ele>
        <time>2015-07-12T11:19:00Z</time>
      </trkpt>
      <trkpt lat="48.7575" lon="2.01645">
        <ele>174</ele>
        <time>2015-07-12T11:19:12Z</time>
      </trkpt>
      <trkpt lat="48.75741" lon="2.01643">
        <ele>174</ele>
        <time>2015-07-12T11:19:18Z</time>
      </trkpt>
      <trkpt lat="48.75733" lon="2.01644">
        <ele>174</ele>
        <time>2015-07-12T11:19:25Z</time>
      </trkpt>
      <trkpt lat="48.75729" lon="2.01655">
        <ele>174</ele>
        <time>2015-07-12T11:19:34Z</time>
      </trkpt>
      <trkpt lat="48.75732" lon="2.01666">
        <ele>173</ele>
        <time>2015-07-12T11:19:42Z</time>
      </trkpt>
      <trkpt lat="48.7573" lon="2.01691">
        <ele>171</ele>
        <time>2015-07-12T11:20:04Z</time>
      </trkpt>
      <trkpt lat="48.7573" lon="2.01705">
        <ele>170</ele>
        <time>2015-07-12T11:20:17Z</time>
      </trkpt>
      <trkpt lat="48.75725" lon="2.01729">
        <ele>169</ele>
        <time>2015-07-12T11:20:31Z</time>
      </trkpt>
      <trkpt lat="48.75721" lon="2.0174">
        <ele>169</ele>
        <time>2015-07-12T11:20:40Z</time>
      </trkpt>
      <trkpt lat="48.75716" lon="2.01749">
        <ele>169</ele>
        <time>2015-07-12T11:21:01Z</time>
      </trkpt>
      <trkpt lat="48.75709" lon="2.01785">
        <ele>166</ele>
        <time>2015-07-12T11:21:20Z</time>
      </trkpt>
      <trkpt lat="48.75703" lon="2.01794">
        <ele>166</ele>
        <time>2015-07-12T11:21:25Z</time>
      </trkpt>
      <trkpt lat="48.75698" lon="2.01804">
        <ele>166</ele>
        <time>2015-07-12T11:21:32Z</time>
      </trkpt>
      <trkpt lat="48.7569" lon="2.01806">
        <ele>166</ele>
        <time>2015-07-12T11:21:37Z</time>
      </trkpt>
      <trkpt lat="48.75673" lon="2.01808">
        <ele>167</ele>
        <time>2015-07-12T11:21:52Z</time>
      </trkpt>
      <trkpt lat="48.75667" lon="2.01818">
        <ele>167</ele>
        <time>2015-07-12T11:22:01Z</time>
      </trkpt>
      <trkpt lat="48.7566" lon="2.01823">
        <ele>168</ele>
        <time>2015-07-12T11:22:09Z</time>
      </trkpt>
      <trkpt lat="48.75643" lon="2.01827">
        <ele>168</ele>
        <time>2015-07-12T11:22:23Z</time>
      </trkpt>
      <trkpt lat="48.75629" lon="2.01809">
        <ele>168</ele>
        <time>2015-07-12T11:22:40Z</time>
      </trkpt>
      <trkpt lat="48.75614" lon="2.01798">
        <ele>169</ele>
        <time>2015-07-12T11:22:54Z</time>
      </trkpt>
      <trkpt lat="48.75607" lon="2.01792">
        <ele>169</ele>
        <time>2015-07-12T11:23:01Z</time>
      </trkpt>
      <trkpt lat="48.75599" lon="2.0179">
        <ele>169</ele>
        <time>2015-07-12T11:23:09Z</time>
      </trkpt>
      <trkpt lat="48.75587" lon="2.01773">
        <ele>170</ele>
        <time>2015-07-12T11:23:26Z</time>
      </trkpt>
      <trkpt lat="48.75579" lon="2.01766">
        <ele>168</ele>
        <time>2015-07-12T11:23:32Z</time>
      </trkpt>
      <trkpt lat="48.75571" lon="2.01762">
        <ele>168</ele>
        <time>2015-07-12T11:23:38Z</time>
      </trkpt>
      <trkpt lat="48.75564" lon="2.01756">
        <ele>168</ele>
        <time>2015-07-12T11:23:46Z</time>
      </trkpt>
      <trkpt lat="48.75555" lon="2.0176">
        <ele>167</ele>
        <time>2015-07-12T11:23:57Z</time>
      </trkpt>
      <trkpt lat="48.75547" lon="2.01761">
        <ele>166</ele>
        <time>2015-07-12T11:24:08Z</time>
      </trkpt>
      <trkpt lat="48.75539" lon="2.01758">
        <ele>165</ele>
        <time>2015-07-12T11:24:18Z</time>
      </trkpt>
      <trkpt lat="48.7553" lon="2.01755">
        <ele>165</ele>
        <time>2015-07-12T11:24:25Z</time>
      </trkpt>
      <trkpt lat="48.75522" lon="2.01755">
        <ele>164</ele>
        <time>2015-07-12T11:24:34Z</time>
      </trkpt>
      <trkpt lat="48.75513" lon="2.01758">
        <ele>164</ele>
        <time>2015-07-12T11:24:42Z</time>
      </trkpt>
      <trkpt lat="48.75509" lon="2.01746">
        <ele>165</ele>
        <time>2015-07-12T11:24:55Z</time>
      </trkpt>
      <trkpt lat="48.75505" lon="2.01696">
        <ele>168</ele>
        <time>2015-07-12T11:25:24Z</time>
      </trkpt>
      <trkpt lat="48.75502" lon="2.01685">
        <ele>167</ele>
        <time>2015-07-12T11:25:30Z</time>
      </trkpt>
      <trkpt lat="48.75501" lon="2.01672">
        <ele>167</ele>
        <time>2015-07-12T11:25:37Z</time>
      </trkpt>
      <trkpt lat="48.75497" lon="2.01661">
        <ele>166</ele>
        <time>2015-07-12T11:25:43Z</time>
      </trkpt>
      <trkpt lat="48.75495" lon="2.0165">
        <ele>166</ele>
        <time>2015-07-12T11:25:48Z</time>
      </trkpt>
      <trkpt lat="48.75493" lon="2.01637">
        <ele>166</ele>
        <time>2015-07-12T11:25:54Z</time>
      </trkpt>
      <trkpt lat="48.75494" lon="2.01624">
        <ele>167</ele>
        <time>2015-07-12T11:26:00Z</time>
      </trkpt>
      <trkpt lat="48.75489" lon="2.01613">
        <ele>167</ele>
        <time>2015-07-12T11:26:07Z</time>
      </trkpt>
      <trkpt lat="48.75485" lon="2.0159">
        <ele>168</ele>
        <time>2015-07-12T11:26:17Z</time>
      </trkpt>
      <trkpt lat="48.75485" lon="2.01564">
        <ele>169</ele>
        <time>2015-07-12T11:26:30Z</time>
      </trkpt>
      <trkpt lat="48.75481" lon="2.01551">
        <ele>169</ele>
        <time>2015-07-12T11:26:36Z</time>
      </trkpt>
      <trkpt lat="48.75477" lon="2.0154">
        <ele>169</ele>
        <time>2015-07-12T11:26:42Z</time>
      </trkpt>
      <trkpt lat="48.75467" lon="2.01478">
        <ele>171</ele>
        <time>2015-07-12T11:27:17Z</time>
      </trkpt>
      <trkpt lat="48.75463" lon="2.01466">
        <ele>171</ele>
        <time>2015-07-12T11:27:24Z</time>
      </trkpt>
      <trkpt lat="48.75437" lon="2.01415">
        <ele>171</ele>
        <time>2015-07-12T11:27:59Z</time>
      </trkpt>
      <trkpt lat="48.75432" lon="2.01407">
        <ele>171</ele>
        <time>2015-07-12T11:28:06Z</time>
      </trkpt>
      <trkpt lat="48.75413" lon="2.01364">
        <ele>169</ele>
        <time>2015-07-12T11:28:31Z</time>
      </trkpt>
      <trkpt lat="48.7541" lon="2.01351">
        <ele>170</ele>
        <time>2015-07-12T11:28:37Z</time>
      </trkpt>
      <trkpt lat="48.75408" lon="2.01339">
        <ele>171</ele>
        <time>2015-07-12T11:28:44Z</time>
      </trkpt>
      <trkpt lat="48.75398" lon="2.01319">
        <ele>171</ele>
        <time>2015-07-12T11:29:01Z</time>
      </trkpt>
      <trkpt lat="48.75395" lon="2.01308">
        <ele>171</ele>
        <time>2015-07-12T11:29:09Z</time>
      </trkpt>
      <trkpt lat="48.754" lon="2.01297">
        <ele>171</ele>
        <time>2015-07-12T11:29:18Z</time>
      </trkpt>
      <trkpt lat="48.75404" lon="2.01258">
        <ele>173</ele>
        <time>2015-07-12T11:29:40Z</time>
      </trkpt>
      <trkpt lat="48.75407" lon="2.01246">
        <ele>174</ele>
        <time>2015-07-12T11:29:47Z</time>
      </trkpt>
      <trkpt lat="48.75424" lon="2.01217">
        <ele>176</ele>
        <time>2015-07-12T11:30:05Z</time>
      </trkpt>
      <trkpt lat="48.75429" lon="2.0117">
        <ele>175</ele>
        <time>2015-07-12T11:30:27Z</time>
      </trkpt>
      <trkpt lat="48.75431" lon="2.01159">
        <ele>176</ele>
        <time>2015-07-12T11:30:32Z</time>
      </trkpt>
      <trkpt lat="48.75429" lon="2.01147">
        <ele>176</ele>
        <time>2015-07-12T11:30:38Z</time>
      </trkpt>
      <trkpt lat="48.75424" lon="2.01059">
        <ele>176</ele>
        <time>2015-07-12T11:31:23Z</time>
      </trkpt>
      <trkpt lat="48.75424" lon="2.01047">
        <ele>176</ele>
        <time>2015-07-12T11:31:29Z</time>
      </trkpt>
      <trkpt lat="48.7542" lon="2.01036">
        <ele>176</ele>
        <time>2015-07-12T11:31:35Z</time>
      </trkpt>
      <trkpt lat="48.75415" lon="2.01001">
        <ele>174</ele>
        <time>2015-07-12T11:31:52Z</time>
      </trkpt>
      <trkpt lat="48.75415" lon="2.00989">
        <ele>173</ele>
        <time>2015-07-12T11:31:58Z</time>
      </trkpt>
      <trkpt lat="48.75418" lon="2.00964">
        <ele>175</ele>
        <time>2015-07-12T11:32:10Z</time>
      </trkpt>
      <trkpt lat="48.75413" lon="2.00954">
        <ele>173</ele>
        <time>2015-07-12T11:32:16Z</time>
      </trkpt>
      <trkpt lat="48.7539" lon="2.00917">
        <ele>172</ele>
        <time>2015-07-12T11:32:44Z</time>
      </trkpt>
      <trkpt lat="48.75383" lon="2.00909">
        <ele>174</ele>
        <time>2015-07-12T11:32:50Z</time>
      </trkpt>
      <trkpt lat="48.75378" lon="2.009">
        <ele>173</ele>
        <time>2015-07-12T11:32:56Z</time>
      </trkpt>
      <trkpt lat="48.75371" lon="2.00892">
        <ele>173</ele>
        <time>2015-07-12T11:33:03Z</time>
      </trkpt>
      <trkpt lat="48.75363" lon="2.00887">
        <ele>173</ele>
        <time>2015-07-12T11:33:08Z</time>
      </trkpt>
      <trkpt lat="48.75355" lon="2.00885">
        <ele>173</ele>
        <time>2015-07-12T11:33:14Z</time>
      </trkpt>
      <trkpt lat="48.75347" lon="2.00864">
        <ele>173</ele>
        <time>2015-07-12T11:33:25Z</time>
      </trkpt>
      <trkpt lat="48.75341" lon="2.00854">
        <ele>173</ele>
        <time>2015-07-12T11:33:30Z</time>
      </trkpt>
      <trkpt lat="48.75327" lon="2.00843">
        <ele>171</ele>
        <time>2015-07-12T11:33:41Z</time>
      </trkpt>
      <trkpt lat="48.75322" lon="2.00834">
        <ele>171</ele>
        <time>2015-07-12T11:33:47Z</time>
      </trkpt>
      <trkpt lat="48.75319" lon="2.00823">
        <ele>173</ele>
        <time>2015-07-12T11:33:53Z</time>
      </trkpt>
      <trkpt lat="48.75314" lon="2.00813">
        <ele>172</ele>
        <time>2015-07-12T11:34:00Z</time>
      </trkpt>
      <trkpt lat="48.75308" lon="2.00803">
        <ele>172</ele>
        <time>2015-07-12T11:34:07Z</time>
      </trkpt>
      <trkpt lat="48.75301" lon="2.00795">
        <ele>172</ele>
        <time>2015-07-12T11:34:14Z</time>
      </trkpt>
      <trkpt lat="48.7529" lon="2.00777">
        <ele>172</ele>
        <time>2015-07-12T11:34:28Z</time>
      </trkpt>
      <trkpt lat="48.75276" lon="2.00763">
        <ele>172</ele>
        <time>2015-07-12T11:34:40Z</time>
      </trkpt>
      <trkpt lat="48.75266" lon="2.00729">
        <ele>173</ele>
        <time>2015-07-12T11:34:57Z</time>
      </trkpt>
      <trkpt lat="48.7525" lon="2.007">
        <ele>172</ele>
        <time>2015-07-12T11:35:19Z</time>
      </trkpt>
      <trkpt lat="48.75239" lon="2.00669">
        <ele>172</ele>
        <time>2015-07-12T11:35:35Z</time>
      </trkpt>
      <trkpt lat="48.7522" lon="2.00644">
        <ele>173</ele>
        <time>2015-07-12T11:35:53Z</time>
      </trkpt>
      <trkpt lat="48.75216" lon="2.00633">
        <ele>173</ele>
        <time>2015-07-12T11:36:00Z</time>
      </trkpt>
      <trkpt lat="48.75215" lon="2.00621">
        <ele>173</ele>
        <time>2015-07-12T11:36:06Z</time>
      </trkpt>
      <trkpt lat="48.75214" lon="2.00609">
        <ele>173</ele>
        <time>2015-07-12T11:36:12Z</time>
      </trkpt>
      <trkpt lat="48.75205" lon="2.00574">
        <ele>173</ele>
        <time>2015-07-12T11:36:30Z</time>
      </trkpt>
      <trkpt lat="48.75201" lon="2.00564">
        <ele>173</ele>
        <time>2015-07-12T11:36:36Z</time>
      </trkpt>
      <trkpt lat="48.75201" lon="2.00551">
        <ele>173</ele>
        <time>2015-07-12T11:36:42Z</time>
      </trkpt>
      <trkpt lat="48.75192" lon="2.00551">
        <ele>173</ele>
        <time>2015-07-12T11:36:49Z</time>
      </trkpt>
      <trkpt lat="48.75186" lon="2.00558">
        <ele>173</ele>
        <time>2015-07-12T11:36:54Z</time>
      </trkpt>
      <trkpt lat="48.7518" lon="2.00567">
        <ele>173</ele>
        <time>2015-07-12T11:37:00Z</time>
      </trkpt>
      <trkpt lat="48.75176" lon="2.00577">
        <ele>174</ele>
        <time>2015-07-12T11:37:07Z</time>
      </trkpt>
      <trkpt lat="48.75168" lon="2.00583">
        <ele>174</ele>
        <time>2015-07-12T11:37:14Z</time>
      </trkpt>
      <trkpt lat="48.75163" lon="2.00592">
        <ele>174</ele>
        <time>2015-07-12T11:37:22Z</time>
      </trkpt>
      <trkpt lat="48.75159" lon="2.00604">
        <ele>173</ele>
        <time>2015-07-12T11:37:34Z</time>
      </trkpt>
      <trkpt lat="48.75151" lon="2.0061">
        <ele>173</ele>
        <time>2015-07-12T11:37:40Z</time>
      </trkpt>
      <trkpt lat="48.75146" lon="2.00621">
        <ele>173</ele>
        <time>2015-07-12T11:37:57Z</time>
      </trkpt>
      <trkpt lat="48.75131" lon="2.00635">
        <ele>173</ele>
        <time>2015-07-12T11:38:09Z</time>
      </trkpt>
      <trkpt lat="48.75117" lon="2.00646">
        <ele>173</ele>
        <time>2015-07-12T11:38:20Z</time>
      </trkpt>
      <trkpt lat="48.75079" lon="2.00692">
        <ele>172</ele>
        <time>2015-07-12T11:38:48Z</time>
      </trkpt>
      <trkpt lat="48.75072" lon="2.00699">
        <ele>172</ele>
        <time>2015-07-12T11:38:55Z</time>
      </trkpt>
      <trkpt lat="48.75053" lon="2.00723">
        <ele>171</ele>
        <time>2015-07-12T11:39:22Z</time>
      </trkpt>
      <trkpt lat="48.75045" lon="2.00725">
        <ele>172</ele>
        <time>2015-07-12T11:39:28Z</time>
      </trkpt>
      <trkpt lat="48.75038" lon="2.00718">
        <ele>172</ele>
        <time>2015-07-12T11:39:32Z</time>
      </trkpt>
      <trkpt lat="48.75032" lon="2.0071">
        <ele>172</ele>
        <time>2015-07-12T11:39:38Z</time>
      </trkpt>
      <trkpt lat="48.75025" lon="2.00715">
        <ele>172</ele>
        <time>2015-07-12T11:39:48Z</time>
      </trkpt>
      <trkpt lat="48.75017" lon="2.00713">
        <ele>173</ele>
        <time>2015-07-12T11:39:58Z</time>
      </trkpt>
      <trkpt lat="48.7501" lon="2.00707">
        <ele>173</ele>
        <time>2015-07-12T11:40:06Z</time>
      </trkpt>
      <trkpt lat="48.75002" lon="2.00703">
        <ele>173</ele>
        <time>2015-07-12T11:40:13Z</time>
      </trkpt>
      <trkpt lat="48.74984" lon="2.00701">
        <ele>175</ele>
        <time>2015-07-12T11:40:23Z</time>
      </trkpt>
      <trkpt lat="48.74976" lon="2.00697">
        <ele>175</ele>
        <time>2015-07-12T11:40:37Z</time>
      </trkpt>
      <trkpt lat="48.74968" lon="2.00696">
        <ele>175</ele>
        <time>2015-07-12T11:40:47Z</time>
      </trkpt>
      <trkpt lat="48.74959" lon="2.00694">
        <ele>175</ele>
        <time>2015-07-12T11:40:54Z</time>
      </trkpt>
      <trkpt lat="48.74953" lon="2.00686">
        <ele>176</ele>
        <time>2015-07-12T11:41:01Z</time>
      </trkpt>
      <trkpt lat="48.74947" lon="2.00677">
        <ele>176</ele>
        <time>2015-07-12T11:41:07Z</time>
      </trkpt>
      <trkpt lat="48.74939" lon="2.00678">
        <ele>176</ele>
        <time>2015-07-12T11:41:12Z</time>
      </trkpt>
      <trkpt lat="48.74931" lon="2.0068">
        <ele>176</ele>
        <time>2015-07-12T11:41:18Z</time>
      </trkpt>
      <trkpt lat="48.74924" lon="2.00687">
        <ele>176</ele>
        <time>2015-07-12T11:41:27Z</time>
      </trkpt>
      <trkpt lat="48.74916" lon="2.00693">
        <ele>175</ele>
        <time>2015-07-12T11:41:41Z</time>
      </trkpt>
      <trkpt lat="48.74909" lon="2.00694">
        <ele>175</ele>
        <time>2015-07-12T11:41:47Z</time>
      </trkpt>
      <trkpt lat="48.74892" lon="2.00701">
        <ele>174</ele>
        <time>2015-07-12T11:41:56Z</time>
      </trkpt>
      <trkpt lat="48.74885" lon="2.00709">
        <ele>174</ele>
        <time>2015-07-12T11:42:11Z</time>
      </trkpt>
      <trkpt lat="48.74879" lon="2.00712">
        <ele>174</ele>
        <time>2015-07-12T11:42:15Z</time>
      </trkpt>
      <trkpt lat="48.74868" lon="2.00718">
        <ele>174</ele>
        <time>2015-07-12T11:42:20Z</time>
      </trkpt>
      <trkpt lat="48.74846" lon="2.00736">
        <ele>174</ele>
        <time>2015-07-12T11:42:33Z</time>
      </trkpt>
      <trkpt lat="48.7484" lon="2.00745">
        <ele>175</ele>
        <time>2015-07-12T11:42:37Z</time>
      </trkpt>
      <trkpt lat="48.74838" lon="2.00755">
        <ele>175</ele>
        <time>2015-07-12T11:42:44Z</time>
      </trkpt>
      <trkpt lat="48.74832" lon="2.00762">
        <ele>172</ele>
        <time>2015-07-12T11:42:51Z</time>
      </trkpt>
      <trkpt lat="48.74823" lon="2.00766">
        <ele>171</ele>
        <time>2015-07-12T11:42:55Z</time>
      </trkpt>
      <trkpt lat="48.74819" lon="2.00777">
        <ele>170</ele>
        <time>2015-07-12T11:43:04Z</time>
      </trkpt>
      <trkpt lat="48.74813" lon="2.00787">
        <ele>170</ele>
        <time>2015-07-12T11:43:11Z</time>
      </trkpt>
      <trkpt lat="48.74806" lon="2.00795">
        <ele>169</ele>
        <time>2015-07-12T11:43:19Z</time>
      </trkpt>
      <trkpt lat="48.74802" lon="2.00806">
        <ele>169</ele>
        <time>2015-07-12T11:43:25Z</time>
      </trkpt>
      <trkpt lat="48.748" lon="2.00818">
        <ele>169</ele>
        <time>2015-07-12T11:43:32Z</time>
      </trkpt>
      <trkpt lat="48.74793" lon="2.00826">
        <ele>169</ele>
        <time>2015-07-12T11:43:38Z</time>
      </trkpt>
      <trkpt lat="48.74791" lon="2.00839">
        <ele>169</ele>
        <time>2015-07-12T11:43:46Z</time>
      </trkpt>
      <trkpt lat="48.74785" lon="2.00845">
        <ele>169</ele>
        <time>2015-07-12T11:43:52Z</time>
      </trkpt>
      <trkpt lat="48.74779" lon="2.00855">
        <ele>168</ele>
        <time>2015-07-12T11:44:05Z</time>
      </trkpt>
      <trkpt lat="48.74772" lon="2.00891">
        <ele>167</ele>
        <time>2015-07-12T11:44:25Z</time>
      </trkpt>
      <trkpt lat="48.7476" lon="2.00925">
        <ele>165</ele>
        <time>2015-07-12T11:45:00Z</time>
      </trkpt>
      <trkpt lat="48.74756" lon="2.00935">
        <ele>165</ele>
        <time>2015-07-12T11:45:05Z</time>
      </trkpt>
      <trkpt lat="48.7475" lon="2.00942">
        <ele>156</ele>
        <time>2015-07-12T11:45:09Z</time>
      </trkpt>
      <trkpt lat="48.74739" lon="2.00963">
        <ele>154</ele>
        <time>2015-07-12T11:45:23Z</time>
      </trkpt>
      <trkpt lat="48.74737" lon="2.00975">
        <ele>154</ele>
        <time>2015-07-12T11:45:28Z</time>
      </trkpt>
      <trkpt lat="48.74733" lon="2.00986">
        <ele>154</ele>
        <time>2015-07-12T11:45:32Z</time>
      </trkpt>
      <trkpt lat="48.74728" lon="2.00996">
        <ele>154</ele>
        <time>2015-07-12T11:45:37Z</time>
      </trkpt>
      <trkpt lat="48.74721" lon="2.00993">
        <ele>152</ele>
        <time>2015-07-12T11:45:59Z</time>
      </trkpt>
      <trkpt lat="48.74714" lon="2.00972">
        <ele>151</ele>
        <time>2015-07-12T11:46:08Z</time>
      </trkpt>
      <trkpt lat="48.74711" lon="2.0096">
        <ele>150</ele>
        <time>2015-07-12T11:46:13Z</time>
      </trkpt>
      <trkpt lat="48.74707" lon="2.00952">
        <ele>150</ele>
        <time>2015-07-12T11:46:17Z</time>
      </trkpt>
      <trkpt lat="48.747" lon="2.00944">
        <ele>149</ele>
        <time>2015-07-12T11:46:21Z</time>
      </trkpt>
      <trkpt lat="48.74692" lon="2.00941">
        <ele>148</ele>
        <time>2015-07-12T11:46:29Z</time>
      </trkpt>
      <trkpt lat="48.74684" lon="2.00945">
        <ele>147</ele>
        <time>2015-07-12T11:46:34Z</time>
      </trkpt>
      <trkpt lat="48.74677" lon="2.00937">
        <ele>146</ele>
        <time>2015-07-12T11:46:43Z</time>
      </trkpt>
      <trkpt lat="48.74681" lon="2.00925">
        <ele>145</ele>
        <time>2015-07-12T11:46:50Z</time>
      </trkpt>
      <trkpt lat="48.74681" lon="2.00912">
        <ele>146</ele>
        <time>2015-07-12T11:46:57Z</time>
      </trkpt>
      <trkpt lat="48.74678" lon="2.00899">
        <ele>147</ele>
        <time>2015-07-12T11:47:02Z</time>
      </trkpt>
      <trkpt lat="48.74675" lon="2.00911">
        <ele>144</ele>
        <time>2015-07-12T11:47:26Z</time>
      </trkpt>
      <trkpt lat="48.74679" lon="2.00923">
        <ele>144</ele>
        <time>2015-07-12T11:47:36Z</time>
      </trkpt>
      <trkpt lat="48.74677" lon="2.00936">
        <ele>145</ele>
        <time>2015-07-12T11:47:42Z</time>
      </trkpt>
      <trkpt lat="48.74677" lon="2.00942">
        <ele>146</ele>
        <time>2015-07-12T11:47:44Z</time>
      </trkpt>
      <trkpt lat="48.74672" lon="2.00998">
        <ele>139</ele>
        <time>2015-07-12T11:48:18Z</time>
      </trkpt>
      <trkpt lat="48.74681" lon="2.00999">
        <ele>142</ele>
        <time>2015-07-12T11:48:22Z</time>
      </trkpt>
      <trkpt lat="48.74681" lon="2.01012">
        <ele>143</ele>
        <time>2015-07-12T11:48:41Z</time>
      </trkpt>
      <trkpt lat="48.74676" lon="2.01036">
        <ele>144</ele>
        <time>2015-07-12T11:49:02Z</time>
      </trkpt>
      <trkpt lat="48.74671" lon="2.01046">
        <ele>144</ele>
        <time>2015-07-12T11:49:07Z</time>
      </trkpt>
      <trkpt lat="48.74665" lon="2.01076">
        <ele>134</ele>
        <time>2015-07-12T11:49:16Z</time>
      </trkpt>
      <trkpt lat="48.7465" lon="2.01109">
        <ele>134</ele>
        <time>2015-07-12T11:49:43Z</time>
      </trkpt>
      <trkpt lat="48.7465" lon="2.01121">
        <ele>134</ele>
        <time>2015-07-12T11:49:50Z</time>
      </trkpt>
      <trkpt lat="48.74645" lon="2.01132">
        <ele>134</ele>
        <time>2015-07-12T11:50:11Z</time>
      </trkpt>
      <trkpt lat="48.74638" lon="2.01144">
        <ele>135</ele>
        <time>2015-07-12T11:50:15Z</time>
      </trkpt>
      <trkpt lat="48.74629" lon="2.01151">
        <ele>134</ele>
        <time>2015-07-12T11:50:19Z</time>
      </trkpt>
      <trkpt lat="48.74622" lon="2.01163">
        <ele>133</ele>
        <time>2015-07-12T11:50:23Z</time>
      </trkpt>
      <trkpt lat="48.74619" lon="2.01176">
        <ele>136</ele>
        <time>2015-07-12T11:50:28Z</time>
      </trkpt>
      <trkpt lat="48.74616" lon="2.01187">
        <ele>137</ele>
        <time>2015-07-12T11:50:34Z</time>
      </trkpt>
      <trkpt lat="48.74605" lon="2.01211">
        <ele>137</ele>
        <time>2015-07-12T11:50:43Z</time>
      </trkpt>
      <trkpt lat="48.746" lon="2.01226">
        <ele>136</ele>
        <time>2015-07-12T11:50:48Z</time>
      </trkpt>
      <trkpt lat="48.74595" lon="2.01238">
        <ele>135</ele>
        <time>2015-07-12T11:50:52Z</time>
      </trkpt>
      <trkpt lat="48.74583" lon="2.01257">
        <ele>130</ele>
        <time>2015-07-12T11:51:00Z</time>
      </trkpt>
      <trkpt lat="48.74586" lon="2.01281">
        <ele>140</ele>
        <time>2015-07-12T11:51:10Z</time>
      </trkpt>
      <trkpt lat="48.74584" lon="2.01293">
        <ele>140</ele>
        <time>2015-07-12T11:51:16Z</time>
      </trkpt>
      <trkpt lat="48.74581" lon="2.01304">
        <ele>128</ele>
        <time>2015-07-12T11:51:22Z</time>
      </trkpt>
      <trkpt lat="48.74583" lon="2.01315">
        <ele>130</ele>
        <time>2015-07-12T11:51:27Z</time>
      </trkpt>
      <trkpt lat="48.74578" lon="2.0135">
        <ele>131</ele>
        <time>2015-07-12T11:51:44Z</time>
      </trkpt>
      <trkpt lat="48.7457" lon="2.01372">
        <ele>129</ele>
        <time>2015-07-12T11:51:55Z</time>
      </trkpt>
      <trkpt lat="48.74564" lon="2.0138">
        <ele>129</ele>
        <time>2015-07-12T11:52:00Z</time>
      </trkpt>
      <trkpt lat="48.74542" lon="2.01434">
        <ele>130</ele>
        <time>2015-07-12T11:52:29Z</time>
      </trkpt>
      <trkpt lat="48.74529" lon="2.01451">
        <ele>129</ele>
        <time>2015-07-12T11:52:42Z</time>
      </trkpt>
      <trkpt lat="48.74524" lon="2.01467">
        <ele>129</ele>
        <time>2015-07-12T11:52:52Z</time>
      </trkpt>
      <trkpt lat="48.74523" lon="2.01521">
        <ele>129</ele>
        <time>2015-07-12T11:53:15Z</time>
      </trkpt>
      <trkpt lat="48.74527" lon="2.01535">
        <ele>130</ele>
        <time>2015-07-12T11:53:20Z</time>
      </trkpt>
      <trkpt lat="48.74533" lon="2.01542">
        <ele>130</ele>
        <time>2015-07-12T11:53:25Z</time>
      </trkpt>
      <trkpt lat="48.7454" lon="2.01546">
        <ele>131</ele>
        <time>2015-07-12T11:53:30Z</time>
      </trkpt>
      <trkpt lat="48.74543" lon="2.01558">
        <ele>131</ele>
        <time>2015-07-12T11:53:36Z</time>
      </trkpt>
      <trkpt lat="48.74545" lon="2.01585">
        <ele>130</ele>
        <time>2015-07-12T11:53:51Z</time>
      </trkpt>
      <trkpt lat="48.7455" lon="2.01595">
        <ele>130</ele>
        <time>2015-07-12T11:54:00Z</time>
      </trkpt>
      <trkpt lat="48.74558" lon="2.016">
        <ele>131</ele>
        <time>2015-07-12T11:54:31Z</time>
      </trkpt>
      <trkpt lat="48.74561" lon="2.01611">
        <ele>131</ele>
        <time>2015-07-12T12:35:36Z</time>
      </trkpt>
      <trkpt lat="48.74563" lon="2.01637">
        <ele>131</ele>
        <time>2015-07-12T12:36:01Z</time>
      </trkpt>
      <trkpt lat="48.74557" lon="2.01646">
        <ele>131</ele>
        <time>2015-07-12T12:36:20Z</time>
      </trkpt>
      <trkpt lat="48.74552" lon="2.01657">
        <ele>130</ele>
        <time>2015-07-12T12:36:29Z</time>
      </trkpt>
      <trkpt lat="48.74551" lon="2.01706">
        <ele>131</ele>
        <time>2015-07-12T12:36:57Z</time>
      </trkpt>
      <trkpt lat="48.74549" lon="2.01719">
        <ele>131</ele>
        <time>2015-07-12T12:37:04Z</time>
      </trkpt>
      <trkpt lat="48.74544" lon="2.01727">
        <ele>131</ele>
        <time>2015-07-12T12:37:12Z</time>
      </trkpt>
      <trkpt lat="48.74538" lon="2.01734">
        <ele>131</ele>
        <time>2015-07-12T12:37:19Z</time>
      </trkpt>
      <trkpt lat="48.7453" lon="2.01737">
        <ele>130</ele>
        <time>2015-07-12T12:37:33Z</time>
      </trkpt>
      <trkpt lat="48.74516" lon="2.01752">
        <ele>132</ele>
        <time>2015-07-12T12:38:11Z</time>
      </trkpt>
      <trkpt lat="48.74509" lon="2.01757">
        <ele>131</ele>
        <time>2015-07-12T12:38:16Z</time>
      </trkpt>
      <trkpt lat="48.74501" lon="2.01762">
        <ele>132</ele>
        <time>2015-07-12T12:38:21Z</time>
      </trkpt>
      <trkpt lat="48.74495" lon="2.01771">
        <ele>130</ele>
        <time>2015-07-12T12:38:29Z</time>
      </trkpt>
      <trkpt lat="48.7449" lon="2.01781">
        <ele>131</ele>
        <time>2015-07-12T12:38:35Z</time>
      </trkpt>
      <trkpt lat="48.74482" lon="2.01785">
        <ele>131</ele>
        <time>2015-07-12T12:38:44Z</time>
      </trkpt>
      <trkpt lat="48.74479" lon="2.01798">
        <ele>132</ele>
        <time>2015-07-12T12:38:53Z</time>
      </trkpt>
      <trkpt lat="48.74471" lon="2.018">
        <ele>132</ele>
        <time>2015-07-12T12:39:00Z</time>
      </trkpt>
      <trkpt lat="48.74462" lon="2.01804">
        <ele>132</ele>
        <time>2015-07-12T12:39:08Z</time>
      </trkpt>
      <trkpt lat="48.74454" lon="2.01804">
        <ele>132</ele>
        <time>2015-07-12T12:39:15Z</time>
      </trkpt>
      <trkpt lat="48.74447" lon="2.01813">
        <ele>133</ele>
        <time>2015-07-12T12:39:37Z</time>
      </trkpt>
      <trkpt lat="48.7444" lon="2.01813">
        <ele>133</ele>
        <time>2015-07-12T12:39:41Z</time>
      </trkpt>
      <trkpt lat="48.74429" lon="2.01815">
        <ele>133</ele>
        <time>2015-07-12T12:39:46Z</time>
      </trkpt>
      <trkpt lat="48.74406" lon="2.01823">
        <ele>131</ele>
        <time>2015-07-12T12:39:59Z</time>
      </trkpt>
      <trkpt lat="48.7439" lon="2.01831">
        <ele>128</ele>
        <time>2015-07-12T12:40:15Z</time>
      </trkpt>
      <trkpt lat="48.74383" lon="2.01836">
        <ele>136</ele>
        <time>2015-07-12T12:40:21Z</time>
      </trkpt>
      <trkpt lat="48.74376" lon="2.01841">
        <ele>136</ele>
        <time>2015-07-12T12:40:34Z</time>
      </trkpt>
      <trkpt lat="48.74369" lon="2.0184">
        <ele>135</ele>
        <time>2015-07-12T12:40:38Z</time>
      </trkpt>
      <trkpt lat="48.74361" lon="2.01842">
        <ele>134</ele>
        <time>2015-07-12T12:40:42Z</time>
      </trkpt>
      <trkpt lat="48.74353" lon="2.01846">
        <ele>132</ele>
        <time>2015-07-12T12:40:48Z</time>
      </trkpt>
      <trkpt lat="48.74347" lon="2.01854">
        <ele>133</ele>
        <time>2015-07-12T12:40:53Z</time>
      </trkpt>
      <trkpt lat="48.74332" lon="2.01868">
        <ele>127</ele>
        <time>2015-07-12T12:41:08Z</time>
      </trkpt>
      <trkpt lat="48.74327" lon="2.01876">
        <ele>127</ele>
        <time>2015-07-12T12:41:14Z</time>
      </trkpt>
      <trkpt lat="48.74319" lon="2.01882">
        <ele>128</ele>
        <time>2015-07-12T12:41:21Z</time>
      </trkpt>
      <trkpt lat="48.74313" lon="2.01885">
        <ele>128</ele>
        <time>2015-07-12T12:41:27Z</time>
      </trkpt>
      <trkpt lat="48.74305" lon="2.01893">
        <ele>128</ele>
        <time>2015-07-12T12:41:32Z</time>
      </trkpt>
      <trkpt lat="48.74298" lon="2.01898">
        <ele>127</ele>
        <time>2015-07-12T12:41:38Z</time>
      </trkpt>
      <trkpt lat="48.7429" lon="2.01901">
        <ele>126</ele>
        <time>2015-07-12T12:41:44Z</time>
      </trkpt>
      <trkpt lat="48.74284" lon="2.01908">
        <ele>126</ele>
        <time>2015-07-12T12:41:51Z</time>
      </trkpt>
      <trkpt lat="48.74268" lon="2.0191">
        <ele>124</ele>
        <time>2015-07-12T12:42:01Z</time>
      </trkpt>
      <trkpt lat="48.74259" lon="2.0191">
        <ele>123</ele>
        <time>2015-07-12T12:42:07Z</time>
      </trkpt>
      <trkpt lat="48.74251" lon="2.01916">
        <ele>122</ele>
        <time>2015-07-12T12:42:14Z</time>
      </trkpt>
      <trkpt lat="48.74242" lon="2.01919">
        <ele>122</ele>
        <time>2015-07-12T12:42:22Z</time>
      </trkpt>
      <trkpt lat="48.74234" lon="2.01925">
        <ele>123</ele>
        <time>2015-07-12T12:42:27Z</time>
      </trkpt>
      <trkpt lat="48.74218" lon="2.01934">
        <ele>123</ele>
        <time>2015-07-12T12:42:41Z</time>
      </trkpt>
      <trkpt lat="48.7421" lon="2.01935">
        <ele>122</ele>
        <time>2015-07-12T12:42:47Z</time>
      </trkpt>
      <trkpt lat="48.74202" lon="2.01939">
        <ele>122</ele>
        <time>2015-07-12T12:42:54Z</time>
      </trkpt>
      <trkpt lat="48.74178" lon="2.01974">
        <ele>122</ele>
        <time>2015-07-12T12:44:00Z</time>
      </trkpt>
      <trkpt lat="48.74171" lon="2.01982">
        <ele>122</ele>
        <time>2015-07-12T12:44:05Z</time>
      </trkpt>
      <trkpt lat="48.74163" lon="2.01988">
        <ele>119</ele>
        <time>2015-07-12T12:44:10Z</time>
      </trkpt>
      <trkpt lat="48.74159" lon="2.02">
        <ele>120</ele>
        <time>2015-07-12T12:44:17Z</time>
      </trkpt>
      <trkpt lat="48.74154" lon="2.02009">
        <ele>120</ele>
        <time>2015-07-12T12:44:23Z</time>
      </trkpt>
      <trkpt lat="48.74147" lon="2.02016">
        <ele>119</ele>
        <time>2015-07-12T12:44:27Z</time>
      </trkpt>
      <trkpt lat="48.74141" lon="2.02025">
        <ele>119</ele>
        <time>2015-07-12T12:44:34Z</time>
      </trkpt>
      <trkpt lat="48.74134" lon="2.02032">
        <ele>118</ele>
        <time>2015-07-12T12:44:46Z</time>
      </trkpt>
      <trkpt lat="48.74128" lon="2.0204">
        <ele>118</ele>
        <time>2015-07-12T12:44:54Z</time>
      </trkpt>
      <trkpt lat="48.74119" lon="2.02062">
        <ele>118</ele>
        <time>2015-07-12T12:45:11Z</time>
      </trkpt>
      <trkpt lat="48.74109" lon="2.02098">
        <ele>121</ele>
        <time>2015-07-12T12:45:20Z</time>
      </trkpt>
      <trkpt lat="48.74099" lon="2.0212">
        <ele>121</ele>
        <time>2015-07-12T12:45:38Z</time>
      </trkpt>
      <trkpt lat="48.74087" lon="2.02139">
        <ele>122</ele>
        <time>2015-07-12T12:45:52Z</time>
      </trkpt>
      <trkpt lat="48.74076" lon="2.02186">
        <ele>118</ele>
        <time>2015-07-12T12:46:22Z</time>
      </trkpt>
      <trkpt lat="48.74072" lon="2.02198">
        <ele>118</ele>
        <time>2015-07-12T12:46:29Z</time>
      </trkpt>
      <trkpt lat="48.7407" lon="2.02209">
        <ele>118</ele>
        <time>2015-07-12T12:46:34Z</time>
      </trkpt>
      <trkpt lat="48.74064" lon="2.02218">
        <ele>119</ele>
        <time>2015-07-12T12:46:39Z</time>
      </trkpt>
      <trkpt lat="48.74051" lon="2.02252">
        <ele>123</ele>
        <time>2015-07-12T12:47:17Z</time>
      </trkpt>
      <trkpt lat="48.74046" lon="2.0226">
        <ele>122</ele>
        <time>2015-07-12T12:47:22Z</time>
      </trkpt>
      <trkpt lat="48.74038" lon="2.02264">
        <ele>122</ele>
        <time>2015-07-12T12:47:27Z</time>
      </trkpt>
      <trkpt lat="48.7403" lon="2.02268">
        <ele>121</ele>
        <time>2015-07-12T12:47:33Z</time>
      </trkpt>
      <trkpt lat="48.74023" lon="2.02271">
        <ele>120</ele>
        <time>2015-07-12T12:47:37Z</time>
      </trkpt>
      <trkpt lat="48.74003" lon="2.0229">
        <ele>121</ele>
        <time>2015-07-12T12:47:52Z</time>
      </trkpt>
      <trkpt lat="48.73987" lon="2.02294">
        <ele>118</ele>
        <time>2015-07-12T12:48:16Z</time>
      </trkpt>
      <trkpt lat="48.7397" lon="2.02288">
        <ele>118</ele>
        <time>2015-07-12T12:48:27Z</time>
      </trkpt>
      <trkpt lat="48.73954" lon="2.02277">
        <ele>118</ele>
        <time>2015-07-12T12:48:41Z</time>
      </trkpt>
      <trkpt lat="48.73931" lon="2.02266">
        <ele>117</ele>
        <time>2015-07-12T12:49:01Z</time>
      </trkpt>
      <trkpt lat="48.73923" lon="2.02264">
        <ele>116</ele>
        <time>2015-07-12T12:49:10Z</time>
      </trkpt>
      <trkpt lat="48.73907" lon="2.02257">
        <ele>118</ele>
        <time>2015-07-12T12:49:23Z</time>
      </trkpt>
      <trkpt lat="48.73891" lon="2.02256">
        <ele>121</ele>
        <time>2015-07-12T12:50:03Z</time>
      </trkpt>
      <trkpt lat="48.73884" lon="2.02253">
        <ele>121</ele>
        <time>2015-07-12T12:50:07Z</time>
      </trkpt>
      <trkpt lat="48.73873" lon="2.02253">
        <ele>122</ele>
        <time>2015-07-12T12:50:12Z</time>
      </trkpt>
      <trkpt lat="48.73857" lon="2.02249">
        <ele>114</ele>
        <time>2015-07-12T12:50:20Z</time>
      </trkpt>
      <trkpt lat="48.73849" lon="2.02256">
        <ele>121</ele>
        <time>2015-07-12T12:50:28Z</time>
      </trkpt>
      <trkpt lat="48.73833" lon="2.02254">
        <ele>119</ele>
        <time>2015-07-12T12:50:41Z</time>
      </trkpt>
      <trkpt lat="48.73816" lon="2.0225">
        <ele>115</ele>
        <time>2015-07-12T12:50:52Z</time>
      </trkpt>
      <trkpt lat="48.73808" lon="2.02247">
        <ele>114</ele>
        <time>2015-07-12T12:51:00Z</time>
      </trkpt>
      <trkpt lat="48.73799" lon="2.02245">
        <ele>114</ele>
        <time>2015-07-12T12:51:06Z</time>
      </trkpt>
      <trkpt lat="48.73791" lon="2.02246">
        <ele>114</ele>
        <time>2015-07-12T12:51:12Z</time>
      </trkpt>
      <trkpt lat="48.73782" lon="2.02249">
        <ele>114</ele>
        <time>2015-07-12T12:51:19Z</time>
      </trkpt>
      <trkpt lat="48.73765" lon="2.02252">
        <ele>122</ele>
        <time>2015-07-12T12:51:32Z</time>
      </trkpt>
      <trkpt lat="48.73757" lon="2.02256">
        <ele>121</ele>
        <time>2015-07-12T12:51:41Z</time>
      </trkpt>
      <trkpt lat="48.7374" lon="2.02258">
        <ele>120</ele>
        <time>2015-07-12T12:51:58Z</time>
      </trkpt>
      <trkpt lat="48.73732" lon="2.02262">
        <ele>121</ele>
        <time>2015-07-12T12:52:04Z</time>
      </trkpt>
      <trkpt lat="48.73716" lon="2.02268">
        <ele>122</ele>
        <time>2015-07-12T12:53:14Z</time>
      </trkpt>
      <trkpt lat="48.73707" lon="2.02273">
        <ele>122</ele>
        <time>2015-07-12T12:53:19Z</time>
      </trkpt>
      <trkpt lat="48.737" lon="2.02281">
        <ele>123</ele>
        <time>2015-07-12T12:54:36Z</time>
      </trkpt>
      <trkpt lat="48.73688" lon="2.02282">
        <ele>122</ele>
        <time>2015-07-12T12:54:41Z</time>
      </trkpt>
      <trkpt lat="48.7368" lon="2.02284">
        <ele>122</ele>
        <time>2015-07-12T12:54:45Z</time>
      </trkpt>
      <trkpt lat="48.73663" lon="2.02285">
        <ele>117</ele>
        <time>2015-07-12T12:54:54Z</time>
      </trkpt>
      <trkpt lat="48.73652" lon="2.02287">
        <ele>117</ele>
        <time>2015-07-12T12:54:58Z</time>
      </trkpt>
      <trkpt lat="48.73638" lon="2.02288">
        <ele>117</ele>
        <time>2015-07-12T12:55:03Z</time>
      </trkpt>
      <trkpt lat="48.7362" lon="2.0229">
        <ele>116</ele>
        <time>2015-07-12T12:55:12Z</time>
      </trkpt>
      <trkpt lat="48.73611" lon="2.02292">
        <ele>116</ele>
        <time>2015-07-12T12:55:16Z</time>
      </trkpt>
      <trkpt lat="48.73575" lon="2.02289">
        <ele>112</ele>
        <time>2015-07-12T12:55:39Z</time>
      </trkpt>
      <trkpt lat="48.73567" lon="2.02295">
        <ele>112</ele>
        <time>2015-07-12T12:56:03Z</time>
      </trkpt>
      <trkpt lat="48.73558" lon="2.02294">
        <ele>112</ele>
        <time>2015-07-12T12:56:10Z</time>
      </trkpt>
      <trkpt lat="48.7355" lon="2.02292">
        <ele>111</ele>
        <time>2015-07-12T12:56:18Z</time>
      </trkpt>
      <trkpt lat="48.73542" lon="2.02294">
        <ele>111</ele>
        <time>2015-07-12T12:56:25Z</time>
      </trkpt>
      <trkpt lat="48.73533" lon="2.02293">
        <ele>111</ele>
        <time>2015-07-12T12:56:31Z</time>
      </trkpt>
      <trkpt lat="48.73483" lon="2.02295">
        <ele>107</ele>
        <time>2015-07-12T12:57:22Z</time>
      </trkpt>
      <trkpt lat="48.73476" lon="2.02292">
        <ele>107</ele>
        <time>2015-07-12T12:57:28Z</time>
      </trkpt>
      <trkpt lat="48.73452" lon="2.02294">
        <ele>106</ele>
        <time>2015-07-12T12:57:46Z</time>
      </trkpt>
      <trkpt lat="48.73444" lon="2.02297">
        <ele>106</ele>
        <time>2015-07-12T12:57:52Z</time>
      </trkpt>
      <trkpt lat="48.73436" lon="2.02316">
        <ele>107</ele>
        <time>2015-07-12T12:58:04Z</time>
      </trkpt>
      <trkpt lat="48.7343" lon="2.02324">
        <ele>107</ele>
        <time>2015-07-12T12:58:11Z</time>
      </trkpt>
      <trkpt lat="48.73424" lon="2.02331">
        <ele>107</ele>
        <time>2015-07-12T12:58:17Z</time>
      </trkpt>
      <trkpt lat="48.73419" lon="2.02341">
        <ele>110</ele>
        <time>2015-07-12T12:58:23Z</time>
      </trkpt>
      <trkpt lat="48.73414" lon="2.0235">
        <ele>109</ele>
        <time>2015-07-12T12:58:29Z</time>
      </trkpt>
      <trkpt lat="48.73409" lon="2.0236">
        <ele>110</ele>
        <time>2015-07-12T12:58:37Z</time>
      </trkpt>
      <trkpt lat="48.73403" lon="2.02369">
        <ele>111</ele>
        <time>2015-07-12T12:58:44Z</time>
      </trkpt>
      <trkpt lat="48.73397" lon="2.02377">
        <ele>112</ele>
        <time>2015-07-12T12:58:50Z</time>
      </trkpt>
      <trkpt lat="48.73391" lon="2.02386">
        <ele>112</ele>
        <time>2015-07-12T12:58:56Z</time>
      </trkpt>
      <trkpt lat="48.73364" lon="2.02413">
        <ele>111</ele>
        <time>2015-07-12T12:59:19Z</time>
      </trkpt>
      <trkpt lat="48.73355" lon="2.02417">
        <ele>117</ele>
        <time>2015-07-12T12:59:26Z</time>
      </trkpt>
      <trkpt lat="48.7334" lon="2.02428">
        <ele>115</ele>
        <time>2015-07-12T12:59:43Z</time>
      </trkpt>
      <trkpt lat="48.73332" lon="2.02431">
        <ele>111</ele>
        <time>2015-07-12T12:59:49Z</time>
      </trkpt>
      <trkpt lat="48.73317" lon="2.02442">
        <ele>112</ele>
        <time>2015-07-12T13:00:04Z</time>
      </trkpt>
      <trkpt lat="48.73309" lon="2.02443">
        <ele>112</ele>
        <time>2015-07-12T13:00:08Z</time>
      </trkpt>
      <trkpt lat="48.73302" lon="2.02449">
        <ele>112</ele>
        <time>2015-07-12T13:00:13Z</time>
      </trkpt>
      <trkpt lat="48.73295" lon="2.02452">
        <ele>112</ele>
        <time>2015-07-12T13:00:18Z</time>
      </trkpt>
      <trkpt lat="48.73289" lon="2.02462">
        <ele>112</ele>
        <time>2015-07-12T13:00:24Z</time>
      </trkpt>
      <trkpt lat="48.73282" lon="2.02469">
        <ele>112</ele>
        <time>2015-07-12T13:00:30Z</time>
      </trkpt>
      <trkpt lat="48.73274" lon="2.02471">
        <ele>112</ele>
        <time>2015-07-12T13:00:37Z</time>
      </trkpt>
      <trkpt lat="48.73266" lon="2.02475">
        <ele>111</ele>
        <time>2015-07-12T13:00:44Z</time>
      </trkpt>
      <trkpt lat="48.73259" lon="2.02477">
        <ele>111</ele>
        <time>2015-07-12T13:00:52Z</time>
      </trkpt>
      <trkpt lat="48.73253" lon="2.02485">
        <ele>111</ele>
        <time>2015-07-12T13:00:58Z</time>
      </trkpt>
      <trkpt lat="48.73248" lon="2.02496">
        <ele>109</ele>
        <time>2015-07-12T13:01:04Z</time>
      </trkpt>
      <trkpt lat="48.7324" lon="2.02503">
        <ele>110</ele>
        <time>2015-07-12T13:01:11Z</time>
      </trkpt>
      <trkpt lat="48.73232" lon="2.02507">
        <ele>110</ele>
        <time>2015-07-12T13:01:18Z</time>
      </trkpt>
      <trkpt lat="48.73226" lon="2.02515">
        <ele>110</ele>
        <time>2015-07-12T13:01:25Z</time>
      </trkpt>
      <trkpt lat="48.73221" lon="2.02525">
        <ele>110</ele>
        <time>2015-07-12T13:01:31Z</time>
      </trkpt>
      <trkpt lat="48.73212" lon="2.0253">
        <ele>110</ele>
        <time>2015-07-12T13:01:38Z</time>
      </trkpt>
      <trkpt lat="48.73195" lon="2.02558">
        <ele>110</ele>
        <time>2015-07-12T13:01:58Z</time>
      </trkpt>
      <trkpt lat="48.7319" lon="2.02569">
        <ele>110</ele>
        <time>2015-07-12T13:02:06Z</time>
      </trkpt>
      <trkpt lat="48.73185" lon="2.02576">
        <ele>109</ele>
        <time>2015-07-12T13:02:13Z</time>
      </trkpt>
      <trkpt lat="48.73179" lon="2.02584">
        <ele>111</ele>
        <time>2015-07-12T13:02:20Z</time>
      </trkpt>
      <trkpt lat="48.73157" lon="2.02602">
        <ele>107</ele>
        <time>2015-07-12T13:02:44Z</time>
      </trkpt>
      <trkpt lat="48.73131" lon="2.02633">
        <ele>108</ele>
        <time>2015-07-12T13:03:13Z</time>
      </trkpt>
      <trkpt lat="48.73127" lon="2.02643">
        <ele>108</ele>
        <time>2015-07-12T13:03:20Z</time>
      </trkpt>
      <trkpt lat="48.7312" lon="2.0265">
        <ele>107</ele>
        <time>2015-07-12T13:03:29Z</time>
      </trkpt>
      <trkpt lat="48.73112" lon="2.02657">
        <ele>107</ele>
        <time>2015-07-12T13:03:37Z</time>
      </trkpt>
      <trkpt lat="48.73092" lon="2.0268">
        <ele>111</ele>
        <time>2015-07-12T13:03:58Z</time>
      </trkpt>
      <trkpt lat="48.73085" lon="2.02686">
        <ele>111</ele>
        <time>2015-07-12T13:04:05Z</time>
      </trkpt>
      <trkpt lat="48.73077" lon="2.0269">
        <ele>107</ele>
        <time>2015-07-12T13:04:12Z</time>
      </trkpt>
      <trkpt lat="48.73071" lon="2.02699">
        <ele>107</ele>
        <time>2015-07-12T13:04:20Z</time>
      </trkpt>
      <trkpt lat="48.73064" lon="2.02705">
        <ele>108</ele>
        <time>2015-07-12T13:04:27Z</time>
      </trkpt>
      <trkpt lat="48.73056" lon="2.0271">
        <ele>108</ele>
        <time>2015-07-12T13:04:35Z</time>
      </trkpt>
      <trkpt lat="48.73034" lon="2.02748">
        <ele>107</ele>
        <time>2015-07-12T13:05:02Z</time>
      </trkpt>
      <trkpt lat="48.73029" lon="2.02756">
        <ele>112</ele>
        <time>2015-07-12T13:05:09Z</time>
      </trkpt>
      <trkpt lat="48.73026" lon="2.02769">
        <ele>112</ele>
        <time>2015-07-12T13:05:18Z</time>
      </trkpt>
      <trkpt lat="48.7302" lon="2.02777">
        <ele>112</ele>
        <time>2015-07-12T13:05:27Z</time>
      </trkpt>
      <trkpt lat="48.73013" lon="2.02779">
        <ele>112</ele>
        <time>2015-07-12T13:05:32Z</time>
      </trkpt>
      <trkpt lat="48.73004" lon="2.02783">
        <ele>112</ele>
        <time>2015-07-12T13:05:37Z</time>
      </trkpt>
      <trkpt lat="48.72997" lon="2.02783">
        <ele>105</ele>
        <time>2015-07-12T13:05:49Z</time>
      </trkpt>
      <trkpt lat="48.72989" lon="2.02781">
        <ele>104</ele>
        <time>2015-07-12T13:05:59Z</time>
      </trkpt>
      <trkpt lat="48.72978" lon="2.02799">
        <ele>105</ele>
        <time>2015-07-12T13:06:11Z</time>
      </trkpt>
      <trkpt lat="48.72971" lon="2.02808">
        <ele>105</ele>
        <time>2015-07-12T13:06:40Z</time>
      </trkpt>
      <trkpt lat="48.72964" lon="2.02816">
        <ele>105</ele>
        <time>2015-07-12T13:06:46Z</time>
      </trkpt>
      <trkpt lat="48.72956" lon="2.02817">
        <ele>105</ele>
        <time>2015-07-12T13:06:51Z</time>
      </trkpt>
      <trkpt lat="48.72949" lon="2.02809">
        <ele>104</ele>
        <time>2015-07-12T13:07:00Z</time>
      </trkpt>
      <trkpt lat="48.72947" lon="2.02797">
        <ele>104</ele>
        <time>2015-07-12T13:07:10Z</time>
      </trkpt>
      <trkpt lat="48.7294" lon="2.02774">
        <ele>103</ele>
        <time>2015-07-12T13:07:23Z</time>
      </trkpt>
      <trkpt lat="48.72934" lon="2.02766">
        <ele>102</ele>
        <time>2015-07-12T13:07:29Z</time>
      </trkpt>
      <trkpt lat="48.72927" lon="2.02759">
        <ele>102</ele>
        <time>2015-07-12T13:07:37Z</time>
      </trkpt>
      <trkpt lat="48.72906" lon="2.02745">
        <ele>100</ele>
        <time>2015-07-12T13:07:52Z</time>
      </trkpt>
      <trkpt lat="48.72899" lon="2.02739">
        <ele>100</ele>
        <time>2015-07-12T13:07:58Z</time>
      </trkpt>
      <trkpt lat="48.72881" lon="2.02714">
        <ele>100</ele>
        <time>2015-07-12T13:09:01Z</time>
      </trkpt>
      <trkpt lat="48.72873" lon="2.0271">
        <ele>100</ele>
        <time>2015-07-12T13:09:09Z</time>
      </trkpt>
      <trkpt lat="48.72851" lon="2.02691">
        <ele>100</ele>
        <time>2015-07-12T13:09:31Z</time>
      </trkpt>
      <trkpt lat="48.72845" lon="2.02684">
        <ele>99</ele>
        <time>2015-07-12T13:09:39Z</time>
      </trkpt>
      <trkpt lat="48.72839" lon="2.02675">
        <ele>99</ele>
        <time>2015-07-12T13:09:45Z</time>
      </trkpt>
      <trkpt lat="48.72832" lon="2.02667">
        <ele>99</ele>
        <time>2015-07-12T13:09:52Z</time>
      </trkpt>
      <trkpt lat="48.7282" lon="2.02651">
        <ele>101</ele>
        <time>2015-07-12T13:10:05Z</time>
      </trkpt>
      <trkpt lat="48.72812" lon="2.02644">
        <ele>101</ele>
        <time>2015-07-12T13:10:10Z</time>
      </trkpt>
      <trkpt lat="48.72804" lon="2.02638">
        <ele>101</ele>
        <time>2015-07-12T13:10:17Z</time>
      </trkpt>
      <trkpt lat="48.72797" lon="2.0263">
        <ele>102</ele>
        <time>2015-07-12T13:10:25Z</time>
      </trkpt>
      <trkpt lat="48.72791" lon="2.02622">
        <ele>102</ele>
        <time>2015-07-12T13:10:33Z</time>
      </trkpt>
      <trkpt lat="48.72776" lon="2.0261">
        <ele>102</ele>
        <time>2015-07-12T13:10:47Z</time>
      </trkpt>
      <trkpt lat="48.72748" lon="2.02584">
        <ele>105</ele>
        <time>2015-07-12T13:11:14Z</time>
      </trkpt>
      <trkpt lat="48.72741" lon="2.02576">
        <ele>107</ele>
        <time>2015-07-12T13:11:21Z</time>
      </trkpt>
      <trkpt lat="48.72734" lon="2.0257">
        <ele>109</ele>
        <time>2015-07-12T13:11:28Z</time>
      </trkpt>
      <trkpt lat="48.72728" lon="2.0256">
        <ele>109</ele>
        <time>2015-07-12T13:11:35Z</time>
      </trkpt>
      <trkpt lat="48.72724" lon="2.02548">
        <ele>110</ele>
        <time>2015-07-12T13:11:51Z</time>
      </trkpt>
      <trkpt lat="48.72718" lon="2.02541">
        <ele>111</ele>
        <time>2015-07-12T13:12:05Z</time>
      </trkpt>
      <trkpt lat="48.72709" lon="2.02541">
        <ele>111</ele>
        <time>2015-07-12T13:12:13Z</time>
      </trkpt>
      <trkpt lat="48.72701" lon="2.02547">
        <ele>112</ele>
        <time>2015-07-12T13:12:21Z</time>
      </trkpt>
      <trkpt lat="48.7269" lon="2.02565">
        <ele>113</ele>
        <time>2015-07-12T13:12:37Z</time>
      </trkpt>
      <trkpt lat="48.72683" lon="2.02572">
        <ele>113</ele>
        <time>2015-07-12T13:12:49Z</time>
      </trkpt>
      <trkpt lat="48.72676" lon="2.02581">
        <ele>114</ele>
        <time>2015-07-12T13:12:55Z</time>
      </trkpt>
      <trkpt lat="48.72669" lon="2.02586">
        <ele>115</ele>
        <time>2015-07-12T13:13:00Z</time>
      </trkpt>
      <trkpt lat="48.72656" lon="2.02601">
        <ele>117</ele>
        <time>2015-07-12T13:13:11Z</time>
      </trkpt>
      <trkpt lat="48.7265" lon="2.0261">
        <ele>117</ele>
        <time>2015-07-12T13:13:16Z</time>
      </trkpt>
      <trkpt lat="48.72637" lon="2.02625">
        <ele>118</ele>
        <time>2015-07-12T13:13:28Z</time>
      </trkpt>
      <trkpt lat="48.72629" lon="2.02629">
        <ele>118</ele>
        <time>2015-07-12T13:13:34Z</time>
      </trkpt>
      <trkpt lat="48.72621" lon="2.02632">
        <ele>118</ele>
        <time>2015-07-12T13:13:40Z</time>
      </trkpt>
      <trkpt lat="48.72614" lon="2.02637">
        <ele>119</ele>
        <time>2015-07-12T13:13:46Z</time>
      </trkpt>
      <trkpt lat="48.72607" lon="2.02643">
        <ele>119</ele>
        <time>2015-07-12T13:13:53Z</time>
      </trkpt>
      <trkpt lat="48.72599" lon="2.02648">
        <ele>119</ele>
        <time>2015-07-12T13:14:00Z</time>
      </trkpt>
      <trkpt lat="48.72591" lon="2.02651">
        <ele>119</ele>
        <time>2015-07-12T13:14:08Z</time>
      </trkpt>
      <trkpt lat="48.72569" lon="2.02665">
        <ele>124</ele>
        <time>2015-07-12T13:14:25Z</time>
      </trkpt>
      <trkpt lat="48.72563" lon="2.02671">
        <ele>122</ele>
        <time>2015-07-12T13:14:30Z</time>
      </trkpt>
      <trkpt lat="48.72556" lon="2.0268">
        <ele>123</ele>
        <time>2015-07-12T13:14:34Z</time>
      </trkpt>
      <trkpt lat="48.72534" lon="2.02699">
        <ele>124</ele>
        <time>2015-07-12T13:14:53Z</time>
      </trkpt>
      <trkpt lat="48.72517" lon="2.02703">
        <ele>125</ele>
        <time>2015-07-12T13:15:08Z</time>
      </trkpt>
      <trkpt lat="48.72509" lon="2.02701">
        <ele>125</ele>
        <time>2015-07-12T13:15:29Z</time>
      </trkpt>
      <trkpt lat="48.72498" lon="2.02703">
        <ele>131</ele>
        <time>2015-07-12T13:15:34Z</time>
      </trkpt>
      <trkpt lat="48.7249" lon="2.02706">
        <ele>131</ele>
        <time>2015-07-12T13:15:39Z</time>
      </trkpt>
      <trkpt lat="48.72473" lon="2.02707">
        <ele>132</ele>
        <time>2015-07-12T13:15:51Z</time>
      </trkpt>
      <trkpt lat="48.72467" lon="2.02715">
        <ele>132</ele>
        <time>2015-07-12T13:16:00Z</time>
      </trkpt>
      <trkpt lat="48.72458" lon="2.02717">
        <ele>133</ele>
        <time>2015-07-12T13:16:09Z</time>
      </trkpt>
      <trkpt lat="48.72436" lon="2.02736">
        <ele>134</ele>
        <time>2015-07-12T13:16:30Z</time>
      </trkpt>
      <trkpt lat="48.72426" lon="2.02755">
        <ele>133</ele>
        <time>2015-07-12T13:16:55Z</time>
      </trkpt>
      <trkpt lat="48.72418" lon="2.02762">
        <ele>133</ele>
        <time>2015-07-12T13:17:01Z</time>
      </trkpt>
      <trkpt lat="48.724" lon="2.02768">
        <ele>140</ele>
        <time>2015-07-12T13:17:10Z</time>
      </trkpt>
      <trkpt lat="48.72393" lon="2.02774">
        <ele>141</ele>
        <time>2015-07-12T13:17:14Z</time>
      </trkpt>
      <trkpt lat="48.72382" lon="2.02793">
        <ele>143</ele>
        <time>2015-07-12T13:17:28Z</time>
      </trkpt>
      <trkpt lat="48.72377" lon="2.02804">
        <ele>143</ele>
        <time>2015-07-12T13:17:37Z</time>
      </trkpt>
      <trkpt lat="48.7237" lon="2.02809">
        <ele>143</ele>
        <time>2015-07-12T13:17:44Z</time>
      </trkpt>
      <trkpt lat="48.72338" lon="2.02824">
        <ele>147</ele>
        <time>2015-07-12T13:18:10Z</time>
      </trkpt>
      <trkpt lat="48.7233" lon="2.02827">
        <ele>151</ele>
        <time>2015-07-12T13:18:17Z</time>
      </trkpt>
      <trkpt lat="48.72322" lon="2.02828">
        <ele>153</ele>
        <time>2015-07-12T13:18:24Z</time>
      </trkpt>
      <trkpt lat="48.72315" lon="2.02835">
        <ele>153</ele>
        <time>2015-07-12T13:18:29Z</time>
      </trkpt>
      <trkpt lat="48.72307" lon="2.02841">
        <ele>155</ele>
        <time>2015-07-12T13:18:38Z</time>
      </trkpt>
      <trkpt lat="48.723" lon="2.02848">
        <ele>156</ele>
        <time>2015-07-12T13:18:51Z</time>
      </trkpt>
      <trkpt lat="48.72294" lon="2.02857">
        <ele>157</ele>
        <time>2015-07-12T13:19:00Z</time>
      </trkpt>
      <trkpt lat="48.72286" lon="2.02862">
        <ele>158</ele>
        <time>2015-07-12T13:19:05Z</time>
      </trkpt>
      <trkpt lat="48.7228" lon="2.02873">
        <ele>158</ele>
        <time>2015-07-12T13:19:13Z</time>
      </trkpt>
      <trkpt lat="48.72279" lon="2.02898">
        <ele>159</ele>
        <time>2015-07-12T13:19:40Z</time>
      </trkpt>
      <trkpt lat="48.72277" lon="2.0291">
        <ele>159</ele>
        <time>2015-07-12T13:19:48Z</time>
      </trkpt>
      <trkpt lat="48.72269" lon="2.02916">
        <ele>160</ele>
        <time>2015-07-12T13:19:57Z</time>
      </trkpt>
      <trkpt lat="48.72261" lon="2.02921">
        <ele>162</ele>
        <time>2015-07-12T13:20:05Z</time>
      </trkpt>
      <trkpt lat="48.72244" lon="2.02926">
        <ele>165</ele>
        <time>2015-07-12T13:20:21Z</time>
      </trkpt>
      <trkpt lat="48.72235" lon="2.02925">
        <ele>166</ele>
        <time>2015-07-12T13:20:29Z</time>
      </trkpt>
      <trkpt lat="48.72228" lon="2.02927">
        <ele>166</ele>
        <time>2015-07-12T13:20:36Z</time>
      </trkpt>
      <trkpt lat="48.72214" lon="2.02943">
        <ele>167</ele>
        <time>2015-07-12T13:20:50Z</time>
      </trkpt>
      <trkpt lat="48.72206" lon="2.0294">
        <ele>167</ele>
        <time>2015-07-12T13:20:58Z</time>
      </trkpt>
      <trkpt lat="48.72204" lon="2.02928">
        <ele>167</ele>
        <time>2015-07-12T13:23:01Z</time>
      </trkpt>
      <trkpt lat="48.72196" lon="2.02926">
        <ele>167</ele>
        <time>2015-07-12T13:24:20Z</time>
      </trkpt>
      <trkpt lat="48.72188" lon="2.02926">
        <ele>168</ele>
        <time>2015-07-12T13:24:26Z</time>
      </trkpt>
      <trkpt lat="48.72183" lon="2.02936">
        <ele>168</ele>
        <time>2015-07-12T13:24:48Z</time>
      </trkpt>
      <trkpt lat="48.72167" lon="2.0294">
        <ele>168</ele>
        <time>2015-07-12T13:24:57Z</time>
      </trkpt>
      <trkpt lat="48.7215" lon="2.02947">
        <ele>170</ele>
        <time>2015-07-12T13:25:12Z</time>
      </trkpt>
      <trkpt lat="48.72134" lon="2.0295">
        <ele>170</ele>
        <time>2015-07-12T13:25:23Z</time>
      </trkpt>
      <trkpt lat="48.72126" lon="2.02952">
        <ele>170</ele>
        <time>2015-07-12T13:25:30Z</time>
      </trkpt>
      <trkpt lat="48.72118" lon="2.02953">
        <ele>170</ele>
        <time>2015-07-12T13:25:37Z</time>
      </trkpt>
      <trkpt lat="48.7211" lon="2.02955">
        <ele>170</ele>
        <time>2015-07-12T13:25:44Z</time>
      </trkpt>
      <trkpt lat="48.72101" lon="2.02958">
        <ele>170</ele>
        <time>2015-07-12T13:25:50Z</time>
      </trkpt>
      <trkpt lat="48.72093" lon="2.02962">
        <ele>170</ele>
        <time>2015-07-12T13:25:56Z</time>
      </trkpt>
      <trkpt lat="48.72076" lon="2.02966">
        <ele>172</ele>
        <time>2015-07-12T13:26:07Z</time>
      </trkpt>
      <trkpt lat="48.72068" lon="2.02969">
        <ele>172</ele>
        <time>2015-07-12T13:26:13Z</time>
      </trkpt>
      <trkpt lat="48.72043" lon="2.02972">
        <ele>173</ele>
        <time>2015-07-12T13:26:30Z</time>
      </trkpt>
      <trkpt lat="48.72035" lon="2.02971">
        <ele>173</ele>
        <time>2015-07-12T13:26:36Z</time>
      </trkpt>
      <trkpt lat="48.72027" lon="2.02976">
        <ele>173</ele>
        <time>2015-07-12T13:26:41Z</time>
      </trkpt>
      <trkpt lat="48.72018" lon="2.02977">
        <ele>173</ele>
        <time>2015-07-12T13:27:13Z</time>
      </trkpt>
      <trkpt lat="48.71984" lon="2.02985">
        <ele>175</ele>
        <time>2015-07-12T13:27:50Z</time>
      </trkpt>
      <trkpt lat="48.7195" lon="2.02986">
        <ele>175</ele>
        <time>2015-07-12T13:28:23Z</time>
      </trkpt>
      <trkpt lat="48.71942" lon="2.02989">
        <ele>176</ele>
        <time>2015-07-12T13:28:30Z</time>
      </trkpt>
      <trkpt lat="48.71934" lon="2.02988">
        <ele>176</ele>
        <time>2015-07-12T13:28:36Z</time>
      </trkpt>
      <trkpt lat="48.71926" lon="2.02987">
        <ele>176</ele>
        <time>2015-07-12T13:28:40Z</time>
      </trkpt>
      <trkpt lat="48.71918" lon="2.02989">
        <ele>176</ele>
        <time>2015-07-12T13:28:45Z</time>
      </trkpt>
      <trkpt lat="48.71902" lon="2.02989">
        <ele>176</ele>
        <time>2015-07-12T13:28:56Z</time>
      </trkpt>
      <trkpt lat="48.71894" lon="2.02991">
        <ele>176</ele>
        <time>2015-07-12T13:29:03Z</time>
      </trkpt>
      <trkpt lat="48.71885" lon="2.02987">
        <ele>176</ele>
        <time>2015-07-12T13:29:08Z</time>
      </trkpt>
      <trkpt lat="48.71877" lon="2.02987">
        <ele>176</ele>
        <time>2015-07-12T13:29:13Z</time>
      </trkpt>
      <trkpt lat="48.71861" lon="2.02991">
        <ele>176</ele>
        <time>2015-07-12T13:29:25Z</time>
      </trkpt>
      <trkpt lat="48.71852" lon="2.02995">
        <ele>176</ele>
        <time>2015-07-12T13:29:32Z</time>
      </trkpt>
      <trkpt lat="48.71844" lon="2.02996">
        <ele>177</ele>
        <time>2015-07-12T13:29:36Z</time>
      </trkpt>
      <trkpt lat="48.71836" lon="2.03">
        <ele>177</ele>
        <time>2015-07-12T13:29:42Z</time>
      </trkpt>
      <trkpt lat="48.71828" lon="2.03001">
        <ele>177</ele>
        <time>2015-07-12T13:29:48Z</time>
      </trkpt>
      <trkpt lat="48.7182" lon="2.02998">
        <ele>176</ele>
        <time>2015-07-12T13:29:57Z</time>
      </trkpt>
      <trkpt lat="48.71812" lon="2.03">
        <ele>176</ele>
        <time>2015-07-12T13:30:05Z</time>
      </trkpt>
      <trkpt lat="48.71794" lon="2.02998">
        <ele>175</ele>
        <time>2015-07-12T13:30:22Z</time>
      </trkpt>
      <trkpt lat="48.71786" lon="2.02999">
        <ele>175</ele>
        <time>2015-07-12T13:30:32Z</time>
      </trkpt>
      <trkpt lat="48.71778" lon="2.03001">
        <ele>176</ele>
        <time>2015-07-12T13:30:40Z</time>
      </trkpt>
      <trkpt lat="48.71771" lon="2.03">
        <ele>176</ele>
        <time>2015-07-12T13:30:46Z</time>
      </trkpt>
      <trkpt lat="48.71753" lon="2.03001">
        <ele>175</ele>
        <time>2015-07-12T13:30:59Z</time>
      </trkpt>
      <trkpt lat="48.71745" lon="2.03004">
        <ele>175</ele>
        <time>2015-07-12T13:31:12Z</time>
      </trkpt>
      <trkpt lat="48.71727" lon="2.03007">
        <ele>176</ele>
        <time>2015-07-12T13:31:27Z</time>
      </trkpt>
      <trkpt lat="48.71718" lon="2.03007">
        <ele>176</ele>
        <time>2015-07-12T13:31:36Z</time>
      </trkpt>
      <trkpt lat="48.71711" lon="2.03011">
        <ele>176</ele>
        <time>2015-07-12T13:31:48Z</time>
      </trkpt>
      <trkpt lat="48.71693" lon="2.03009">
        <ele>176</ele>
        <time>2015-07-12T13:31:59Z</time>
      </trkpt>
      <trkpt lat="48.71685" lon="2.0301">
        <ele>176</ele>
        <time>2015-07-12T13:32:04Z</time>
      </trkpt>
      <trkpt lat="48.71677" lon="2.0301">
        <ele>175</ele>
        <time>2015-07-12T13:32:09Z</time>
      </trkpt>
      <trkpt lat="48.71669" lon="2.03008">
        <ele>175</ele>
        <time>2015-07-12T13:32:14Z</time>
      </trkpt>
      <trkpt lat="48.71645" lon="2.03011">
        <ele>175</ele>
        <time>2015-07-12T13:32:29Z</time>
      </trkpt>
      <trkpt lat="48.71637" lon="2.03011">
        <ele>175</ele>
        <time>2015-07-12T13:32:34Z</time>
      </trkpt>
      <trkpt lat="48.71622" lon="2.03018">
        <ele>175</ele>
        <time>2015-07-12T13:32:45Z</time>
      </trkpt>
      <trkpt lat="48.71614" lon="2.03019">
        <ele>175</ele>
        <time>2015-07-12T13:32:50Z</time>
      </trkpt>
      <trkpt lat="48.71605" lon="2.03019">
        <ele>175</ele>
        <time>2015-07-12T13:32:56Z</time>
      </trkpt>
      <trkpt lat="48.71597" lon="2.03017">
        <ele>175</ele>
        <time>2015-07-12T13:33:02Z</time>
      </trkpt>
      <trkpt lat="48.71588" lon="2.03016">
        <ele>174</ele>
        <time>2015-07-12T13:33:10Z</time>
      </trkpt>
      <trkpt lat="48.71565" lon="2.03021">
        <ele>172</ele>
        <time>2015-07-12T13:33:27Z</time>
      </trkpt>
      <trkpt lat="48.71556" lon="2.03024">
        <ele>172</ele>
        <time>2015-07-12T13:33:33Z</time>
      </trkpt>
      <trkpt lat="48.7154" lon="2.03031">
        <ele>172</ele>
        <time>2015-07-12T13:33:45Z</time>
      </trkpt>
      <trkpt lat="48.71532" lon="2.03034">
        <ele>171</ele>
        <time>2015-07-12T13:33:52Z</time>
      </trkpt>
      <trkpt lat="48.71516" lon="2.0304">
        <ele>171</ele>
        <time>2015-07-12T13:34:05Z</time>
      </trkpt>
      <trkpt lat="48.715" lon="2.03045">
        <ele>165</ele>
        <time>2015-07-12T13:34:16Z</time>
      </trkpt>
      <trkpt lat="48.71492" lon="2.03047">
        <ele>165</ele>
        <time>2015-07-12T13:34:22Z</time>
      </trkpt>
      <trkpt lat="48.71484" lon="2.03051">
        <ele>164</ele>
        <time>2015-07-12T13:34:36Z</time>
      </trkpt>
      <trkpt lat="48.71469" lon="2.03061">
        <ele>163</ele>
        <time>2015-07-12T13:34:48Z</time>
      </trkpt>
      <trkpt lat="48.71461" lon="2.03064">
        <ele>163</ele>
        <time>2015-07-12T13:34:54Z</time>
      </trkpt>
      <trkpt lat="48.71445" lon="2.03074">
        <ele>161</ele>
        <time>2015-07-12T13:35:06Z</time>
      </trkpt>
      <trkpt lat="48.71437" lon="2.03077">
        <ele>160</ele>
        <time>2015-07-12T13:35:12Z</time>
      </trkpt>
      <trkpt lat="48.71428" lon="2.03077">
        <ele>159</ele>
        <time>2015-07-12T13:35:21Z</time>
      </trkpt>
      <trkpt lat="48.7142" lon="2.03075">
        <ele>159</ele>
        <time>2015-07-12T13:35:28Z</time>
      </trkpt>
      <trkpt lat="48.71412" lon="2.03076">
        <ele>153</ele>
        <time>2015-07-12T13:35:36Z</time>
      </trkpt>
      <trkpt lat="48.71404" lon="2.03078">
        <ele>150</ele>
        <time>2015-07-12T13:35:45Z</time>
      </trkpt>
      <trkpt lat="48.71395" lon="2.03081">
        <ele>148</ele>
        <time>2015-07-12T13:35:51Z</time>
      </trkpt>
      <trkpt lat="48.7139" lon="2.03091">
        <ele>147</ele>
        <time>2015-07-12T13:35:57Z</time>
      </trkpt>
      <trkpt lat="48.71392" lon="2.03116">
        <ele>146</ele>
        <time>2015-07-12T13:36:12Z</time>
      </trkpt>
      <trkpt lat="48.71389" lon="2.03129">
        <ele>146</ele>
        <time>2015-07-12T13:36:19Z</time>
      </trkpt>
      <trkpt lat="48.71382" lon="2.03135">
        <ele>145</ele>
        <time>2015-07-12T13:36:27Z</time>
      </trkpt>
      <trkpt lat="48.71367" lon="2.03146">
        <ele>142</ele>
        <time>2015-07-12T13:36:41Z</time>
      </trkpt>
      <trkpt lat="48.71363" lon="2.03149">
        <ele>142</ele>
        <time>2015-07-12T13:36:44Z</time>
      </trkpt>
      <trkpt lat="48.71356" lon="2.03157">
        <ele>140</ele>
        <time>2015-07-12T13:36:51Z</time>
      </trkpt>
      <trkpt lat="48.71351" lon="2.03168">
        <ele>139</ele>
        <time>2015-07-12T13:37:09Z</time>
      </trkpt>
      <trkpt lat="48.71337" lon="2.0318">
        <ele>137</ele>
        <time>2015-07-12T13:37:23Z</time>
      </trkpt>
      <trkpt lat="48.71325" lon="2.03198">
        <ele>124</ele>
        <time>2015-07-12T13:37:37Z</time>
      </trkpt>
      <trkpt lat="48.7132" lon="2.03209">
        <ele>123</ele>
        <time>2015-07-12T13:37:43Z</time>
      </trkpt>
      <trkpt lat="48.71303" lon="2.03236">
        <ele>122</ele>
        <time>2015-07-12T13:38:02Z</time>
      </trkpt>
      <trkpt lat="48.71295" lon="2.03254">
        <ele>121</ele>
        <time>2015-07-12T13:38:12Z</time>
      </trkpt>
      <trkpt lat="48.71274" lon="2.03291">
        <ele>117</ele>
        <time>2015-07-12T13:38:34Z</time>
      </trkpt>
      <trkpt lat="48.71266" lon="2.03312">
        <ele>115</ele>
        <time>2015-07-12T13:38:46Z</time>
      </trkpt>
      <trkpt lat="48.71266" lon="2.03324">
        <ele>114</ele>
        <time>2015-07-12T13:38:52Z</time>
      </trkpt>
      <trkpt lat="48.71264" lon="2.03336">
        <ele>114</ele>
        <time>2015-07-12T13:38:57Z</time>
      </trkpt>
      <trkpt lat="48.71257" lon="2.03359">
        <ele>117</ele>
        <time>2015-07-12T13:39:16Z</time>
      </trkpt>
      <trkpt lat="48.71251" lon="2.03368">
        <ele>117</ele>
        <time>2015-07-12T13:39:21Z</time>
      </trkpt>
      <trkpt lat="48.71244" lon="2.03375">
        <ele>108</ele>
        <time>2015-07-12T13:39:27Z</time>
      </trkpt>
      <trkpt lat="48.71237" lon="2.0338">
        <ele>108</ele>
        <time>2015-07-12T13:39:33Z</time>
      </trkpt>
      <trkpt lat="48.71229" lon="2.03383">
        <ele>108</ele>
        <time>2015-07-12T13:39:39Z</time>
      </trkpt>
      <trkpt lat="48.71221" lon="2.03385">
        <ele>108</ele>
        <time>2015-07-12T13:39:45Z</time>
      </trkpt>
      <trkpt lat="48.71213" lon="2.03388">
        <ele>107</ele>
        <time>2015-07-12T13:39:51Z</time>
      </trkpt>
      <trkpt lat="48.71197" lon="2.0339">
        <ele>106</ele>
        <time>2015-07-12T13:40:02Z</time>
      </trkpt>
      <trkpt lat="48.71189" lon="2.03387">
        <ele>106</ele>
        <time>2015-07-12T13:40:08Z</time>
      </trkpt>
      <trkpt lat="48.71181" lon="2.03389">
        <ele>106</ele>
        <time>2015-07-12T13:40:13Z</time>
      </trkpt>
      <trkpt lat="48.71173" lon="2.03388">
        <ele>105</ele>
        <time>2015-07-12T13:40:18Z</time>
      </trkpt>
      <trkpt lat="48.71165" lon="2.03385">
        <ele>100</ele>
        <time>2015-07-12T13:40:25Z</time>
      </trkpt>
      <trkpt lat="48.71158" lon="2.03383">
        <ele>100</ele>
        <time>2015-07-12T13:40:31Z</time>
      </trkpt>
      <trkpt lat="48.7115" lon="2.03387">
        <ele>100</ele>
        <time>2015-07-12T13:40:39Z</time>
      </trkpt>
      <trkpt lat="48.71145" lon="2.03398">
        <ele>100</ele>
        <time>2015-07-12T13:40:47Z</time>
      </trkpt>
      <trkpt lat="48.71129" lon="2.03408">
        <ele>99</ele>
        <time>2015-07-12T13:41:04Z</time>
      </trkpt>
      <trkpt lat="48.71122" lon="2.03416">
        <ele>99</ele>
        <time>2015-07-12T13:41:11Z</time>
      </trkpt>
      <trkpt lat="48.71114" lon="2.03422">
        <ele>104</ele>
        <time>2015-07-12T13:41:19Z</time>
      </trkpt>
      <trkpt lat="48.71106" lon="2.03425">
        <ele>103</ele>
        <time>2015-07-12T13:41:26Z</time>
      </trkpt>
      <trkpt lat="48.71099" lon="2.03433">
        <ele>103</ele>
        <time>2015-07-12T13:41:31Z</time>
      </trkpt>
      <trkpt lat="48.71093" lon="2.03441">
        <ele>103</ele>
        <time>2015-07-12T13:41:36Z</time>
      </trkpt>
      <trkpt lat="48.71088" lon="2.0345">
        <ele>105</ele>
        <time>2015-07-12T13:41:41Z</time>
      </trkpt>
      <trkpt lat="48.7107" lon="2.03476">
        <ele>100</ele>
        <time>2015-07-12T13:42:00Z</time>
      </trkpt>
      <trkpt lat="48.71063" lon="2.03483">
        <ele>100</ele>
        <time>2015-07-12T13:42:06Z</time>
      </trkpt>
      <trkpt lat="48.71041" lon="2.03515">
        <ele>101</ele>
        <time>2015-07-12T13:42:31Z</time>
      </trkpt>
      <trkpt lat="48.71032" lon="2.03534">
        <ele>100</ele>
        <time>2015-07-12T13:42:43Z</time>
      </trkpt>
      <trkpt lat="48.71029" lon="2.03545">
        <ele>100</ele>
        <time>2015-07-12T13:42:50Z</time>
      </trkpt>
      <trkpt lat="48.7102" lon="2.03595">
        <ele>101</ele>
        <time>2015-07-12T13:43:24Z</time>
      </trkpt>
      <trkpt lat="48.7102" lon="2.03608">
        <ele>103</ele>
        <time>2015-07-12T13:43:31Z</time>
      </trkpt>
      <trkpt lat="48.71002" lon="2.03667">
        <ele>97</ele>
        <time>2015-07-12T13:44:02Z</time>
      </trkpt>
      <trkpt lat="48.70992" lon="2.03688">
        <ele>95</ele>
        <time>2015-07-12T13:44:18Z</time>
      </trkpt>
      <trkpt lat="48.70986" lon="2.03697">
        <ele>95</ele>
        <time>2015-07-12T13:44:26Z</time>
      </trkpt>
      <trkpt lat="48.70981" lon="2.03706">
        <ele>94</ele>
        <time>2015-07-12T13:44:33Z</time>
      </trkpt>
      <trkpt lat="48.70977" lon="2.03717">
        <ele>95</ele>
        <time>2015-07-12T13:44:39Z</time>
      </trkpt>
      <trkpt lat="48.70966" lon="2.03738">
        <ele>94</ele>
        <time>2015-07-12T13:44:53Z</time>
      </trkpt>
      <trkpt lat="48.70955" lon="2.03773">
        <ele>96</ele>
        <time>2015-07-12T13:45:13Z</time>
      </trkpt>
      <trkpt lat="48.70945" lon="2.03791">
        <ele>96</ele>
        <time>2015-07-12T13:45:23Z</time>
      </trkpt>
      <trkpt lat="48.70938" lon="2.03799">
        <ele>95</ele>
        <time>2015-07-12T13:45:30Z</time>
      </trkpt>
      <trkpt lat="48.7093" lon="2.03802">
        <ele>95</ele>
        <time>2015-07-12T13:45:44Z</time>
      </trkpt>
      <trkpt lat="48.70925" lon="2.03812">
        <ele>95</ele>
        <time>2015-07-12T13:45:52Z</time>
      </trkpt>
      <trkpt lat="48.70911" lon="2.03825">
        <ele>91</ele>
        <time>2015-07-12T13:46:08Z</time>
      </trkpt>
      <trkpt lat="48.70903" lon="2.0383">
        <ele>91</ele>
        <time>2015-07-12T13:46:15Z</time>
      </trkpt>
      <trkpt lat="48.70896" lon="2.03836">
        <ele>92</ele>
        <time>2015-07-12T13:46:22Z</time>
      </trkpt>
      <trkpt lat="48.70893" lon="2.03848">
        <ele>92</ele>
        <time>2015-07-12T13:46:29Z</time>
      </trkpt>
      <trkpt lat="48.70885" lon="2.03855">
        <ele>92</ele>
        <time>2015-07-12T13:46:38Z</time>
      </trkpt>
      <trkpt lat="48.70881" lon="2.03865">
        <ele>92</ele>
        <time>2015-07-12T13:46:49Z</time>
      </trkpt>
      <trkpt lat="48.70875" lon="2.03875">
        <ele>92</ele>
        <time>2015-07-12T13:46:57Z</time>
      </trkpt>
      <trkpt lat="48.70872" lon="2.03885">
        <ele>92</ele>
        <time>2015-07-12T13:47:03Z</time>
      </trkpt>
      <trkpt lat="48.70872" lon="2.03924">
        <ele>95</ele>
        <time>2015-07-12T13:47:20Z</time>
      </trkpt>
      <trkpt lat="48.70875" lon="2.03935">
        <ele>95</ele>
        <time>2015-07-12T13:47:27Z</time>
      </trkpt>
      <trkpt lat="48.70875" lon="2.03949">
        <ele>95</ele>
        <time>2015-07-12T13:47:33Z</time>
      </trkpt>
      <trkpt lat="48.70869" lon="2.03972">
        <ele>95</ele>
        <time>2015-07-12T13:47:45Z</time>
      </trkpt>
      <trkpt lat="48.70868" lon="2.03985">
        <ele>96</ele>
        <time>2015-07-12T13:47:55Z</time>
      </trkpt>
      <trkpt lat="48.70862" lon="2.03995">
        <ele>95</ele>
        <time>2015-07-12T13:49:54Z</time>
      </trkpt>
      <trkpt lat="48.70862" lon="2.03985">
        <ele>95</ele>
        <time>2015-07-12T13:50:11Z</time>
      </trkpt>
      <trkpt lat="48.70849" lon="2.03939">
        <ele>93</ele>
        <time>2015-07-12T13:50:16Z</time>
      </trkpt>
      <trkpt lat="48.70873" lon="2.04001">
        <ele>99</ele>
        <time>2015-07-12T13:52:06Z</time>
      </trkpt>
      <trkpt lat="48.70866" lon="2.04004">
        <ele>98</ele>
        <time>2015-07-12T13:52:13Z</time>
      </trkpt>
      <trkpt lat="48.70859" lon="2.04013">
        <ele>98</ele>
        <time>2015-07-12T13:52:19Z</time>
      </trkpt>
      <trkpt lat="48.70844" lon="2.04039">
        <ele>98</ele>
        <time>2015-07-12T13:52:34Z</time>
      </trkpt>
      <trkpt lat="48.70839" lon="2.04051">
        <ele>98</ele>
        <time>2015-07-12T13:52:42Z</time>
      </trkpt>
      <trkpt lat="48.70832" lon="2.04058">
        <ele>92</ele>
        <time>2015-07-12T13:52:52Z</time>
      </trkpt>
      <trkpt lat="48.70828" lon="2.04047">
        <ele>91</ele>
        <time>2015-07-12T13:53:01Z</time>
      </trkpt>
      <trkpt lat="48.70822" lon="2.04039">
        <ele>91</ele>
        <time>2015-07-12T13:53:09Z</time>
      </trkpt>
      <trkpt lat="48.70828" lon="2.04047">
        <ele>91</ele>
        <time>2015-07-12T13:54:20Z</time>
      </trkpt>
      <trkpt lat="48.70834" lon="2.04056">
        <ele>97</ele>
        <time>2015-07-12T13:54:26Z</time>
      </trkpt>
      <trkpt lat="48.70843" lon="2.04058">
        <ele>98</ele>
        <time>2015-07-12T13:54:33Z</time>
      </trkpt>
      <trkpt lat="48.70847" lon="2.04046">
        <ele>98</ele>
        <time>2015-07-12T13:54:40Z</time>
      </trkpt>
      <trkpt lat="48.70851" lon="2.04038">
        <ele>98</ele>
        <time>2015-07-12T13:54:45Z</time>
      </trkpt>
      <trkpt lat="48.70858" lon="2.0403">
        <ele>98</ele>
        <time>2015-07-12T13:54:51Z</time>
      </trkpt>
      <trkpt lat="48.70861" lon="2.04018">
        <ele>98</ele>
        <time>2015-07-12T13:54:57Z</time>
      </trkpt>
      <trkpt lat="48.70865" lon="2.04007">
        <ele>98</ele>
        <time>2015-07-12T13:55:05Z</time>
      </trkpt>
      <trkpt lat="48.70864" lon="2.03994">
        <ele>95</ele>
        <time>2015-07-12T13:55:13Z</time>
      </trkpt>
      <trkpt lat="48.70856" lon="2.04">
        <ele>94</ele>
        <time>2015-07-12T13:57:20Z</time>
      </trkpt>
      <trkpt lat="48.70855" lon="2.04013">
        <ele>97</ele>
        <time>2015-07-12T13:57:27Z</time>
      </trkpt>
      <trkpt lat="48.70843" lon="2.04032">
        <ele>97</ele>
        <time>2015-07-12T13:57:44Z</time>
      </trkpt>
      <trkpt lat="48.70841" lon="2.04043">
        <ele>98</ele>
        <time>2015-07-12T13:58:00Z</time>
      </trkpt>
      <trkpt lat="48.70835" lon="2.04051">
        <ele>97</ele>
        <time>2015-07-12T13:58:07Z</time>
      </trkpt>
      <trkpt lat="48.70834" lon="2.04063">
        <ele>97</ele>
        <time>2015-07-12T13:58:12Z</time>
      </trkpt>
      <trkpt lat="48.70819" lon="2.04051">
        <ele>91</ele>
        <time>2015-07-12T13:59:07Z</time>
      </trkpt>
      <trkpt lat="48.70815" lon="2.04039">
        <ele>91</ele>
        <time>2015-07-12T13:59:15Z</time>
      </trkpt>
      <trkpt lat="48.70812" lon="2.04026">
        <ele>91</ele>
        <time>2015-07-12T13:59:25Z</time>
      </trkpt>
      <trkpt lat="48.70813" lon="2.04002">
        <ele>91</ele>
        <time>2015-07-12T13:59:46Z</time>
      </trkpt>
      <trkpt lat="48.70812" lon="2.03986">
        <ele>90</ele>
        <time>2015-07-12T13:59:51Z</time>
      </trkpt>
      <trkpt lat="48.7081" lon="2.03974">
        <ele>89</ele>
        <time>2015-07-12T13:59:55Z</time>
      </trkpt>
      <trkpt lat="48.70809" lon="2.03948">
        <ele>89</ele>
        <time>2015-07-12T14:00:08Z</time>
      </trkpt>
      <trkpt lat="48.70817" lon="2.03941">
        <ele>89</ele>
        <time>2015-07-12T14:00:15Z</time>
      </trkpt>
      <trkpt lat="48.70824" lon="2.03942">
        <ele>89</ele>
        <time>2015-07-12T14:00:21Z</time>
      </trkpt>
      <trkpt lat="48.70832" lon="2.03945">
        <ele>89</ele>
        <time>2015-07-12T14:00:25Z</time>
      </trkpt>
      <trkpt lat="48.7084" lon="2.03951">
        <ele>94</ele>
        <time>2015-07-12T14:00:35Z</time>
      </trkpt>
      <trkpt lat="48.70832" lon="2.03947">
        <ele>89</ele>
        <time>2015-07-12T14:00:56Z</time>
      </trkpt>
      <trkpt lat="48.70829" lon="2.03936">
        <ele>89</ele>
        <time>2015-07-12T14:01:04Z</time>
      </trkpt>
      <trkpt lat="48.70829" lon="2.03922">
        <ele>90</ele>
        <time>2015-07-12T14:01:10Z</time>
      </trkpt>
      <trkpt lat="48.70831" lon="2.03909">
        <ele>89</ele>
        <time>2015-07-12T14:01:17Z</time>
      </trkpt>
      <trkpt lat="48.70822" lon="2.0391">
        <ele>89</ele>
        <time>2015-07-12T14:07:40Z</time>
      </trkpt>
      <trkpt lat="48.70831" lon="2.03915">
        <ele>90</ele>
        <time>2015-07-12T14:18:26Z</time>
      </trkpt>
      <trkpt lat="48.70822" lon="2.0392">
        <ele>89</ele>
        <time>2015-07-12T14:24:24Z</time>
      </trkpt>
      <trkpt lat="48.70817" lon="2.0393">
        <ele>89</ele>
        <time>2015-07-12T14:24:38Z</time>
      </trkpt>
      <trkpt lat="48.7081" lon="2.03936">
        <ele>89</ele>
        <time>2015-07-12T14:24:45Z</time>
      </trkpt>
      <trkpt lat="48.70801" lon="2.0394">
        <ele>89</ele>
        <time>2015-07-12T14:24:52Z</time>
      </trkpt>
      <trkpt lat="48.7081" lon="2.0394">
        <ele>89</ele>
        <time>2015-07-12T14:25:12Z</time>
      </trkpt>
      <trkpt lat="48.70815" lon="2.0395">
        <ele>89</ele>
        <time>2015-07-12T14:25:21Z</time>
      </trkpt>
      <trkpt lat="48.70817" lon="2.03975">
        <ele>90</ele>
        <time>2015-07-12T14:25:53Z</time>
      </trkpt>
      <trkpt lat="48.70817" lon="2.04001">
        <ele>91</ele>
        <time>2015-07-12T14:26:14Z</time>
      </trkpt>
      <trkpt lat="48.70818" lon="2.04015">
        <ele>91</ele>
        <time>2015-07-12T14:26:21Z</time>
      </trkpt>
      <trkpt lat="48.70817" lon="2.04038">
        <ele>91</ele>
        <time>2015-07-12T14:26:32Z</time>
      </trkpt>
      <trkpt lat="48.7082" lon="2.04049">
        <ele>91</ele>
        <time>2015-07-12T14:26:38Z</time>
      </trkpt>
      <trkpt lat="48.70826" lon="2.04058">
        <ele>92</ele>
        <time>2015-07-12T14:26:44Z</time>
      </trkpt>
      <trkpt lat="48.70825" lon="2.04071">
        <ele>92</ele>
        <time>2015-07-12T14:26:52Z</time>
      </trkpt>
      <trkpt lat="48.70822" lon="2.04083">
        <ele>93</ele>
        <time>2015-07-12T14:27:00Z</time>
      </trkpt>
      <trkpt lat="48.70821" lon="2.04096">
        <ele>93</ele>
        <time>2015-07-12T14:27:13Z</time>
      </trkpt>
      <trkpt lat="48.70818" lon="2.04106">
        <ele>92</ele>
        <time>2015-07-12T14:27:21Z</time>
      </trkpt>
      <trkpt lat="48.70821" lon="2.04117">
        <ele>92</ele>
        <time>2015-07-12T14:27:26Z</time>
      </trkpt>
      <trkpt lat="48.70821" lon="2.04154">
        <ele>93</ele>
        <time>2015-07-12T14:27:45Z</time>
      </trkpt>
      <trkpt lat="48.70819" lon="2.04167">
        <ele>94</ele>
        <time>2015-07-12T14:27:52Z</time>
      </trkpt>
      <trkpt lat="48.7082" lon="2.0418">
        <ele>94</ele>
        <time>2015-07-12T14:27:59Z</time>
      </trkpt>
      <trkpt lat="48.7081" lon="2.04212">
        <ele>93</ele>
        <time>2015-07-12T14:28:19Z</time>
      </trkpt>
      <trkpt lat="48.7081" lon="2.04225">
        <ele>93</ele>
        <time>2015-07-12T14:28:26Z</time>
      </trkpt>
      <trkpt lat="48.70813" lon="2.04238">
        <ele>93</ele>
        <time>2015-07-12T14:28:33Z</time>
      </trkpt>
      <trkpt lat="48.70813" lon="2.0425">
        <ele>94</ele>
        <time>2015-07-12T14:28:40Z</time>
      </trkpt>
      <trkpt lat="48.7081" lon="2.04263">
        <ele>93</ele>
        <time>2015-07-12T14:28:49Z</time>
      </trkpt>
      <trkpt lat="48.708" lon="2.04283">
        <ele>92</ele>
        <time>2015-07-12T14:29:02Z</time>
      </trkpt>
      <trkpt lat="48.70796" lon="2.04293">
        <ele>92</ele>
        <time>2015-07-12T14:29:09Z</time>
      </trkpt>
      <trkpt lat="48.70793" lon="2.04318">
        <ele>92</ele>
        <time>2015-07-12T14:29:24Z</time>
      </trkpt>
      <trkpt lat="48.70783" lon="2.04353">
        <ele>91</ele>
        <time>2015-07-12T14:29:49Z</time>
      </trkpt>
      <trkpt lat="48.70782" lon="2.04364">
        <ele>90</ele>
        <time>2015-07-12T14:29:55Z</time>
      </trkpt>
      <trkpt lat="48.70785" lon="2.04376">
        <ele>90</ele>
        <time>2015-07-12T14:30:00Z</time>
      </trkpt>
      <trkpt lat="48.70785" lon="2.04401">
        <ele>90</ele>
        <time>2015-07-12T14:30:14Z</time>
      </trkpt>
      <trkpt lat="48.70779" lon="2.0441">
        <ele>89</ele>
        <time>2015-07-12T14:30:20Z</time>
      </trkpt>
      <trkpt lat="48.70773" lon="2.04418">
        <ele>88</ele>
        <time>2015-07-12T14:30:24Z</time>
      </trkpt>
      <trkpt lat="48.70772" lon="2.0443">
        <ele>88</ele>
        <time>2015-07-12T14:30:30Z</time>
      </trkpt>
      <trkpt lat="48.70773" lon="2.04443">
        <ele>88</ele>
        <time>2015-07-12T14:30:37Z</time>
      </trkpt>
      <trkpt lat="48.70778" lon="2.04453">
        <ele>89</ele>
        <time>2015-07-12T14:30:43Z</time>
      </trkpt>
      <trkpt lat="48.70778" lon="2.04466">
        <ele>89</ele>
        <time>2015-07-12T14:30:52Z</time>
      </trkpt>
      <trkpt lat="48.70773" lon="2.04478">
        <ele>88</ele>
        <time>2015-07-12T14:30:59Z</time>
      </trkpt>
      <trkpt lat="48.70775" lon="2.04501">
        <ele>88</ele>
        <time>2015-07-12T14:31:09Z</time>
      </trkpt>
      <trkpt lat="48.70775" lon="2.04514">
        <ele>88</ele>
        <time>2015-07-12T14:31:16Z</time>
      </trkpt>
      <trkpt lat="48.70773" lon="2.04526">
        <ele>88</ele>
        <time>2015-07-12T14:31:24Z</time>
      </trkpt>
      <trkpt lat="48.70764" lon="2.04549">
        <ele>88</ele>
        <time>2015-07-12T14:31:40Z</time>
      </trkpt>
      <trkpt lat="48.70768" lon="2.04571">
        <ele>88</ele>
        <time>2015-07-12T14:31:51Z</time>
      </trkpt>
      <trkpt lat="48.70778" lon="2.0458">
        <ele>88</ele>
        <time>2015-07-12T14:31:56Z</time>
      </trkpt>
      <trkpt lat="48.70778" lon="2.04592">
        <ele>88</ele>
        <time>2015-07-12T14:32:34Z</time>
      </trkpt>
      <trkpt lat="48.70778" lon="2.04605">
        <ele>88</ele>
        <time>2015-07-12T14:32:41Z</time>
      </trkpt>
      <trkpt lat="48.70777" lon="2.04617">
        <ele>88</ele>
        <time>2015-07-12T14:32:46Z</time>
      </trkpt>
      <trkpt lat="48.70778" lon="2.04629">
        <ele>88</ele>
        <time>2015-07-12T14:32:51Z</time>
      </trkpt>
      <trkpt lat="48.70777" lon="2.04641">
        <ele>87</ele>
        <time>2015-07-12T14:32:58Z</time>
      </trkpt>
      <trkpt lat="48.70774" lon="2.04653">
        <ele>87</ele>
        <time>2015-07-12T14:33:05Z</time>
      </trkpt>
      <trkpt lat="48.70778" lon="2.04676">
        <ele>87</ele>
        <time>2015-07-12T14:33:18Z</time>
      </trkpt>
      <trkpt lat="48.70774" lon="2.04686">
        <ele>87</ele>
        <time>2015-07-12T14:33:25Z</time>
      </trkpt>
      <trkpt lat="48.70776" lon="2.04698">
        <ele>88</ele>
        <time>2015-07-12T14:33:35Z</time>
      </trkpt>
      <trkpt lat="48.70775" lon="2.04709">
        <ele>88</ele>
        <time>2015-07-12T14:33:41Z</time>
      </trkpt>
      <trkpt lat="48.70771" lon="2.04721">
        <ele>88</ele>
        <time>2015-07-12T14:33:48Z</time>
      </trkpt>
      <trkpt lat="48.70766" lon="2.0473">
        <ele>88</ele>
        <time>2015-07-12T14:33:54Z</time>
      </trkpt>
      <trkpt lat="48.70762" lon="2.04742">
        <ele>87</ele>
        <time>2015-07-12T14:34:00Z</time>
      </trkpt>
      <trkpt lat="48.70764" lon="2.04767">
        <ele>89</ele>
        <time>2015-07-12T14:34:12Z</time>
      </trkpt>
      <trkpt lat="48.7076" lon="2.04804">
        <ele>90</ele>
        <time>2015-07-12T14:34:37Z</time>
      </trkpt>
      <trkpt lat="48.7076" lon="2.04816">
        <ele>89</ele>
        <time>2015-07-12T14:34:43Z</time>
      </trkpt>
      <trkpt lat="48.70754" lon="2.04825">
        <ele>89</ele>
        <time>2015-07-12T14:34:50Z</time>
      </trkpt>
      <trkpt lat="48.70754" lon="2.04838">
        <ele>89</ele>
        <time>2015-07-12T14:34:59Z</time>
      </trkpt>
      <trkpt lat="48.70757" lon="2.04851">
        <ele>90</ele>
        <time>2015-07-12T14:35:08Z</time>
      </trkpt>
      <trkpt lat="48.70751" lon="2.04874">
        <ele>91</ele>
        <time>2015-07-12T14:35:20Z</time>
      </trkpt>
      <trkpt lat="48.70755" lon="2.04886">
        <ele>91</ele>
        <time>2015-07-12T14:35:28Z</time>
      </trkpt>
      <trkpt lat="48.70763" lon="2.0489">
        <ele>92</ele>
        <time>2015-07-12T14:35:34Z</time>
      </trkpt>
      <trkpt lat="48.7077" lon="2.04893">
        <ele>92</ele>
        <time>2015-07-12T14:35:39Z</time>
      </trkpt>
      <trkpt lat="48.70778" lon="2.04898">
        <ele>92</ele>
        <time>2015-07-12T14:35:46Z</time>
      </trkpt>
      <trkpt lat="48.70787" lon="2.04901">
        <ele>93</ele>
        <time>2015-07-12T14:35:54Z</time>
      </trkpt>
      <trkpt lat="48.70811" lon="2.04907">
        <ele>95</ele>
        <time>2015-07-12T14:36:17Z</time>
      </trkpt>
      <trkpt lat="48.70819" lon="2.04912">
        <ele>96</ele>
        <time>2015-07-12T14:36:34Z</time>
      </trkpt>
      <trkpt lat="48.70827" lon="2.04916">
        <ele>98</ele>
        <time>2015-07-12T14:36:42Z</time>
      </trkpt>
      <trkpt lat="48.70836" lon="2.04917">
        <ele>101</ele>
        <time>2015-07-12T14:36:50Z</time>
      </trkpt>
      <trkpt lat="48.70844" lon="2.0492">
        <ele>105</ele>
        <time>2015-07-12T14:36:54Z</time>
      </trkpt>
      <trkpt lat="48.70864" lon="2.04897">
        <ele>108</ele>
        <time>2015-07-12T14:37:18Z</time>
      </trkpt>
      <trkpt lat="48.70872" lon="2.04891">
        <ele>110</ele>
        <time>2015-07-12T14:37:25Z</time>
      </trkpt>
      <trkpt lat="48.7088" lon="2.04886">
        <ele>111</ele>
        <time>2015-07-12T14:37:33Z</time>
      </trkpt>
      <trkpt lat="48.70886" lon="2.04877">
        <ele>111</ele>
        <time>2015-07-12T14:37:43Z</time>
      </trkpt>
      <trkpt lat="48.7089" lon="2.04865">
        <ele>111</ele>
        <time>2015-07-12T14:38:00Z</time>
      </trkpt>
      <trkpt lat="48.70896" lon="2.04861">
        <ele>112</ele>
        <time>2015-07-12T14:38:06Z</time>
      </trkpt>
      <trkpt lat="48.70902" lon="2.04853">
        <ele>112</ele>
        <time>2015-07-12T14:38:13Z</time>
      </trkpt>
      <trkpt lat="48.70915" lon="2.04835">
        <ele>115</ele>
        <time>2015-07-12T14:38:26Z</time>
      </trkpt>
      <trkpt lat="48.70919" lon="2.04824">
        <ele>120</ele>
        <time>2015-07-12T14:38:33Z</time>
      </trkpt>
      <trkpt lat="48.70923" lon="2.04814">
        <ele>122</ele>
        <time>2015-07-12T14:38:39Z</time>
      </trkpt>
      <trkpt lat="48.70929" lon="2.04791">
        <ele>124</ele>
        <time>2015-07-12T14:38:51Z</time>
      </trkpt>
      <trkpt lat="48.70955" lon="2.04725">
        <ele>124</ele>
        <time>2015-07-12T14:39:37Z</time>
      </trkpt>
      <trkpt lat="48.70958" lon="2.04712">
        <ele>125</ele>
        <time>2015-07-12T14:39:45Z</time>
      </trkpt>
      <trkpt lat="48.7096" lon="2.047">
        <ele>125</ele>
        <time>2015-07-12T14:39:53Z</time>
      </trkpt>
      <trkpt lat="48.70965" lon="2.04679">
        <ele>126</ele>
        <time>2015-07-12T14:40:04Z</time>
      </trkpt>
      <trkpt lat="48.7097" lon="2.0467">
        <ele>127</ele>
        <time>2015-07-12T14:40:10Z</time>
      </trkpt>
      <trkpt lat="48.70968" lon="2.04657">
        <ele>124</ele>
        <time>2015-07-12T14:40:25Z</time>
      </trkpt>
      <trkpt lat="48.70979" lon="2.04622">
        <ele>125</ele>
        <time>2015-07-12T14:41:01Z</time>
      </trkpt>
      <trkpt lat="48.70983" lon="2.04612">
        <ele>126</ele>
        <time>2015-07-12T14:41:09Z</time>
      </trkpt>
      <trkpt lat="48.70985" lon="2.04598">
        <ele>127</ele>
        <time>2015-07-12T14:41:27Z</time>
      </trkpt>
      <trkpt lat="48.70992" lon="2.04575">
        <ele>128</ele>
        <time>2015-07-12T14:41:40Z</time>
      </trkpt>
      <trkpt lat="48.70991" lon="2.04563">
        <ele>125</ele>
        <time>2015-07-12T14:41:54Z</time>
      </trkpt>
      <trkpt lat="48.70993" lon="2.0455">
        <ele>124</ele>
        <time>2015-07-12T14:42:03Z</time>
      </trkpt>
      <trkpt lat="48.71009" lon="2.0452">
        <ele>137</ele>
        <time>2015-07-12T14:42:23Z</time>
      </trkpt>
      <trkpt lat="48.71012" lon="2.0451">
        <ele>136</ele>
        <time>2015-07-12T14:42:29Z</time>
      </trkpt>
      <trkpt lat="48.71019" lon="2.045">
        <ele>136</ele>
        <time>2015-07-12T14:42:36Z</time>
      </trkpt>
      <trkpt lat="48.71025" lon="2.04493">
        <ele>137</ele>
        <time>2015-07-12T14:42:44Z</time>
      </trkpt>
      <trkpt lat="48.71032" lon="2.04488">
        <ele>139</ele>
        <time>2015-07-12T14:42:51Z</time>
      </trkpt>
      <trkpt lat="48.71041" lon="2.0449">
        <ele>140</ele>
        <time>2015-07-12T14:42:58Z</time>
      </trkpt>
      <trkpt lat="48.7105" lon="2.04488">
        <ele>142</ele>
        <time>2015-07-12T14:43:06Z</time>
      </trkpt>
      <trkpt lat="48.71054" lon="2.04478">
        <ele>142</ele>
        <time>2015-07-12T14:43:12Z</time>
      </trkpt>
      <trkpt lat="48.71063" lon="2.04475">
        <ele>143</ele>
        <time>2015-07-12T14:43:18Z</time>
      </trkpt>
      <trkpt lat="48.71069" lon="2.04467">
        <ele>143</ele>
        <time>2015-07-12T14:43:25Z</time>
      </trkpt>
      <trkpt lat="48.71077" lon="2.04465">
        <ele>144</ele>
        <time>2015-07-12T14:43:32Z</time>
      </trkpt>
      <trkpt lat="48.71085" lon="2.04461">
        <ele>153</ele>
        <time>2015-07-12T14:43:39Z</time>
      </trkpt>
      <trkpt lat="48.71093" lon="2.04454">
        <ele>153</ele>
        <time>2015-07-12T14:43:46Z</time>
      </trkpt>
      <trkpt lat="48.71096" lon="2.04442">
        <ele>153</ele>
        <time>2015-07-12T14:43:52Z</time>
      </trkpt>
      <trkpt lat="48.71097" lon="2.0443">
        <ele>152</ele>
        <time>2015-07-12T14:43:57Z</time>
      </trkpt>
      <trkpt lat="48.71102" lon="2.04421">
        <ele>152</ele>
        <time>2015-07-12T14:44:03Z</time>
      </trkpt>
      <trkpt lat="48.71109" lon="2.04414">
        <ele>153</ele>
        <time>2015-07-12T14:44:09Z</time>
      </trkpt>
      <trkpt lat="48.71117" lon="2.04379">
        <ele>154</ele>
        <time>2015-07-12T14:44:29Z</time>
      </trkpt>
      <trkpt lat="48.7114" lon="2.04342">
        <ele>156</ele>
        <time>2015-07-12T14:44:53Z</time>
      </trkpt>
      <trkpt lat="48.71144" lon="2.04331">
        <ele>156</ele>
        <time>2015-07-12T14:45:01Z</time>
      </trkpt>
      <trkpt lat="48.71149" lon="2.04322">
        <ele>156</ele>
        <time>2015-07-12T14:45:08Z</time>
      </trkpt>
      <trkpt lat="48.71155" lon="2.04313">
        <ele>156</ele>
        <time>2015-07-12T14:45:14Z</time>
      </trkpt>
      <trkpt lat="48.71162" lon="2.04319">
        <ele>157</ele>
        <time>2015-07-12T14:45:25Z</time>
      </trkpt>
      <trkpt lat="48.71169" lon="2.04326">
        <ele>158</ele>
        <time>2015-07-12T14:45:34Z</time>
      </trkpt>
      <trkpt lat="48.71174" lon="2.04337">
        <ele>159</ele>
        <time>2015-07-12T14:45:41Z</time>
      </trkpt>
      <trkpt lat="48.71175" lon="2.0435">
        <ele>159</ele>
        <time>2015-07-12T14:45:48Z</time>
      </trkpt>
      <trkpt lat="48.71177" lon="2.04362">
        <ele>159</ele>
        <time>2015-07-12T14:45:57Z</time>
      </trkpt>
      <trkpt lat="48.71173" lon="2.04373">
        <ele>159</ele>
        <time>2015-07-12T14:46:06Z</time>
      </trkpt>
      <trkpt lat="48.7117" lon="2.04399">
        <ele>159</ele>
        <time>2015-07-12T14:46:23Z</time>
      </trkpt>
      <trkpt lat="48.71166" lon="2.04411">
        <ele>158</ele>
        <time>2015-07-12T14:46:28Z</time>
      </trkpt>
      <trkpt lat="48.71167" lon="2.04424">
        <ele>159</ele>
        <time>2015-07-12T14:46:35Z</time>
      </trkpt>
      <trkpt lat="48.71166" lon="2.04436">
        <ele>157</ele>
        <time>2015-07-12T14:46:52Z</time>
      </trkpt>
      <trkpt lat="48.71169" lon="2.04448">
        <ele>160</ele>
        <time>2015-07-12T14:46:59Z</time>
      </trkpt>
      <trkpt lat="48.71165" lon="2.04485">
        <ele>157</ele>
        <time>2015-07-12T14:47:16Z</time>
      </trkpt>
      <trkpt lat="48.71166" lon="2.04498">
        <ele>159</ele>
        <time>2015-07-12T14:47:24Z</time>
      </trkpt>
      <trkpt lat="48.7116" lon="2.04561">
        <ele>158</ele>
        <time>2015-07-12T14:47:53Z</time>
      </trkpt>
      <trkpt lat="48.71161" lon="2.04585">
        <ele>160</ele>
        <time>2015-07-12T14:48:05Z</time>
      </trkpt>
      <trkpt lat="48.71159" lon="2.04596">
        <ele>160</ele>
        <time>2015-07-12T14:48:09Z</time>
      </trkpt>
      <trkpt lat="48.71157" lon="2.04608">
        <ele>161</ele>
        <time>2015-07-12T14:48:14Z</time>
      </trkpt>
      <trkpt lat="48.71159" lon="2.04621">
        <ele>161</ele>
        <time>2015-07-12T14:48:19Z</time>
      </trkpt>
      <trkpt lat="48.71158" lon="2.04633">
        <ele>162</ele>
        <time>2015-07-12T14:48:26Z</time>
      </trkpt>
      <trkpt lat="48.71158" lon="2.04646">
        <ele>163</ele>
        <time>2015-07-12T14:48:33Z</time>
      </trkpt>
      <trkpt lat="48.71165" lon="2.04653">
        <ele>164</ele>
        <time>2015-07-12T14:48:39Z</time>
      </trkpt>
      <trkpt lat="48.7117" lon="2.04662">
        <ele>166</ele>
        <time>2015-07-12T14:48:45Z</time>
      </trkpt>
      <trkpt lat="48.71173" lon="2.04674">
        <ele>167</ele>
        <time>2015-07-12T14:48:52Z</time>
      </trkpt>
      <trkpt lat="48.71178" lon="2.04683">
        <ele>167</ele>
        <time>2015-07-12T14:48:59Z</time>
      </trkpt>
      <trkpt lat="48.7118" lon="2.04695">
        <ele>168</ele>
        <time>2015-07-12T14:49:05Z</time>
      </trkpt>
      <trkpt lat="48.71176" lon="2.04707">
        <ele>168</ele>
        <time>2015-07-12T14:49:21Z</time>
      </trkpt>
      <trkpt lat="48.71177" lon="2.04719">
        <ele>169</ele>
        <time>2015-07-12T14:49:29Z</time>
      </trkpt>
      <trkpt lat="48.71176" lon="2.04731">
        <ele>169</ele>
        <time>2015-07-12T14:49:34Z</time>
      </trkpt>
      <trkpt lat="48.71181" lon="2.04793">
        <ele>170</ele>
        <time>2015-07-12T14:50:04Z</time>
      </trkpt>
      <trkpt lat="48.71179" lon="2.04805">
        <ele>170</ele>
        <time>2015-07-12T14:51:00Z</time>
      </trkpt>
      <trkpt lat="48.71182" lon="2.04831">
        <ele>171</ele>
        <time>2015-07-12T14:51:14Z</time>
      </trkpt>
      <trkpt lat="48.71182" lon="2.04857">
        <ele>170</ele>
        <time>2015-07-12T14:51:28Z</time>
      </trkpt>
      <trkpt lat="48.7119" lon="2.0488">
        <ele>169</ele>
        <time>2015-07-12T14:51:48Z</time>
      </trkpt>
      <trkpt lat="48.71192" lon="2.04892">
        <ele>169</ele>
        <time>2015-07-12T14:51:56Z</time>
      </trkpt>
      <trkpt lat="48.71193" lon="2.04905">
        <ele>169</ele>
        <time>2015-07-12T14:52:02Z</time>
      </trkpt>
      <trkpt lat="48.71196" lon="2.04918">
        <ele>169</ele>
        <time>2015-07-12T14:52:09Z</time>
      </trkpt>
      <trkpt lat="48.71194" lon="2.04979">
        <ele>169</ele>
        <time>2015-07-12T14:52:43Z</time>
      </trkpt>
      <trkpt lat="48.71188" lon="2.05002">
        <ele>170</ele>
        <time>2015-07-12T14:52:56Z</time>
      </trkpt>
      <trkpt lat="48.71193" lon="2.05025">
        <ele>170</ele>
        <time>2015-07-12T14:53:09Z</time>
      </trkpt>
      <trkpt lat="48.71194" lon="2.05064">
        <ele>171</ele>
        <time>2015-07-12T14:53:31Z</time>
      </trkpt>
      <trkpt lat="48.71198" lon="2.0509">
        <ele>172</ele>
        <time>2015-07-12T14:53:49Z</time>
      </trkpt>
      <trkpt lat="48.71204" lon="2.05099">
        <ele>171</ele>
        <time>2015-07-12T14:53:56Z</time>
      </trkpt>
      <trkpt lat="48.71208" lon="2.05111">
        <ele>171</ele>
        <time>2015-07-12T14:54:03Z</time>
      </trkpt>
      <trkpt lat="48.71211" lon="2.05123">
        <ele>171</ele>
        <time>2015-07-12T14:54:13Z</time>
      </trkpt>
      <trkpt lat="48.71209" lon="2.05136">
        <ele>172</ele>
        <time>2015-07-12T14:54:18Z</time>
      </trkpt>
      <trkpt lat="48.71208" lon="2.05148">
        <ele>172</ele>
        <time>2015-07-12T14:54:23Z</time>
      </trkpt>
      <trkpt lat="48.71213" lon="2.05186">
        <ele>172</ele>
        <time>2015-07-12T14:54:43Z</time>
      </trkpt>
      <trkpt lat="48.71212" lon="2.05198">
        <ele>172</ele>
        <time>2015-07-12T14:54:50Z</time>
      </trkpt>
      <trkpt lat="48.71212" lon="2.05235">
        <ele>173</ele>
        <time>2015-07-12T14:55:09Z</time>
      </trkpt>
      <trkpt lat="48.71211" lon="2.05247">
        <ele>173</ele>
        <time>2015-07-12T14:55:16Z</time>
      </trkpt>
      <trkpt lat="48.71213" lon="2.0526">
        <ele>173</ele>
        <time>2015-07-12T14:55:23Z</time>
      </trkpt>
      <trkpt lat="48.7121" lon="2.05286">
        <ele>173</ele>
        <time>2015-07-12T14:55:36Z</time>
      </trkpt>
      <trkpt lat="48.71209" lon="2.05335">
        <ele>171</ele>
        <time>2015-07-12T14:55:59Z</time>
      </trkpt>
      <trkpt lat="48.71216" lon="2.05372">
        <ele>171</ele>
        <time>2015-07-12T14:56:18Z</time>
      </trkpt>
      <trkpt lat="48.71217" lon="2.05384">
        <ele>170</ele>
        <time>2015-07-12T14:56:24Z</time>
      </trkpt>
      <trkpt lat="48.7122" lon="2.05396">
        <ele>170</ele>
        <time>2015-07-12T14:56:30Z</time>
      </trkpt>
      <trkpt lat="48.71447" lon="2.05641">
        <ele>165</ele>
        <time>2015-07-12T15:01:58Z</time>
      </trkpt>
      <trkpt lat="48.71443" lon="2.0566">
        <ele>165</ele>
        <time>2015-07-12T15:02:09Z</time>
      </trkpt>
      <trkpt lat="48.7146" lon="2.05648">
        <ele>165</ele>
        <time>2015-07-12T15:02:13Z</time>
      </trkpt>
      <trkpt lat="48.71445" lon="2.0565">
        <ele>165</ele>
        <time>2015-07-12T15:02:17Z</time>
      </trkpt>
      <trkpt lat="48.71452" lon="2.05653">
        <ele>165</ele>
        <time>2015-07-12T15:02:22Z</time>
      </trkpt>
      <trkpt lat="48.71454" lon="2.05666">
        <ele>165</ele>
        <time>2015-07-12T15:03:06Z</time>
      </trkpt>
      <trkpt lat="48.7145" lon="2.05616">
        <ele>166</ele>
        <time>2015-07-12T15:04:32Z</time>
      </trkpt>
      <trkpt lat="48.71448" lon="2.05603">
        <ele>167</ele>
        <time>2015-07-12T15:04:39Z</time>
      </trkpt>
      <trkpt lat="48.71443" lon="2.05594">
        <ele>167</ele>
        <time>2015-07-12T15:04:44Z</time>
      </trkpt>
      <trkpt lat="48.71443" lon="2.05581">
        <ele>170</ele>
        <time>2015-07-12T15:04:54Z</time>
      </trkpt>
      <trkpt lat="48.71442" lon="2.05569">
        <ele>170</ele>
        <time>2015-07-12T15:05:18Z</time>
      </trkpt>
      <trkpt lat="48.7145" lon="2.0557">
        <ele>169</ele>
        <time>2015-07-12T15:05:45Z</time>
      </trkpt>
      <trkpt lat="48.71459" lon="2.05571">
        <ele>169</ele>
        <time>2015-07-12T15:05:54Z</time>
      </trkpt>
      <trkpt lat="48.71468" lon="2.05568">
        <ele>169</ele>
        <time>2015-07-12T15:06:04Z</time>
      </trkpt>
      <trkpt lat="48.71477" lon="2.05568">
        <ele>169</ele>
        <time>2015-07-12T15:06:11Z</time>
      </trkpt>
      <trkpt lat="48.71486" lon="2.05568">
        <ele>168</ele>
        <time>2015-07-12T15:06:16Z</time>
      </trkpt>
      <trkpt lat="48.71494" lon="2.05565">
        <ele>168</ele>
        <time>2015-07-12T15:06:27Z</time>
      </trkpt>
      <trkpt lat="48.71503" lon="2.0556">
        <ele>164</ele>
        <time>2015-07-12T15:06:36Z</time>
      </trkpt>
      <trkpt lat="48.71528" lon="2.0555">
        <ele>162</ele>
        <time>2015-07-12T15:06:49Z</time>
      </trkpt>
      <trkpt lat="48.71539" lon="2.05548">
        <ele>161</ele>
        <time>2015-07-12T15:06:54Z</time>
      </trkpt>
      <trkpt lat="48.71546" lon="2.05549">
        <ele>161</ele>
        <time>2015-07-12T15:06:58Z</time>
      </trkpt>
      <trkpt lat="48.71555" lon="2.05548">
        <ele>160</ele>
        <time>2015-07-12T15:07:04Z</time>
      </trkpt>
      <trkpt lat="48.71571" lon="2.05544">
        <ele>159</ele>
        <time>2015-07-12T15:07:19Z</time>
      </trkpt>
      <trkpt lat="48.71579" lon="2.05544">
        <ele>159</ele>
        <time>2015-07-12T15:07:25Z</time>
      </trkpt>
      <trkpt lat="48.71586" lon="2.05537">
        <ele>150</ele>
        <time>2015-07-12T15:07:35Z</time>
      </trkpt>
      <trkpt lat="48.71594" lon="2.05539">
        <ele>150</ele>
        <time>2015-07-12T15:07:46Z</time>
      </trkpt>
      <trkpt lat="48.71628" lon="2.05531">
        <ele>147</ele>
        <time>2015-07-12T15:08:08Z</time>
      </trkpt>
      <trkpt lat="48.71644" lon="2.0553">
        <ele>146</ele>
        <time>2015-07-12T15:08:22Z</time>
      </trkpt>
      <trkpt lat="48.7166" lon="2.05521">
        <ele>145</ele>
        <time>2015-07-12T15:08:35Z</time>
      </trkpt>
      <trkpt lat="48.71683" lon="2.05513">
        <ele>138</ele>
        <time>2015-07-12T15:08:51Z</time>
      </trkpt>
      <trkpt lat="48.71692" lon="2.05513">
        <ele>137</ele>
        <time>2015-07-12T15:09:03Z</time>
      </trkpt>
      <trkpt lat="48.717" lon="2.05512">
        <ele>136</ele>
        <time>2015-07-12T15:09:09Z</time>
      </trkpt>
      <trkpt lat="48.71708" lon="2.05509">
        <ele>136</ele>
        <time>2015-07-12T15:09:14Z</time>
      </trkpt>
      <trkpt lat="48.71715" lon="2.05504">
        <ele>135</ele>
        <time>2015-07-12T15:09:20Z</time>
      </trkpt>
      <trkpt lat="48.71722" lon="2.05502">
        <ele>135</ele>
        <time>2015-07-12T15:09:24Z</time>
      </trkpt>
      <trkpt lat="48.71739" lon="2.05502">
        <ele>134</ele>
        <time>2015-07-12T15:09:36Z</time>
      </trkpt>
      <trkpt lat="48.71748" lon="2.05501">
        <ele>133</ele>
        <time>2015-07-12T15:09:52Z</time>
      </trkpt>
      <trkpt lat="48.71756" lon="2.05496">
        <ele>136</ele>
        <time>2015-07-12T15:09:59Z</time>
      </trkpt>
      <trkpt lat="48.71776" lon="2.05472">
        <ele>142</ele>
        <time>2015-07-12T15:10:23Z</time>
      </trkpt>
      <trkpt lat="48.71776" lon="2.05459">
        <ele>143</ele>
        <time>2015-07-12T15:10:36Z</time>
      </trkpt>
      <trkpt lat="48.71781" lon="2.05449">
        <ele>144</ele>
        <time>2015-07-12T15:10:44Z</time>
      </trkpt>
      <trkpt lat="48.71788" lon="2.05441">
        <ele>145</ele>
        <time>2015-07-12T15:10:50Z</time>
      </trkpt>
      <trkpt lat="48.71792" lon="2.0543">
        <ele>145</ele>
        <time>2015-07-12T15:11:01Z</time>
      </trkpt>
      <trkpt lat="48.71799" lon="2.05426">
        <ele>146</ele>
        <time>2015-07-12T15:11:09Z</time>
      </trkpt>
      <trkpt lat="48.71804" lon="2.05415">
        <ele>151</ele>
        <time>2015-07-12T15:11:17Z</time>
      </trkpt>
      <trkpt lat="48.71813" lon="2.05414">
        <ele>152</ele>
        <time>2015-07-12T15:11:23Z</time>
      </trkpt>
      <trkpt lat="48.71822" lon="2.05412">
        <ele>153</ele>
        <time>2015-07-12T15:11:34Z</time>
      </trkpt>
      <trkpt lat="48.7183" lon="2.05411">
        <ele>153</ele>
        <time>2015-07-12T15:11:44Z</time>
      </trkpt>
      <trkpt lat="48.71836" lon="2.05401">
        <ele>156</ele>
        <time>2015-07-12T15:12:54Z</time>
      </trkpt>
      <trkpt lat="48.71844" lon="2.05379">
        <ele>157</ele>
        <time>2015-07-12T15:13:08Z</time>
      </trkpt>
      <trkpt lat="48.71844" lon="2.05366">
        <ele>158</ele>
        <time>2015-07-12T15:13:14Z</time>
      </trkpt>
      <trkpt lat="48.7184" lon="2.05354">
        <ele>159</ele>
        <time>2015-07-12T15:13:20Z</time>
      </trkpt>
      <trkpt lat="48.71841" lon="2.05342">
        <ele>160</ele>
        <time>2015-07-12T15:13:26Z</time>
      </trkpt>
      <trkpt lat="48.71841" lon="2.05329">
        <ele>161</ele>
        <time>2015-07-12T15:13:33Z</time>
      </trkpt>
      <trkpt lat="48.71836" lon="2.05319">
        <ele>161</ele>
        <time>2015-07-12T15:13:39Z</time>
      </trkpt>
      <trkpt lat="48.7183" lon="2.05309">
        <ele>160</ele>
        <time>2015-07-12T15:13:47Z</time>
      </trkpt>
      <trkpt lat="48.71827" lon="2.05298">
        <ele>160</ele>
        <time>2015-07-12T15:14:08Z</time>
      </trkpt>
      <trkpt lat="48.71821" lon="2.05288">
        <ele>160</ele>
        <time>2015-07-12T15:14:15Z</time>
      </trkpt>
      <trkpt lat="48.71813" lon="2.05251">
        <ele>162</ele>
        <time>2015-07-12T15:14:31Z</time>
      </trkpt>
      <trkpt lat="48.7182" lon="2.05244">
        <ele>163</ele>
        <time>2015-07-12T15:14:54Z</time>
      </trkpt>
      <trkpt lat="48.71844" lon="2.05239">
        <ele>164</ele>
        <time>2015-07-12T15:15:10Z</time>
      </trkpt>
      <trkpt lat="48.71851" lon="2.05241">
        <ele>164</ele>
        <time>2015-07-12T15:15:15Z</time>
      </trkpt>
      <trkpt lat="48.71867" lon="2.05252">
        <ele>163</ele>
        <time>2015-07-12T15:15:25Z</time>
      </trkpt>
      <trkpt lat="48.71884" lon="2.05256">
        <ele>162</ele>
        <time>2015-07-12T15:15:38Z</time>
      </trkpt>
      <trkpt lat="48.7189" lon="2.0526">
        <ele>162</ele>
        <time>2015-07-12T15:15:43Z</time>
      </trkpt>
      <trkpt lat="48.71915" lon="2.05262">
        <ele>161</ele>
        <time>2015-07-12T15:15:59Z</time>
      </trkpt>
      <trkpt lat="48.71923" lon="2.05261">
        <ele>162</ele>
        <time>2015-07-12T15:16:07Z</time>
      </trkpt>
      <trkpt lat="48.71931" lon="2.05261">
        <ele>162</ele>
        <time>2015-07-12T15:16:15Z</time>
      </trkpt>
      <trkpt lat="48.71938" lon="2.05253">
        <ele>162</ele>
        <time>2015-07-12T15:16:30Z</time>
      </trkpt>
      <trkpt lat="48.71943" lon="2.05243">
        <ele>163</ele>
        <time>2015-07-12T15:16:38Z</time>
      </trkpt>
      <trkpt lat="48.71956" lon="2.05228">
        <ele>164</ele>
        <time>2015-07-12T15:16:49Z</time>
      </trkpt>
      <trkpt lat="48.71982" lon="2.05183">
        <ele>165</ele>
        <time>2015-07-12T15:17:21Z</time>
      </trkpt>
      <trkpt lat="48.71985" lon="2.05171">
        <ele>166</ele>
        <time>2015-07-12T15:17:27Z</time>
      </trkpt>
      <trkpt lat="48.71998" lon="2.05154">
        <ele>166</ele>
        <time>2015-07-12T15:17:39Z</time>
      </trkpt>
      <trkpt lat="48.72004" lon="2.05145">
        <ele>166</ele>
        <time>2015-07-12T15:17:44Z</time>
      </trkpt>
      <trkpt lat="48.72008" lon="2.05133">
        <ele>166</ele>
        <time>2015-07-12T15:17:49Z</time>
      </trkpt>
      <trkpt lat="48.72014" lon="2.05124">
        <ele>166</ele>
        <time>2015-07-12T15:17:54Z</time>
      </trkpt>
      <trkpt lat="48.72023" lon="2.05103">
        <ele>165</ele>
        <time>2015-07-12T15:18:06Z</time>
      </trkpt>
      <trkpt lat="48.72025" lon="2.05092">
        <ele>165</ele>
        <time>2015-07-12T15:18:13Z</time>
      </trkpt>
      <trkpt lat="48.72028" lon="2.05081">
        <ele>164</ele>
        <time>2015-07-12T15:18:19Z</time>
      </trkpt>
      <trkpt lat="48.72043" lon="2.05049">
        <ele>164</ele>
        <time>2015-07-12T15:18:39Z</time>
      </trkpt>
      <trkpt lat="48.7205" lon="2.0504">
        <ele>164</ele>
        <time>2015-07-12T15:18:45Z</time>
      </trkpt>
      <trkpt lat="48.72053" lon="2.05028">
        <ele>164</ele>
        <time>2015-07-12T15:18:51Z</time>
      </trkpt>
      <trkpt lat="48.72064" lon="2.05008">
        <ele>164</ele>
        <time>2015-07-12T15:19:03Z</time>
      </trkpt>
      <trkpt lat="48.72069" lon="2.05001">
        <ele>164</ele>
        <time>2015-07-12T15:19:08Z</time>
      </trkpt>
      <trkpt lat="48.72074" lon="2.04991">
        <ele>164</ele>
        <time>2015-07-12T15:19:15Z</time>
      </trkpt>
      <trkpt lat="48.72077" lon="2.04979">
        <ele>163</ele>
        <time>2015-07-12T15:19:22Z</time>
      </trkpt>
      <trkpt lat="48.72082" lon="2.04969">
        <ele>163</ele>
        <time>2015-07-12T15:19:28Z</time>
      </trkpt>
      <trkpt lat="48.72085" lon="2.04958">
        <ele>163</ele>
        <time>2015-07-12T15:19:34Z</time>
      </trkpt>
      <trkpt lat="48.7209" lon="2.04948">
        <ele>163</ele>
        <time>2015-07-12T15:19:40Z</time>
      </trkpt>
      <trkpt lat="48.72096" lon="2.0494">
        <ele>163</ele>
        <time>2015-07-12T15:19:46Z</time>
      </trkpt>
      <trkpt lat="48.72102" lon="2.04929">
        <ele>163</ele>
        <time>2015-07-12T15:19:52Z</time>
      </trkpt>
      <trkpt lat="48.72105" lon="2.04917">
        <ele>163</ele>
        <time>2015-07-12T15:19:58Z</time>
      </trkpt>
      <trkpt lat="48.72104" lon="2.04904">
        <ele>161</ele>
        <time>2015-07-12T15:21:02Z</time>
      </trkpt>
      <trkpt lat="48.72105" lon="2.04893">
        <ele>160</ele>
        <time>2015-07-12T15:21:57Z</time>
      </trkpt>
      <trkpt lat="48.7211" lon="2.04881">
        <ele>160</ele>
        <time>2015-07-12T15:22:12Z</time>
      </trkpt>
      <trkpt lat="48.72116" lon="2.04846">
        <ele>159</ele>
        <time>2015-07-12T15:22:32Z</time>
      </trkpt>
      <trkpt lat="48.7212" lon="2.04836">
        <ele>159</ele>
        <time>2015-07-12T15:22:38Z</time>
      </trkpt>
      <trkpt lat="48.72126" lon="2.04812">
        <ele>155</ele>
        <time>2015-07-12T15:22:49Z</time>
      </trkpt>
      <trkpt lat="48.72126" lon="2.04773">
        <ele>153</ele>
        <time>2015-07-12T15:23:07Z</time>
      </trkpt>
      <trkpt lat="48.72143" lon="2.04714">
        <ele>150</ele>
        <time>2015-07-12T15:23:42Z</time>
      </trkpt>
      <trkpt lat="48.72143" lon="2.04702">
        <ele>150</ele>
        <time>2015-07-12T15:23:46Z</time>
      </trkpt>
      <trkpt lat="48.72145" lon="2.04687">
        <ele>149</ele>
        <time>2015-07-12T15:23:51Z</time>
      </trkpt>
      <trkpt lat="48.72145" lon="2.04675">
        <ele>149</ele>
        <time>2015-07-12T15:23:58Z</time>
      </trkpt>
      <trkpt lat="48.72144" lon="2.04662">
        <ele>150</ele>
        <time>2015-07-12T15:24:05Z</time>
      </trkpt>
      <trkpt lat="48.7215" lon="2.04652">
        <ele>149</ele>
        <time>2015-07-12T15:24:13Z</time>
      </trkpt>
      <trkpt lat="48.72158" lon="2.04649">
        <ele>149</ele>
        <time>2015-07-12T15:24:19Z</time>
      </trkpt>
      <trkpt lat="48.72165" lon="2.04644">
        <ele>149</ele>
        <time>2015-07-12T15:24:25Z</time>
      </trkpt>
      <trkpt lat="48.72173" lon="2.0464">
        <ele>140</ele>
        <time>2015-07-12T15:24:31Z</time>
      </trkpt>
      <trkpt lat="48.7218" lon="2.04635">
        <ele>140</ele>
        <time>2015-07-12T15:24:38Z</time>
      </trkpt>
      <trkpt lat="48.72187" lon="2.04626">
        <ele>140</ele>
        <time>2015-07-12T15:24:45Z</time>
      </trkpt>
      <trkpt lat="48.72195" lon="2.0462">
        <ele>139</ele>
        <time>2015-07-12T15:24:51Z</time>
      </trkpt>
      <trkpt lat="48.72203" lon="2.04616">
        <ele>138</ele>
        <time>2015-07-12T15:25:00Z</time>
      </trkpt>
      <trkpt lat="48.72214" lon="2.04597">
        <ele>137</ele>
        <time>2015-07-12T15:25:16Z</time>
      </trkpt>
      <trkpt lat="48.72215" lon="2.04583">
        <ele>138</ele>
        <time>2015-07-12T15:25:34Z</time>
      </trkpt>
      <trkpt lat="48.72213" lon="2.04571">
        <ele>138</ele>
        <time>2015-07-12T15:25:43Z</time>
      </trkpt>
      <trkpt lat="48.72211" lon="2.0456">
        <ele>138</ele>
        <time>2015-07-12T15:25:48Z</time>
      </trkpt>
      <trkpt lat="48.72206" lon="2.04549">
        <ele>139</ele>
        <time>2015-07-12T15:25:53Z</time>
      </trkpt>
      <trkpt lat="48.72202" lon="2.04537">
        <ele>139</ele>
        <time>2015-07-12T15:25:58Z</time>
      </trkpt>
      <trkpt lat="48.72193" lon="2.04517">
        <ele>141</ele>
        <time>2015-07-12T15:26:09Z</time>
      </trkpt>
      <trkpt lat="48.72189" lon="2.04505">
        <ele>141</ele>
        <time>2015-07-12T15:26:14Z</time>
      </trkpt>
      <trkpt lat="48.72187" lon="2.0448">
        <ele>145</ele>
        <time>2015-07-12T15:26:29Z</time>
      </trkpt>
      <trkpt lat="48.7219" lon="2.04453">
        <ele>146</ele>
        <time>2015-07-12T15:26:45Z</time>
      </trkpt>
      <trkpt lat="48.72194" lon="2.04442">
        <ele>147</ele>
        <time>2015-07-12T15:26:53Z</time>
      </trkpt>
      <trkpt lat="48.72193" lon="2.04429">
        <ele>148</ele>
        <time>2015-07-12T15:27:25Z</time>
      </trkpt>
      <trkpt lat="48.72192" lon="2.04417">
        <ele>149</ele>
        <time>2015-07-12T15:27:38Z</time>
      </trkpt>
      <trkpt lat="48.72198" lon="2.04408">
        <ele>155</ele>
        <time>2015-07-12T15:27:43Z</time>
      </trkpt>
      <trkpt lat="48.72203" lon="2.04397">
        <ele>155</ele>
        <time>2015-07-12T15:28:30Z</time>
      </trkpt>
      <trkpt lat="48.72204" lon="2.04387">
        <ele>155</ele>
        <time>2015-07-12T15:28:34Z</time>
      </trkpt>
      <trkpt lat="48.72213" lon="2.04342">
        <ele>157</ele>
        <time>2015-07-12T15:29:07Z</time>
      </trkpt>
      <trkpt lat="48.7222" lon="2.04333">
        <ele>161</ele>
        <time>2015-07-12T15:29:11Z</time>
      </trkpt>
      <trkpt lat="48.72217" lon="2.04322">
        <ele>161</ele>
        <time>2015-07-12T15:29:18Z</time>
      </trkpt>
      <trkpt lat="48.72224" lon="2.04315">
        <ele>161</ele>
        <time>2015-07-12T15:29:23Z</time>
      </trkpt>
      <trkpt lat="48.72227" lon="2.04303">
        <ele>161</ele>
        <time>2015-07-12T15:29:29Z</time>
      </trkpt>
      <trkpt lat="48.72226" lon="2.04278">
        <ele>162</ele>
        <time>2015-07-12T15:30:05Z</time>
      </trkpt>
      <trkpt lat="48.72231" lon="2.04267">
        <ele>162</ele>
        <time>2015-07-12T15:30:11Z</time>
      </trkpt>
      <trkpt lat="48.72236" lon="2.04257">
        <ele>162</ele>
        <time>2015-07-12T15:30:17Z</time>
      </trkpt>
      <trkpt lat="48.72243" lon="2.0425">
        <ele>162</ele>
        <time>2015-07-12T15:30:22Z</time>
      </trkpt>
      <trkpt lat="48.72254" lon="2.04233">
        <ele>157</ele>
        <time>2015-07-12T15:30:32Z</time>
      </trkpt>
      <trkpt lat="48.72257" lon="2.04222">
        <ele>157</ele>
        <time>2015-07-12T15:30:38Z</time>
      </trkpt>
      <trkpt lat="48.72269" lon="2.0419">
        <ele>157</ele>
        <time>2015-07-12T15:30:57Z</time>
      </trkpt>
      <trkpt lat="48.7228" lon="2.04172">
        <ele>157</ele>
        <time>2015-07-12T15:31:07Z</time>
      </trkpt>
      <trkpt lat="48.72286" lon="2.04164">
        <ele>161</ele>
        <time>2015-07-12T15:31:13Z</time>
      </trkpt>
      <trkpt lat="48.723" lon="2.04121">
        <ele>162</ele>
        <time>2015-07-12T15:31:43Z</time>
      </trkpt>
      <trkpt lat="48.723" lon="2.04108">
        <ele>162</ele>
        <time>2015-07-12T15:32:15Z</time>
      </trkpt>
      <trkpt lat="48.72305" lon="2.04097">
        <ele>163</ele>
        <time>2015-07-12T15:32:22Z</time>
      </trkpt>
      <trkpt lat="48.7231" lon="2.04088">
        <ele>163</ele>
        <time>2015-07-12T15:32:28Z</time>
      </trkpt>
      <trkpt lat="48.72313" lon="2.04078">
        <ele>166</ele>
        <time>2015-07-12T15:32:34Z</time>
      </trkpt>
      <trkpt lat="48.7232" lon="2.04069">
        <ele>166</ele>
        <time>2015-07-12T15:32:40Z</time>
      </trkpt>
      <trkpt lat="48.72334" lon="2.04036">
        <ele>162</ele>
        <time>2015-07-12T15:33:00Z</time>
      </trkpt>
      <trkpt lat="48.72338" lon="2.04024">
        <ele>163</ele>
        <time>2015-07-12T15:33:09Z</time>
      </trkpt>
      <trkpt lat="48.72348" lon="2.04004">
        <ele>164</ele>
        <time>2015-07-12T15:33:26Z</time>
      </trkpt>
      <trkpt lat="48.72359" lon="2.03956">
        <ele>167</ele>
        <time>2015-07-12T15:33:52Z</time>
      </trkpt>
      <trkpt lat="48.72365" lon="2.03947">
        <ele>167</ele>
        <time>2015-07-12T15:33:57Z</time>
      </trkpt>
      <trkpt lat="48.7237" lon="2.03936">
        <ele>167</ele>
        <time>2015-07-12T15:34:03Z</time>
      </trkpt>
      <trkpt lat="48.72378" lon="2.0393">
        <ele>167</ele>
        <time>2015-07-12T15:34:09Z</time>
      </trkpt>
      <trkpt lat="48.72382" lon="2.0392">
        <ele>167</ele>
        <time>2015-07-12T15:34:16Z</time>
      </trkpt>
      <trkpt lat="48.72389" lon="2.03912">
        <ele>167</ele>
        <time>2015-07-12T15:34:22Z</time>
      </trkpt>
      <trkpt lat="48.72398" lon="2.03893">
        <ele>167</ele>
        <time>2015-07-12T15:34:35Z</time>
      </trkpt>
      <trkpt lat="48.72402" lon="2.03882">
        <ele>167</ele>
        <time>2015-07-12T15:34:42Z</time>
      </trkpt>
      <trkpt lat="48.72406" lon="2.03872">
        <ele>167</ele>
        <time>2015-07-12T15:34:49Z</time>
      </trkpt>
      <trkpt lat="48.72413" lon="2.03847">
        <ele>166</ele>
        <time>2015-07-12T15:35:05Z</time>
      </trkpt>
      <trkpt lat="48.72423" lon="2.03827">
        <ele>162</ele>
        <time>2015-07-12T15:35:24Z</time>
      </trkpt>
      <trkpt lat="48.72429" lon="2.03818">
        <ele>159</ele>
        <time>2015-07-12T15:35:31Z</time>
      </trkpt>
      <trkpt lat="48.72434" lon="2.03807">
        <ele>157</ele>
        <time>2015-07-12T15:35:39Z</time>
      </trkpt>
      <trkpt lat="48.72442" lon="2.038">
        <ele>156</ele>
        <time>2015-07-12T15:35:49Z</time>
      </trkpt>
      <trkpt lat="48.7245" lon="2.038">
        <ele>155</ele>
        <time>2015-07-12T15:36:03Z</time>
      </trkpt>
      <trkpt lat="48.72464" lon="2.03812">
        <ele>154</ele>
        <time>2015-07-12T15:39:26Z</time>
      </trkpt>
      <trkpt lat="48.72473" lon="2.03817">
        <ele>153</ele>
        <time>2015-07-12T15:39:34Z</time>
      </trkpt>
      <trkpt lat="48.72481" lon="2.03817">
        <ele>152</ele>
        <time>2015-07-12T15:40:05Z</time>
      </trkpt>
      <trkpt lat="48.72502" lon="2.03796">
        <ele>139</ele>
        <time>2015-07-12T15:40:34Z</time>
      </trkpt>
      <trkpt lat="48.7251" lon="2.03797">
        <ele>139</ele>
        <time>2015-07-12T15:40:40Z</time>
      </trkpt>
      <trkpt lat="48.72519" lon="2.03801">
        <ele>138</ele>
        <time>2015-07-12T15:40:50Z</time>
      </trkpt>
      <trkpt lat="48.72526" lon="2.03807">
        <ele>138</ele>
        <time>2015-07-12T15:40:57Z</time>
      </trkpt>
      <trkpt lat="48.72535" lon="2.03804">
        <ele>137</ele>
        <time>2015-07-12T15:41:03Z</time>
      </trkpt>
      <trkpt lat="48.72539" lon="2.03792">
        <ele>136</ele>
        <time>2015-07-12T15:41:10Z</time>
      </trkpt>
      <trkpt lat="48.72546" lon="2.03788">
        <ele>135</ele>
        <time>2015-07-12T15:41:19Z</time>
      </trkpt>
      <trkpt lat="48.72561" lon="2.03794">
        <ele>133</ele>
        <time>2015-07-12T15:41:29Z</time>
      </trkpt>
      <trkpt lat="48.72569" lon="2.03794">
        <ele>132</ele>
        <time>2015-07-12T15:41:36Z</time>
      </trkpt>
      <trkpt lat="48.72577" lon="2.03798">
        <ele>132</ele>
        <time>2015-07-12T15:41:44Z</time>
      </trkpt>
      <trkpt lat="48.72587" lon="2.03818">
        <ele>122</ele>
        <time>2015-07-12T15:41:57Z</time>
      </trkpt>
      <trkpt lat="48.72596" lon="2.03818">
        <ele>121</ele>
        <time>2015-07-12T15:42:27Z</time>
      </trkpt>
      <trkpt lat="48.72604" lon="2.03824">
        <ele>121</ele>
        <time>2015-07-12T15:42:35Z</time>
      </trkpt>
      <trkpt lat="48.7261" lon="2.03833">
        <ele>120</ele>
        <time>2015-07-12T15:42:41Z</time>
      </trkpt>
      <trkpt lat="48.72614" lon="2.03843">
        <ele>119</ele>
        <time>2015-07-12T15:42:45Z</time>
      </trkpt>
      <trkpt lat="48.72638" lon="2.0388">
        <ele>115</ele>
        <time>2015-07-12T15:43:15Z</time>
      </trkpt>
      <trkpt lat="48.72645" lon="2.03889">
        <ele>115</ele>
        <time>2015-07-12T15:43:24Z</time>
      </trkpt>
      <trkpt lat="48.72647" lon="2.039">
        <ele>114</ele>
        <time>2015-07-12T15:44:44Z</time>
      </trkpt>
      <trkpt lat="48.72655" lon="2.03897">
        <ele>113</ele>
        <time>2015-07-12T15:44:58Z</time>
      </trkpt>
      <trkpt lat="48.72688" lon="2.03958">
        <ele>103</ele>
        <time>2015-07-12T15:46:44Z</time>
      </trkpt>
      <trkpt lat="48.7269" lon="2.0397">
        <ele>103</ele>
        <time>2015-07-12T15:46:52Z</time>
      </trkpt>
      <trkpt lat="48.7269" lon="2.03983">
        <ele>103</ele>
        <time>2015-07-12T15:46:58Z</time>
      </trkpt>
      <trkpt lat="48.7268" lon="2.04071">
        <ele>100</ele>
        <time>2015-07-12T15:47:45Z</time>
      </trkpt>
      <trkpt lat="48.72678" lon="2.04082">
        <ele>100</ele>
        <time>2015-07-12T15:47:51Z</time>
      </trkpt>
      <trkpt lat="48.72674" lon="2.04093">
        <ele>100</ele>
        <time>2015-07-12T15:47:57Z</time>
      </trkpt>
      <trkpt lat="48.72679" lon="2.04103">
        <ele>99</ele>
        <time>2015-07-12T15:48:04Z</time>
      </trkpt>
      <trkpt lat="48.72686" lon="2.04108">
        <ele>98</ele>
        <time>2015-07-12T15:48:11Z</time>
      </trkpt>
      <trkpt lat="48.72694" lon="2.04113">
        <ele>98</ele>
        <time>2015-07-12T15:48:17Z</time>
      </trkpt>
      <trkpt lat="48.72702" lon="2.04116">
        <ele>98</ele>
        <time>2015-07-12T15:48:23Z</time>
      </trkpt>
      <trkpt lat="48.72709" lon="2.04119">
        <ele>98</ele>
        <time>2015-07-12T15:48:28Z</time>
      </trkpt>
      <trkpt lat="48.72717" lon="2.04126">
        <ele>97</ele>
        <time>2015-07-12T15:48:33Z</time>
      </trkpt>
      <trkpt lat="48.72723" lon="2.04133">
        <ele>97</ele>
        <time>2015-07-12T15:48:38Z</time>
      </trkpt>
      <trkpt lat="48.7276" lon="2.04163">
        <ele>95</ele>
        <time>2015-07-12T15:49:15Z</time>
      </trkpt>
      <trkpt lat="48.72768" lon="2.04168">
        <ele>96</ele>
        <time>2015-07-12T15:49:24Z</time>
      </trkpt>
      <trkpt lat="48.72775" lon="2.04175">
        <ele>96</ele>
        <time>2015-07-12T15:49:31Z</time>
      </trkpt>
      <trkpt lat="48.7279" lon="2.04181">
        <ele>96</ele>
        <time>2015-07-12T15:49:44Z</time>
      </trkpt>
      <trkpt lat="48.72797" lon="2.04189">
        <ele>96</ele>
        <time>2015-07-12T15:49:54Z</time>
      </trkpt>
      <trkpt lat="48.72812" lon="2.04198">
        <ele>97</ele>
        <time>2015-07-12T15:50:08Z</time>
      </trkpt>
      <trkpt lat="48.72834" lon="2.0422">
        <ele>104</ele>
        <time>2015-07-12T15:50:31Z</time>
      </trkpt>
      <trkpt lat="48.72855" lon="2.04238">
        <ele>106</ele>
        <time>2015-07-12T15:50:52Z</time>
      </trkpt>
      <trkpt lat="48.72863" lon="2.04241">
        <ele>107</ele>
        <time>2015-07-12T15:50:59Z</time>
      </trkpt>
      <trkpt lat="48.72871" lon="2.04246">
        <ele>108</ele>
        <time>2015-07-12T15:51:05Z</time>
      </trkpt>
      <trkpt lat="48.72876" lon="2.04253">
        <ele>113</ele>
        <time>2015-07-12T15:51:10Z</time>
      </trkpt>
      <trkpt lat="48.72884" lon="2.0425">
        <ele>110</ele>
        <time>2015-07-12T15:54:09Z</time>
      </trkpt>
      <trkpt lat="48.72888" lon="2.04261">
        <ele>115</ele>
        <time>2015-07-12T15:54:29Z</time>
      </trkpt>
      <trkpt lat="48.72887" lon="2.04275">
        <ele>115</ele>
        <time>2015-07-12T15:54:34Z</time>
      </trkpt>
      <trkpt lat="48.72885" lon="2.04287">
        <ele>115</ele>
        <time>2015-07-12T15:54:39Z</time>
      </trkpt>
      <trkpt lat="48.72888" lon="2.04301">
        <ele>116</ele>
        <time>2015-07-12T15:54:44Z</time>
      </trkpt>
      <trkpt lat="48.72888" lon="2.04314">
        <ele>117</ele>
        <time>2015-07-12T15:54:50Z</time>
      </trkpt>
      <trkpt lat="48.72887" lon="2.04326">
        <ele>118</ele>
        <time>2015-07-12T15:54:55Z</time>
      </trkpt>
      <trkpt lat="48.72868" lon="2.04384">
        <ele>121</ele>
        <time>2015-07-12T15:55:28Z</time>
      </trkpt>
      <trkpt lat="48.72857" lon="2.04404">
        <ele>119</ele>
        <time>2015-07-12T15:55:40Z</time>
      </trkpt>
      <trkpt lat="48.72858" lon="2.04417">
        <ele>123</ele>
        <time>2015-07-12T15:55:49Z</time>
      </trkpt>
      <trkpt lat="48.72855" lon="2.04429">
        <ele>123</ele>
        <time>2015-07-12T15:55:57Z</time>
      </trkpt>
      <trkpt lat="48.72853" lon="2.04442">
        <ele>124</ele>
        <time>2015-07-12T15:56:09Z</time>
      </trkpt>
      <trkpt lat="48.72852" lon="2.04455">
        <ele>125</ele>
        <time>2015-07-12T15:56:15Z</time>
      </trkpt>
      <trkpt lat="48.72854" lon="2.04467">
        <ele>126</ele>
        <time>2015-07-12T15:56:21Z</time>
      </trkpt>
      <trkpt lat="48.72853" lon="2.04481">
        <ele>125</ele>
        <time>2015-07-12T15:56:28Z</time>
      </trkpt>
      <trkpt lat="48.72854" lon="2.04493">
        <ele>125</ele>
        <time>2015-07-12T15:56:36Z</time>
      </trkpt>
      <trkpt lat="48.72859" lon="2.04504">
        <ele>129</ele>
        <time>2015-07-12T15:56:42Z</time>
      </trkpt>
      <trkpt lat="48.72841" lon="2.04563">
        <ele>128</ele>
        <time>2015-07-12T15:58:18Z</time>
      </trkpt>
      <trkpt lat="48.72837" lon="2.04574">
        <ele>126</ele>
        <time>2015-07-12T15:58:23Z</time>
      </trkpt>
      <trkpt lat="48.72832" lon="2.04597">
        <ele>118</ele>
        <time>2015-07-12T15:58:35Z</time>
      </trkpt>
      <trkpt lat="48.7282" lon="2.04616">
        <ele>115</ele>
        <time>2015-07-12T15:58:47Z</time>
      </trkpt>
      <trkpt lat="48.72814" lon="2.04626">
        <ele>115</ele>
        <time>2015-07-12T15:58:54Z</time>
      </trkpt>
      <trkpt lat="48.72805" lon="2.04663">
        <ele>115</ele>
        <time>2015-07-12T15:59:18Z</time>
      </trkpt>
      <trkpt lat="48.72802" lon="2.04676">
        <ele>113</ele>
        <time>2015-07-12T15:59:25Z</time>
      </trkpt>
      <trkpt lat="48.72802" lon="2.04697">
        <ele>113</ele>
        <time>2015-07-12T15:59:36Z</time>
      </trkpt>
      <trkpt lat="48.72804" lon="2.04708">
        <ele>112</ele>
        <time>2015-07-12T15:59:41Z</time>
      </trkpt>
      <trkpt lat="48.72804" lon="2.04732">
        <ele>112</ele>
        <time>2015-07-12T15:59:53Z</time>
      </trkpt>
      <trkpt lat="48.72811" lon="2.04769">
        <ele>111</ele>
        <time>2015-07-12T16:00:12Z</time>
      </trkpt>
      <trkpt lat="48.72809" lon="2.04806">
        <ele>109</ele>
        <time>2015-07-12T16:00:29Z</time>
      </trkpt>
      <trkpt lat="48.72805" lon="2.04818">
        <ele>109</ele>
        <time>2015-07-12T16:00:35Z</time>
      </trkpt>
      <trkpt lat="48.72799" lon="2.04827">
        <ele>108</ele>
        <time>2015-07-12T16:00:41Z</time>
      </trkpt>
      <trkpt lat="48.72792" lon="2.04832">
        <ele>107</ele>
        <time>2015-07-12T16:00:48Z</time>
      </trkpt>
      <trkpt lat="48.72771" lon="2.04854">
        <ele>104</ele>
        <time>2015-07-12T16:01:07Z</time>
      </trkpt>
      <trkpt lat="48.72747" lon="2.04872">
        <ele>97</ele>
        <time>2015-07-12T16:01:25Z</time>
      </trkpt>
      <trkpt lat="48.72731" lon="2.0488">
        <ele>97</ele>
        <time>2015-07-12T16:01:39Z</time>
      </trkpt>
      <trkpt lat="48.7273" lon="2.04892">
        <ele>97</ele>
        <time>2015-07-12T16:01:46Z</time>
      </trkpt>
      <trkpt lat="48.72738" lon="2.04894">
        <ele>98</ele>
        <time>2015-07-12T16:01:53Z</time>
      </trkpt>
      <trkpt lat="48.72746" lon="2.04896">
        <ele>98</ele>
        <time>2015-07-12T16:02:00Z</time>
      </trkpt>
      <trkpt lat="48.72753" lon="2.04901">
        <ele>103</ele>
        <time>2015-07-12T16:02:10Z</time>
      </trkpt>
      <trkpt lat="48.72762" lon="2.04903">
        <ele>103</ele>
        <time>2015-07-12T16:02:17Z</time>
      </trkpt>
      <trkpt lat="48.72779" lon="2.04909">
        <ele>105</ele>
        <time>2015-07-12T16:02:31Z</time>
      </trkpt>
      <trkpt lat="48.72786" lon="2.04914">
        <ele>106</ele>
        <time>2015-07-12T16:02:36Z</time>
      </trkpt>
      <trkpt lat="48.72794" lon="2.04917">
        <ele>107</ele>
        <time>2015-07-12T16:02:41Z</time>
      </trkpt>
      <trkpt lat="48.72803" lon="2.04918">
        <ele>108</ele>
        <time>2015-07-12T16:02:47Z</time>
      </trkpt>
      <trkpt lat="48.7281" lon="2.04925">
        <ele>109</ele>
        <time>2015-07-12T16:02:54Z</time>
      </trkpt>
      <trkpt lat="48.72819" lon="2.04926">
        <ele>110</ele>
        <time>2015-07-12T16:03:02Z</time>
      </trkpt>
      <trkpt lat="48.72827" lon="2.0493">
        <ele>110</ele>
        <time>2015-07-12T16:03:07Z</time>
      </trkpt>
      <trkpt lat="48.72836" lon="2.04933">
        <ele>117</ele>
        <time>2015-07-12T16:03:14Z</time>
      </trkpt>
      <trkpt lat="48.72843" lon="2.04928">
        <ele>117</ele>
        <time>2015-07-12T16:03:22Z</time>
      </trkpt>
      <trkpt lat="48.72851" lon="2.04922">
        <ele>118</ele>
        <time>2015-07-12T16:03:33Z</time>
      </trkpt>
      <trkpt lat="48.72868" lon="2.04912">
        <ele>125</ele>
        <time>2015-07-12T16:03:49Z</time>
      </trkpt>
      <trkpt lat="48.72875" lon="2.04919">
        <ele>123</ele>
        <time>2015-07-12T16:03:59Z</time>
      </trkpt>
      <trkpt lat="48.72883" lon="2.04917">
        <ele>125</ele>
        <time>2015-07-12T16:04:12Z</time>
      </trkpt>
      <trkpt lat="48.72892" lon="2.04914">
        <ele>131</ele>
        <time>2015-07-12T16:04:21Z</time>
      </trkpt>
      <trkpt lat="48.72895" lon="2.04904">
        <ele>131</ele>
        <time>2015-07-12T16:04:27Z</time>
      </trkpt>
      <trkpt lat="48.72897" lon="2.04892">
        <ele>131</ele>
        <time>2015-07-12T16:04:37Z</time>
      </trkpt>
      <trkpt lat="48.72903" lon="2.04882">
        <ele>132</ele>
        <time>2015-07-12T16:04:47Z</time>
      </trkpt>
      <trkpt lat="48.72906" lon="2.04858">
        <ele>134</ele>
        <time>2015-07-12T16:05:08Z</time>
      </trkpt>
      <trkpt lat="48.72906" lon="2.04845">
        <ele>137</ele>
        <time>2015-07-12T16:05:16Z</time>
      </trkpt>
      <trkpt lat="48.72907" lon="2.04832">
        <ele>141</ele>
        <time>2015-07-12T16:05:25Z</time>
      </trkpt>
      <trkpt lat="48.7291" lon="2.0482">
        <ele>140</ele>
        <time>2015-07-12T16:05:34Z</time>
      </trkpt>
      <trkpt lat="48.72909" lon="2.04794">
        <ele>137</ele>
        <time>2015-07-12T16:05:53Z</time>
      </trkpt>
      <trkpt lat="48.72912" lon="2.04782">
        <ele>138</ele>
        <time>2015-07-12T16:06:02Z</time>
      </trkpt>
      <trkpt lat="48.72923" lon="2.04762">
        <ele>152</ele>
        <time>2015-07-12T16:06:23Z</time>
      </trkpt>
      <trkpt lat="48.7293" lon="2.04755">
        <ele>152</ele>
        <time>2015-07-12T16:06:32Z</time>
      </trkpt>
      <trkpt lat="48.72934" lon="2.04743">
        <ele>154</ele>
        <time>2015-07-12T16:06:39Z</time>
      </trkpt>
      <trkpt lat="48.72939" lon="2.04733">
        <ele>155</ele>
        <time>2015-07-12T16:06:54Z</time>
      </trkpt>
      <trkpt lat="48.72946" lon="2.04728">
        <ele>156</ele>
        <time>2015-07-12T16:07:01Z</time>
      </trkpt>
      <trkpt lat="48.72954" lon="2.04721">
        <ele>157</ele>
        <time>2015-07-12T16:07:09Z</time>
      </trkpt>
      <trkpt lat="48.72967" lon="2.04703">
        <ele>158</ele>
        <time>2015-07-12T16:07:29Z</time>
      </trkpt>
      <trkpt lat="48.72974" lon="2.04702">
        <ele>159</ele>
        <time>2015-07-12T16:07:34Z</time>
      </trkpt>
      <trkpt lat="48.72984" lon="2.047">
        <ele>159</ele>
        <time>2015-07-12T16:07:39Z</time>
      </trkpt>
      <trkpt lat="48.72999" lon="2.04691">
        <ele>160</ele>
        <time>2015-07-12T16:07:49Z</time>
      </trkpt>
      <trkpt lat="48.73023" lon="2.04683">
        <ele>163</ele>
        <time>2015-07-12T16:08:12Z</time>
      </trkpt>
      <trkpt lat="48.73039" lon="2.04674">
        <ele>163</ele>
        <time>2015-07-12T16:08:26Z</time>
      </trkpt>
      <trkpt lat="48.73046" lon="2.04667">
        <ele>163</ele>
        <time>2015-07-12T16:08:35Z</time>
      </trkpt>
      <trkpt lat="48.73054" lon="2.04665">
        <ele>164</ele>
        <time>2015-07-12T16:08:43Z</time>
      </trkpt>
      <trkpt lat="48.7308" lon="2.04655">
        <ele>164</ele>
        <time>2015-07-12T16:09:06Z</time>
      </trkpt>
      <trkpt lat="48.73094" lon="2.04643">
        <ele>164</ele>
        <time>2015-07-12T16:09:20Z</time>
      </trkpt>
      <trkpt lat="48.73102" lon="2.04637">
        <ele>164</ele>
        <time>2015-07-12T16:09:27Z</time>
      </trkpt>
      <trkpt lat="48.73118" lon="2.04633">
        <ele>165</ele>
        <time>2015-07-12T16:09:41Z</time>
      </trkpt>
      <trkpt lat="48.73127" lon="2.04629">
        <ele>165</ele>
        <time>2015-07-12T16:09:49Z</time>
      </trkpt>
      <trkpt lat="48.73134" lon="2.04624">
        <ele>165</ele>
        <time>2015-07-12T16:09:55Z</time>
      </trkpt>
      <trkpt lat="48.73149" lon="2.04621">
        <ele>165</ele>
        <time>2015-07-12T16:10:04Z</time>
      </trkpt>
      <trkpt lat="48.73163" lon="2.04608">
        <ele>165</ele>
        <time>2015-07-12T16:10:14Z</time>
      </trkpt>
      <trkpt lat="48.73171" lon="2.04604">
        <ele>166</ele>
        <time>2015-07-12T16:10:20Z</time>
      </trkpt>
      <trkpt lat="48.73179" lon="2.046">
        <ele>166</ele>
        <time>2015-07-12T16:10:26Z</time>
      </trkpt>
      <trkpt lat="48.73186" lon="2.04593">
        <ele>166</ele>
        <time>2015-07-12T16:10:32Z</time>
      </trkpt>
      <trkpt lat="48.73193" lon="2.04589">
        <ele>166</ele>
        <time>2015-07-12T16:10:37Z</time>
      </trkpt>
      <trkpt lat="48.73202" lon="2.04594">
        <ele>166</ele>
        <time>2015-07-12T16:10:42Z</time>
      </trkpt>
      <trkpt lat="48.73208" lon="2.04585">
        <ele>166</ele>
        <time>2015-07-12T16:10:48Z</time>
      </trkpt>
      <trkpt lat="48.73216" lon="2.0458">
        <ele>166</ele>
        <time>2015-07-12T16:10:55Z</time>
      </trkpt>
      <trkpt lat="48.7323" lon="2.0457">
        <ele>165</ele>
        <time>2015-07-12T16:11:08Z</time>
      </trkpt>
      <trkpt lat="48.73234" lon="2.04558">
        <ele>165</ele>
        <time>2015-07-12T16:11:14Z</time>
      </trkpt>
      <trkpt lat="48.73241" lon="2.04554">
        <ele>165</ele>
        <time>2015-07-12T16:11:21Z</time>
      </trkpt>
      <trkpt lat="48.73247" lon="2.04548">
        <ele>165</ele>
        <time>2015-07-12T16:11:27Z</time>
      </trkpt>
      <trkpt lat="48.73263" lon="2.04541">
        <ele>165</ele>
        <time>2015-07-12T16:11:39Z</time>
      </trkpt>
      <trkpt lat="48.73271" lon="2.04536">
        <ele>165</ele>
        <time>2015-07-12T16:11:44Z</time>
      </trkpt>
      <trkpt lat="48.73278" lon="2.0453">
        <ele>165</ele>
        <time>2015-07-12T16:11:49Z</time>
      </trkpt>
      <trkpt lat="48.73284" lon="2.04523">
        <ele>165</ele>
        <time>2015-07-12T16:11:54Z</time>
      </trkpt>
      <trkpt lat="48.73291" lon="2.04516">
        <ele>165</ele>
        <time>2015-07-12T16:12:00Z</time>
      </trkpt>
      <trkpt lat="48.73298" lon="2.04513">
        <ele>165</ele>
        <time>2015-07-12T16:12:06Z</time>
      </trkpt>
      <trkpt lat="48.73305" lon="2.04508">
        <ele>165</ele>
        <time>2015-07-12T16:12:13Z</time>
      </trkpt>
      <trkpt lat="48.73314" lon="2.04504">
        <ele>165</ele>
        <time>2015-07-12T16:12:19Z</time>
      </trkpt>
      <trkpt lat="48.7332" lon="2.04496">
        <ele>163</ele>
        <time>2015-07-12T16:12:25Z</time>
      </trkpt>
      <trkpt lat="48.73327" lon="2.04491">
        <ele>163</ele>
        <time>2015-07-12T16:12:31Z</time>
      </trkpt>
      <trkpt lat="48.73334" lon="2.04484">
        <ele>165</ele>
        <time>2015-07-12T16:12:37Z</time>
      </trkpt>
      <trkpt lat="48.73341" lon="2.0448">
        <ele>165</ele>
        <time>2015-07-12T16:12:42Z</time>
      </trkpt>
      <trkpt lat="48.73348" lon="2.04479">
        <ele>165</ele>
        <time>2015-07-12T16:12:46Z</time>
      </trkpt>
      <trkpt lat="48.73356" lon="2.04477">
        <ele>166</ele>
        <time>2015-07-12T16:12:51Z</time>
      </trkpt>
      <trkpt lat="48.73365" lon="2.04478">
        <ele>166</ele>
        <time>2015-07-12T16:12:56Z</time>
      </trkpt>
      <trkpt lat="48.7338" lon="2.04471">
        <ele>167</ele>
        <time>2015-07-12T16:13:07Z</time>
      </trkpt>
      <trkpt lat="48.73387" lon="2.04465">
        <ele>167</ele>
        <time>2015-07-12T16:13:16Z</time>
      </trkpt>
      <trkpt lat="48.73413" lon="2.04462">
        <ele>168</ele>
        <time>2015-07-12T16:13:34Z</time>
      </trkpt>
      <trkpt lat="48.73426" lon="2.04449">
        <ele>170</ele>
        <time>2015-07-12T16:13:46Z</time>
      </trkpt>
      <trkpt lat="48.73434" lon="2.04444">
        <ele>170</ele>
        <time>2015-07-12T16:13:51Z</time>
      </trkpt>
      <trkpt lat="48.73442" lon="2.04441">
        <ele>170</ele>
        <time>2015-07-12T16:13:56Z</time>
      </trkpt>
      <trkpt lat="48.7345" lon="2.04444">
        <ele>170</ele>
        <time>2015-07-12T16:14:01Z</time>
      </trkpt>
      <trkpt lat="48.73458" lon="2.04442">
        <ele>170</ele>
        <time>2015-07-12T16:14:06Z</time>
      </trkpt>
      <trkpt lat="48.73465" lon="2.04435">
        <ele>170</ele>
        <time>2015-07-12T16:16:09Z</time>
      </trkpt>
      <trkpt lat="48.73473" lon="2.04429">
        <ele>170</ele>
        <time>2015-07-12T16:16:14Z</time>
      </trkpt>
      <trkpt lat="48.73498" lon="2.04419">
        <ele>170</ele>
        <time>2015-07-12T16:16:36Z</time>
      </trkpt>
      <trkpt lat="48.7352" lon="2.04406">
        <ele>169</ele>
        <time>2015-07-12T16:16:56Z</time>
      </trkpt>
      <trkpt lat="48.73528" lon="2.04405">
        <ele>168</ele>
        <time>2015-07-12T16:17:02Z</time>
      </trkpt>
      <trkpt lat="48.73535" lon="2.04403">
        <ele>168</ele>
        <time>2015-07-12T16:17:07Z</time>
      </trkpt>
      <trkpt lat="48.73542" lon="2.04399">
        <ele>168</ele>
        <time>2015-07-12T16:17:12Z</time>
      </trkpt>
      <trkpt lat="48.7355" lon="2.04396">
        <ele>168</ele>
        <time>2015-07-12T16:17:18Z</time>
      </trkpt>
      <trkpt lat="48.73558" lon="2.04395">
        <ele>167</ele>
        <time>2015-07-12T16:17:24Z</time>
      </trkpt>
      <trkpt lat="48.73566" lon="2.04392">
        <ele>167</ele>
        <time>2015-07-12T16:17:30Z</time>
      </trkpt>
      <trkpt lat="48.73574" lon="2.04391">
        <ele>167</ele>
        <time>2015-07-12T16:17:34Z</time>
      </trkpt>
      <trkpt lat="48.7359" lon="2.04387">
        <ele>165</ele>
        <time>2015-07-12T16:17:46Z</time>
      </trkpt>
      <trkpt lat="48.73599" lon="2.04387">
        <ele>165</ele>
        <time>2015-07-12T16:17:52Z</time>
      </trkpt>
      <trkpt lat="48.73615" lon="2.0438">
        <ele>165</ele>
        <time>2015-07-12T16:18:05Z</time>
      </trkpt>
      <trkpt lat="48.73623" lon="2.04378">
        <ele>165</ele>
        <time>2015-07-12T16:18:11Z</time>
      </trkpt>
      <trkpt lat="48.7363" lon="2.04378">
        <ele>165</ele>
        <time>2015-07-12T16:18:17Z</time>
      </trkpt>
      <trkpt lat="48.73638" lon="2.04376">
        <ele>164</ele>
        <time>2015-07-12T16:18:23Z</time>
      </trkpt>
      <trkpt lat="48.73647" lon="2.04375">
        <ele>164</ele>
        <time>2015-07-12T16:18:30Z</time>
      </trkpt>
      <trkpt lat="48.73663" lon="2.0437">
        <ele>164</ele>
        <time>2015-07-12T16:18:43Z</time>
      </trkpt>
      <trkpt lat="48.73671" lon="2.04368">
        <ele>163</ele>
        <time>2015-07-12T16:18:50Z</time>
      </trkpt>
      <trkpt lat="48.7368" lon="2.04369">
        <ele>163</ele>
        <time>2015-07-12T16:18:58Z</time>
      </trkpt>
      <trkpt lat="48.73689" lon="2.04368">
        <ele>163</ele>
        <time>2015-07-12T16:19:04Z</time>
      </trkpt>
      <trkpt lat="48.73706" lon="2.04362">
        <ele>163</ele>
        <time>2015-07-12T16:19:16Z</time>
      </trkpt>
      <trkpt lat="48.73713" lon="2.0436">
        <ele>163</ele>
        <time>2015-07-12T16:19:21Z</time>
      </trkpt>
      <trkpt lat="48.7373" lon="2.04353">
        <ele>163</ele>
        <time>2015-07-12T16:19:43Z</time>
      </trkpt>
      <trkpt lat="48.73738" lon="2.04356">
        <ele>163</ele>
        <time>2015-07-12T16:21:15Z</time>
      </trkpt>
      <trkpt lat="48.73755" lon="2.04353">
        <ele>164</ele>
        <time>2015-07-12T16:21:28Z</time>
      </trkpt>
      <trkpt lat="48.73805" lon="2.0434">
        <ele>163</ele>
        <time>2015-07-12T16:22:02Z</time>
      </trkpt>
      <trkpt lat="48.7382" lon="2.04333">
        <ele>163</ele>
        <time>2015-07-12T16:22:14Z</time>
      </trkpt>
      <trkpt lat="48.73837" lon="2.04331">
        <ele>163</ele>
        <time>2015-07-12T16:22:26Z</time>
      </trkpt>
      <trkpt lat="48.73845" lon="2.04328">
        <ele>163</ele>
        <time>2015-07-12T16:22:32Z</time>
      </trkpt>
      <trkpt lat="48.73878" lon="2.04323">
        <ele>164</ele>
        <time>2015-07-12T16:22:58Z</time>
      </trkpt>
      <trkpt lat="48.73887" lon="2.04323">
        <ele>164</ele>
        <time>2015-07-12T16:23:04Z</time>
      </trkpt>
      <trkpt lat="48.73903" lon="2.04321">
        <ele>164</ele>
        <time>2015-07-12T16:23:13Z</time>
      </trkpt>
      <trkpt lat="48.7391" lon="2.04316">
        <ele>164</ele>
        <time>2015-07-12T16:23:19Z</time>
      </trkpt>
      <trkpt lat="48.73918" lon="2.04315">
        <ele>164</ele>
        <time>2015-07-12T16:23:26Z</time>
      </trkpt>
      <trkpt lat="48.73927" lon="2.04313">
        <ele>164</ele>
        <time>2015-07-12T16:23:33Z</time>
      </trkpt>
      <trkpt lat="48.73935" lon="2.04313">
        <ele>164</ele>
        <time>2015-07-12T16:23:38Z</time>
      </trkpt>
      <trkpt lat="48.73999" lon="2.04291">
        <ele>164</ele>
        <time>2015-07-12T16:24:25Z</time>
      </trkpt>
      <trkpt lat="48.74021" lon="2.04275">
        <ele>164</ele>
        <time>2015-07-12T16:24:41Z</time>
      </trkpt>
      <trkpt lat="48.74037" lon="2.04267">
        <ele>164</ele>
        <time>2015-07-12T16:24:54Z</time>
      </trkpt>
      <trkpt lat="48.74045" lon="2.04264">
        <ele>164</ele>
        <time>2015-07-12T16:25:00Z</time>
      </trkpt>
      <trkpt lat="48.74054" lon="2.04266">
        <ele>164</ele>
        <time>2015-07-12T16:25:05Z</time>
      </trkpt>
      <trkpt lat="48.74061" lon="2.04265">
        <ele>164</ele>
        <time>2015-07-12T16:25:10Z</time>
      </trkpt>
      <trkpt lat="48.74102" lon="2.04272">
        <ele>163</ele>
        <time>2015-07-12T16:25:41Z</time>
      </trkpt>
      <trkpt lat="48.74111" lon="2.04276">
        <ele>163</ele>
        <time>2015-07-12T16:25:46Z</time>
      </trkpt>
      <trkpt lat="48.74118" lon="2.04282">
        <ele>163</ele>
        <time>2015-07-12T16:25:52Z</time>
      </trkpt>
      <trkpt lat="48.74126" lon="2.04286">
        <ele>162</ele>
        <time>2015-07-12T16:25:58Z</time>
      </trkpt>
      <trkpt lat="48.74133" lon="2.0429">
        <ele>162</ele>
        <time>2015-07-12T16:26:04Z</time>
      </trkpt>
      <trkpt lat="48.74161" lon="2.04316">
        <ele>162</ele>
        <time>2015-07-12T16:26:28Z</time>
      </trkpt>
      <trkpt lat="48.74168" lon="2.04323">
        <ele>162</ele>
        <time>2015-07-12T16:26:35Z</time>
      </trkpt>
      <trkpt lat="48.74176" lon="2.04328">
        <ele>162</ele>
        <time>2015-07-12T16:26:42Z</time>
      </trkpt>
      <trkpt lat="48.74184" lon="2.04332">
        <ele>162</ele>
        <time>2015-07-12T16:26:48Z</time>
      </trkpt>
      <trkpt lat="48.7419" lon="2.04339">
        <ele>162</ele>
        <time>2015-07-12T16:26:54Z</time>
      </trkpt>
      <trkpt lat="48.74197" lon="2.04345">
        <ele>162</ele>
        <time>2015-07-12T16:27:02Z</time>
      </trkpt>
      <trkpt lat="48.74216" lon="2.04368">
        <ele>162</ele>
        <time>2015-07-12T16:27:18Z</time>
      </trkpt>
      <trkpt lat="48.74224" lon="2.04375">
        <ele>162</ele>
        <time>2015-07-12T16:27:24Z</time>
      </trkpt>
      <trkpt lat="48.74231" lon="2.04382">
        <ele>162</ele>
        <time>2015-07-12T16:27:29Z</time>
      </trkpt>
      <trkpt lat="48.74239" lon="2.04388">
        <ele>162</ele>
        <time>2015-07-12T16:27:35Z</time>
      </trkpt>
      <trkpt lat="48.74248" lon="2.04391">
        <ele>162</ele>
        <time>2015-07-12T16:27:42Z</time>
      </trkpt>
      <trkpt lat="48.7426" lon="2.04404">
        <ele>163</ele>
        <time>2015-07-12T16:27:52Z</time>
      </trkpt>
      <trkpt lat="48.74267" lon="2.04409">
        <ele>163</ele>
        <time>2015-07-12T16:27:58Z</time>
      </trkpt>
      <trkpt lat="48.74273" lon="2.04416">
        <ele>163</ele>
        <time>2015-07-12T16:28:04Z</time>
      </trkpt>
      <trkpt lat="48.7428" lon="2.04421">
        <ele>163</ele>
        <time>2015-07-12T16:28:10Z</time>
      </trkpt>
      <trkpt lat="48.74288" lon="2.04423">
        <ele>163</ele>
        <time>2015-07-12T16:28:15Z</time>
      </trkpt>
      <trkpt lat="48.74303" lon="2.04433">
        <ele>164</ele>
        <time>2015-07-12T16:28:27Z</time>
      </trkpt>
      <trkpt lat="48.74309" lon="2.04442">
        <ele>164</ele>
        <time>2015-07-12T16:28:33Z</time>
      </trkpt>
      <trkpt lat="48.74316" lon="2.04449">
        <ele>164</ele>
        <time>2015-07-12T16:28:39Z</time>
      </trkpt>
      <trkpt lat="48.74325" lon="2.04471">
        <ele>163</ele>
        <time>2015-07-12T16:28:56Z</time>
      </trkpt>
      <trkpt lat="48.7433" lon="2.04479">
        <ele>163</ele>
        <time>2015-07-12T16:29:01Z</time>
      </trkpt>
      <trkpt lat="48.74338" lon="2.04501">
        <ele>163</ele>
        <time>2015-07-12T16:29:11Z</time>
      </trkpt>
      <trkpt lat="48.74344" lon="2.04511">
        <ele>163</ele>
        <time>2015-07-12T16:29:17Z</time>
      </trkpt>
      <trkpt lat="48.74361" lon="2.04554">
        <ele>162</ele>
        <time>2015-07-12T16:29:40Z</time>
      </trkpt>
      <trkpt lat="48.74386" lon="2.04603">
        <ele>161</ele>
        <time>2015-07-12T16:30:12Z</time>
      </trkpt>
      <trkpt lat="48.7439" lon="2.04614">
        <ele>161</ele>
        <time>2015-07-12T16:30:17Z</time>
      </trkpt>
      <trkpt lat="48.744" lon="2.04634">
        <ele>161</ele>
        <time>2015-07-12T16:30:28Z</time>
      </trkpt>
      <trkpt lat="48.74408" lon="2.04657">
        <ele>161</ele>
        <time>2015-07-12T16:30:39Z</time>
      </trkpt>
      <trkpt lat="48.74411" lon="2.04669">
        <ele>161</ele>
        <time>2015-07-12T16:30:48Z</time>
      </trkpt>
      <trkpt lat="48.74414" lon="2.04681">
        <ele>162</ele>
        <time>2015-07-12T16:30:56Z</time>
      </trkpt>
      <trkpt lat="48.74434" lon="2.04719">
        <ele>160</ele>
        <time>2015-07-12T16:31:17Z</time>
      </trkpt>
      <trkpt lat="48.74443" lon="2.04741">
        <ele>160</ele>
        <time>2015-07-12T16:31:28Z</time>
      </trkpt>
      <trkpt lat="48.74444" lon="2.04752">
        <ele>160</ele>
        <time>2015-07-12T16:31:33Z</time>
      </trkpt>
      <trkpt lat="48.74447" lon="2.04764">
        <ele>160</ele>
        <time>2015-07-12T16:31:39Z</time>
      </trkpt>
      <trkpt lat="48.74451" lon="2.04775">
        <ele>160</ele>
        <time>2015-07-12T16:31:44Z</time>
      </trkpt>
      <trkpt lat="48.74464" lon="2.04793">
        <ele>160</ele>
        <time>2015-07-12T16:31:58Z</time>
      </trkpt>
      <trkpt lat="48.74471" lon="2.04815">
        <ele>160</ele>
        <time>2015-07-12T16:32:08Z</time>
      </trkpt>
      <trkpt lat="48.74476" lon="2.04825">
        <ele>160</ele>
        <time>2015-07-12T16:32:13Z</time>
      </trkpt>
      <trkpt lat="48.74479" lon="2.04838">
        <ele>160</ele>
        <time>2015-07-12T16:32:19Z</time>
      </trkpt>
      <trkpt lat="48.74496" lon="2.04881">
        <ele>160</ele>
        <time>2015-07-12T16:32:43Z</time>
      </trkpt>
      <trkpt lat="48.74558" lon="2.04969">
        <ele>160</ele>
        <time>2015-07-12T16:33:45Z</time>
      </trkpt>
      <trkpt lat="48.74565" lon="2.04976">
        <ele>160</ele>
        <time>2015-07-12T16:33:51Z</time>
      </trkpt>
      <trkpt lat="48.7459" lon="2.05009">
        <ele>158</ele>
        <time>2015-07-12T16:34:15Z</time>
      </trkpt>
      <trkpt lat="48.74591" lon="2.05021">
        <ele>157</ele>
        <time>2015-07-12T16:34:21Z</time>
      </trkpt>
      <trkpt lat="48.74616" lon="2.05058">
        <ele>156</ele>
        <time>2015-07-12T16:34:44Z</time>
      </trkpt>
      <trkpt lat="48.74623" lon="2.05064">
        <ele>156</ele>
        <time>2015-07-12T16:34:50Z</time>
      </trkpt>
      <trkpt lat="48.74652" lon="2.05096">
        <ele>155</ele>
        <time>2015-07-12T16:35:13Z</time>
      </trkpt>
      <trkpt lat="48.7466" lon="2.05099">
        <ele>155</ele>
        <time>2015-07-12T16:35:19Z</time>
      </trkpt>
      <trkpt lat="48.74669" lon="2.05102">
        <ele>151</ele>
        <time>2015-07-12T16:35:27Z</time>
      </trkpt>
      <trkpt lat="48.74678" lon="2.05101">
        <ele>150</ele>
        <time>2015-07-12T16:35:35Z</time>
      </trkpt>
      <trkpt lat="48.74686" lon="2.05098">
        <ele>150</ele>
        <time>2015-07-12T16:35:40Z</time>
      </trkpt>
      <trkpt lat="48.74694" lon="2.05095">
        <ele>149</ele>
        <time>2015-07-12T16:35:47Z</time>
      </trkpt>
      <trkpt lat="48.74701" lon="2.05089">
        <ele>148</ele>
        <time>2015-07-12T16:35:52Z</time>
      </trkpt>
      <trkpt lat="48.74708" lon="2.05087">
        <ele>147</ele>
        <time>2015-07-12T16:35:58Z</time>
      </trkpt>
      <trkpt lat="48.74724" lon="2.05087">
        <ele>145</ele>
        <time>2015-07-12T16:36:09Z</time>
      </trkpt>
      <trkpt lat="48.74732" lon="2.05087">
        <ele>143</ele>
        <time>2015-07-12T16:36:14Z</time>
      </trkpt>
      <trkpt lat="48.7474" lon="2.0509">
        <ele>142</ele>
        <time>2015-07-12T16:36:20Z</time>
      </trkpt>
      <trkpt lat="48.74748" lon="2.0509">
        <ele>140</ele>
        <time>2015-07-12T16:36:26Z</time>
      </trkpt>
      <trkpt lat="48.74757" lon="2.05088">
        <ele>137</ele>
        <time>2015-07-12T16:36:33Z</time>
      </trkpt>
      <trkpt lat="48.74764" lon="2.05082">
        <ele>136</ele>
        <time>2015-07-12T16:36:38Z</time>
      </trkpt>
      <trkpt lat="48.74797" lon="2.05027">
        <ele>132</ele>
        <time>2015-07-12T16:37:13Z</time>
      </trkpt>
      <trkpt lat="48.74802" lon="2.05016">
        <ele>132</ele>
        <time>2015-07-12T16:37:19Z</time>
      </trkpt>
      <trkpt lat="48.74805" lon="2.05005">
        <ele>132</ele>
        <time>2015-07-12T16:37:24Z</time>
      </trkpt>
      <trkpt lat="48.74834" lon="2.04946">
        <ele>134</ele>
        <time>2015-07-12T16:37:58Z</time>
      </trkpt>
      <trkpt lat="48.74847" lon="2.04928">
        <ele>134</ele>
        <time>2015-07-12T16:38:11Z</time>
      </trkpt>
      <trkpt lat="48.7485" lon="2.04918">
        <ele>134</ele>
        <time>2015-07-12T16:38:17Z</time>
      </trkpt>
      <trkpt lat="48.74857" lon="2.04911">
        <ele>137</ele>
        <time>2015-07-12T16:38:23Z</time>
      </trkpt>
      <trkpt lat="48.74864" lon="2.04906">
        <ele>139</ele>
        <time>2015-07-12T16:38:29Z</time>
      </trkpt>
      <trkpt lat="48.74872" lon="2.04906">
        <ele>139</ele>
        <time>2015-07-12T16:38:34Z</time>
      </trkpt>
      <trkpt lat="48.74879" lon="2.04911">
        <ele>140</ele>
        <time>2015-07-12T16:38:40Z</time>
      </trkpt>
      <trkpt lat="48.74886" lon="2.0491">
        <ele>141</ele>
        <time>2015-07-12T16:38:44Z</time>
      </trkpt>
      <trkpt lat="48.74894" lon="2.04914">
        <ele>142</ele>
        <time>2015-07-12T16:38:52Z</time>
      </trkpt>
      <trkpt lat="48.74902" lon="2.0492">
        <ele>140</ele>
        <time>2015-07-12T16:38:58Z</time>
      </trkpt>
      <trkpt lat="48.74921" lon="2.04941">
        <ele>147</ele>
        <time>2015-07-12T16:39:11Z</time>
      </trkpt>
      <trkpt lat="48.74955" lon="2.05012">
        <ele>145</ele>
        <time>2015-07-12T16:40:02Z</time>
      </trkpt>
      <trkpt lat="48.74958" lon="2.05023">
        <ele>145</ele>
        <time>2015-07-12T16:40:08Z</time>
      </trkpt>
      <trkpt lat="48.74962" lon="2.05033">
        <ele>145</ele>
        <time>2015-07-12T16:40:15Z</time>
      </trkpt>
      <trkpt lat="48.74971" lon="2.05069">
        <ele>145</ele>
        <time>2015-07-12T16:40:34Z</time>
      </trkpt>
      <trkpt lat="48.74975" lon="2.0508">
        <ele>146</ele>
        <time>2015-07-12T16:40:42Z</time>
      </trkpt>
      <trkpt lat="48.74982" lon="2.05086">
        <ele>145</ele>
        <time>2015-07-12T16:40:48Z</time>
      </trkpt>
      <trkpt lat="48.74989" lon="2.05091">
        <ele>146</ele>
        <time>2015-07-12T16:40:53Z</time>
      </trkpt>
      <trkpt lat="48.74998" lon="2.05095">
        <ele>147</ele>
        <time>2015-07-12T16:41:00Z</time>
      </trkpt>
      <trkpt lat="48.75004" lon="2.05101">
        <ele>152</ele>
        <time>2015-07-12T16:41:05Z</time>
      </trkpt>
      <trkpt lat="48.75011" lon="2.05105">
        <ele>152</ele>
        <time>2015-07-12T16:41:11Z</time>
      </trkpt>
      <trkpt lat="48.75016" lon="2.05115">
        <ele>152</ele>
        <time>2015-07-12T16:41:17Z</time>
      </trkpt>
      <trkpt lat="48.75023" lon="2.05122">
        <ele>153</ele>
        <time>2015-07-12T16:41:23Z</time>
      </trkpt>
      <trkpt lat="48.75031" lon="2.05126">
        <ele>153</ele>
        <time>2015-07-12T16:41:31Z</time>
      </trkpt>
      <trkpt lat="48.75038" lon="2.05124">
        <ele>154</ele>
        <time>2015-07-12T16:41:42Z</time>
      </trkpt>
      <trkpt lat="48.75046" lon="2.0513">
        <ele>154</ele>
        <time>2015-07-12T16:41:48Z</time>
      </trkpt>
      <trkpt lat="48.75054" lon="2.05136">
        <ele>154</ele>
        <time>2015-07-12T16:42:00Z</time>
      </trkpt>
      <trkpt lat="48.75062" lon="2.05133">
        <ele>155</ele>
        <time>2015-07-12T16:42:13Z</time>
      </trkpt>
      <trkpt lat="48.75068" lon="2.05127">
        <ele>155</ele>
        <time>2015-07-12T16:42:19Z</time>
      </trkpt>
      <trkpt lat="48.75069" lon="2.05116">
        <ele>155</ele>
        <time>2015-07-12T16:42:26Z</time>
      </trkpt>
      <trkpt lat="48.75066" lon="2.05091">
        <ele>156</ele>
        <time>2015-07-12T16:42:39Z</time>
      </trkpt>
      <trkpt lat="48.75069" lon="2.0508">
        <ele>157</ele>
        <time>2015-07-12T16:42:48Z</time>
      </trkpt>
      <trkpt lat="48.75069" lon="2.05067">
        <ele>157</ele>
        <time>2015-07-12T16:42:53Z</time>
      </trkpt>
      <trkpt lat="48.75075" lon="2.05058">
        <ele>158</ele>
        <time>2015-07-12T16:42:59Z</time>
      </trkpt>
      <trkpt lat="48.75083" lon="2.05037">
        <ele>159</ele>
        <time>2015-07-12T16:43:09Z</time>
      </trkpt>
      <trkpt lat="48.75091" lon="2.0504">
        <ele>162</ele>
        <time>2015-07-12T16:43:14Z</time>
      </trkpt>
      <trkpt lat="48.751" lon="2.05046">
        <ele>162</ele>
        <time>2015-07-12T16:43:19Z</time>
      </trkpt>
      <trkpt lat="48.75117" lon="2.05049">
        <ele>162</ele>
        <time>2015-07-12T16:43:29Z</time>
      </trkpt>
      <trkpt lat="48.75141" lon="2.05057">
        <ele>163</ele>
        <time>2015-07-12T16:43:46Z</time>
      </trkpt>
      <trkpt lat="48.75148" lon="2.05058">
        <ele>163</ele>
        <time>2015-07-12T16:43:51Z</time>
      </trkpt>
      <trkpt lat="48.75157" lon="2.05061">
        <ele>163</ele>
        <time>2015-07-12T16:43:57Z</time>
      </trkpt>
      <trkpt lat="48.75173" lon="2.05058">
        <ele>164</ele>
        <time>2015-07-12T16:44:09Z</time>
      </trkpt>
      <trkpt lat="48.75189" lon="2.05065">
        <ele>164</ele>
        <time>2015-07-12T16:44:21Z</time>
      </trkpt>
      <trkpt lat="48.75206" lon="2.05071">
        <ele>164</ele>
        <time>2015-07-12T16:44:37Z</time>
      </trkpt>
      <trkpt lat="48.75212" lon="2.0506">
        <ele>164</ele>
        <time>2015-07-12T16:44:55Z</time>
      </trkpt>
      <trkpt lat="48.75212" lon="2.05048">
        <ele>164</ele>
        <time>2015-07-12T16:45:01Z</time>
      </trkpt>
      <trkpt lat="48.75216" lon="2.05059">
        <ele>164</ele>
        <time>2015-07-12T16:46:28Z</time>
      </trkpt>
      <trkpt lat="48.75221" lon="2.05069">
        <ele>164</ele>
        <time>2015-07-12T16:46:32Z</time>
      </trkpt>
      <trkpt lat="48.75229" lon="2.05075">
        <ele>164</ele>
        <time>2015-07-12T16:46:39Z</time>
      </trkpt>
      <trkpt lat="48.75237" lon="2.0508">
        <ele>164</ele>
        <time>2015-07-12T16:46:47Z</time>
      </trkpt>
      <trkpt lat="48.75245" lon="2.05082">
        <ele>164</ele>
        <time>2015-07-12T16:46:51Z</time>
      </trkpt>
      <trkpt lat="48.75262" lon="2.05085">
        <ele>164</ele>
        <time>2015-07-12T16:47:02Z</time>
      </trkpt>
      <trkpt lat="48.75271" lon="2.05087">
        <ele>165</ele>
        <time>2015-07-12T16:47:10Z</time>
      </trkpt>
      <trkpt lat="48.75279" lon="2.05093">
        <ele>165</ele>
        <time>2015-07-12T16:47:16Z</time>
      </trkpt>
      <trkpt lat="48.75287" lon="2.05097">
        <ele>165</ele>
        <time>2015-07-12T16:47:22Z</time>
      </trkpt>
      <trkpt lat="48.75304" lon="2.05102">
        <ele>165</ele>
        <time>2015-07-12T16:47:34Z</time>
      </trkpt>
      <trkpt lat="48.75328" lon="2.05111">
        <ele>165</ele>
        <time>2015-07-12T16:47:54Z</time>
      </trkpt>
      <trkpt lat="48.75337" lon="2.0511">
        <ele>164</ele>
        <time>2015-07-12T16:48:01Z</time>
      </trkpt>
      <trkpt lat="48.75371" lon="2.05116">
        <ele>164</ele>
        <time>2015-07-12T16:48:25Z</time>
      </trkpt>
      <trkpt lat="48.7538" lon="2.05116">
        <ele>165</ele>
        <time>2015-07-12T16:48:31Z</time>
      </trkpt>
      <trkpt lat="48.75388" lon="2.05118">
        <ele>165</ele>
        <time>2015-07-12T16:48:37Z</time>
      </trkpt>
      <trkpt lat="48.75396" lon="2.05119">
        <ele>165</ele>
        <time>2015-07-12T16:48:42Z</time>
      </trkpt>
      <trkpt lat="48.75403" lon="2.05124">
        <ele>165</ele>
        <time>2015-07-12T16:48:49Z</time>
      </trkpt>
      <trkpt lat="48.75428" lon="2.05126">
        <ele>165</ele>
        <time>2015-07-12T16:49:11Z</time>
      </trkpt>
      <trkpt lat="48.75437" lon="2.05128">
        <ele>165</ele>
        <time>2015-07-12T16:49:19Z</time>
      </trkpt>
      <trkpt lat="48.75445" lon="2.05127">
        <ele>165</ele>
        <time>2015-07-12T16:49:26Z</time>
      </trkpt>
      <trkpt lat="48.75452" lon="2.05125">
        <ele>165</ele>
        <time>2015-07-12T16:49:31Z</time>
      </trkpt>
      <trkpt lat="48.75461" lon="2.05123">
        <ele>166</ele>
        <time>2015-07-12T16:49:36Z</time>
      </trkpt>
      <trkpt lat="48.75469" lon="2.05125">
        <ele>166</ele>
        <time>2015-07-12T16:49:42Z</time>
      </trkpt>
      <trkpt lat="48.75476" lon="2.0513">
        <ele>166</ele>
        <time>2015-07-12T16:49:47Z</time>
      </trkpt>
      <trkpt lat="48.75516" lon="2.05136">
        <ele>166</ele>
        <time>2015-07-12T16:50:17Z</time>
      </trkpt>
      <trkpt lat="48.75524" lon="2.0514">
        <ele>166</ele>
        <time>2015-07-12T16:50:22Z</time>
      </trkpt>
      <trkpt lat="48.7554" lon="2.05141">
        <ele>166</ele>
        <time>2015-07-12T16:50:32Z</time>
      </trkpt>
      <trkpt lat="48.75549" lon="2.05144">
        <ele>166</ele>
        <time>2015-07-12T16:50:38Z</time>
      </trkpt>
      <trkpt lat="48.75557" lon="2.05143">
        <ele>166</ele>
        <time>2015-07-12T16:50:44Z</time>
      </trkpt>
      <trkpt lat="48.75566" lon="2.05144">
        <ele>166</ele>
        <time>2015-07-12T16:50:52Z</time>
      </trkpt>
      <trkpt lat="48.75572" lon="2.05147">
        <ele>166</ele>
        <time>2015-07-12T16:50:59Z</time>
      </trkpt>
      <trkpt lat="48.75597" lon="2.05154">
        <ele>166</ele>
        <time>2015-07-12T16:51:14Z</time>
      </trkpt>
      <trkpt lat="48.75606" lon="2.05154">
        <ele>166</ele>
        <time>2015-07-12T16:51:20Z</time>
      </trkpt>
      <trkpt lat="48.75614" lon="2.05159">
        <ele>166</ele>
        <time>2015-07-12T16:51:35Z</time>
      </trkpt>
      <trkpt lat="48.75622" lon="2.05159">
        <ele>166</ele>
        <time>2015-07-12T16:51:42Z</time>
      </trkpt>
      <trkpt lat="48.75631" lon="2.05162">
        <ele>165</ele>
        <time>2015-07-12T16:51:46Z</time>
      </trkpt>
      <trkpt lat="48.7564" lon="2.05163">
        <ele>165</ele>
        <time>2015-07-12T16:51:50Z</time>
      </trkpt>
      <trkpt lat="48.75655" lon="2.05161">
        <ele>165</ele>
        <time>2015-07-12T16:51:58Z</time>
      </trkpt>
      <trkpt lat="48.75664" lon="2.05159">
        <ele>165</ele>
        <time>2015-07-12T16:52:04Z</time>
      </trkpt>
      <trkpt lat="48.75672" lon="2.05155">
        <ele>165</ele>
        <time>2015-07-12T16:52:10Z</time>
      </trkpt>
      <trkpt lat="48.75677" lon="2.05145">
        <ele>165</ele>
        <time>2015-07-12T16:52:15Z</time>
      </trkpt>
      <trkpt lat="48.75683" lon="2.05122">
        <ele>165</ele>
        <time>2015-07-12T16:52:26Z</time>
      </trkpt>
      <trkpt lat="48.75689" lon="2.05113">
        <ele>165</ele>
        <time>2015-07-12T16:52:31Z</time>
      </trkpt>
      <trkpt lat="48.75699" lon="2.05092">
        <ele>165</ele>
        <time>2015-07-12T16:52:44Z</time>
      </trkpt>
      <trkpt lat="48.75744" lon="2.05055">
        <ele>165</ele>
        <time>2015-07-12T16:53:24Z</time>
      </trkpt>
      <trkpt lat="48.75751" lon="2.05051">
        <ele>164</ele>
        <time>2015-07-12T16:53:31Z</time>
      </trkpt>
      <trkpt lat="48.75758" lon="2.05046">
        <ele>164</ele>
        <time>2015-07-12T16:53:37Z</time>
      </trkpt>
      <trkpt lat="48.75766" lon="2.05043">
        <ele>164</ele>
        <time>2015-07-12T16:53:42Z</time>
      </trkpt>
      <trkpt lat="48.75782" lon="2.05034">
        <ele>164</ele>
        <time>2015-07-12T16:53:54Z</time>
      </trkpt>
      <trkpt lat="48.7579" lon="2.05031">
        <ele>164</ele>
        <time>2015-07-12T16:54:00Z</time>
      </trkpt>
      <trkpt lat="48.75797" lon="2.05024">
        <ele>164</ele>
        <time>2015-07-12T16:54:06Z</time>
      </trkpt>
      <trkpt lat="48.75801" lon="2.05012">
        <ele>164</ele>
        <time>2015-07-12T16:54:25Z</time>
      </trkpt>
      <trkpt lat="48.75804" lon="2.05001">
        <ele>164</ele>
        <time>2015-07-12T16:54:33Z</time>
      </trkpt>
      <trkpt lat="48.75808" lon="2.04995">
        <ele>164</ele>
        <time>2015-07-12T16:54:51Z</time>
      </trkpt>
    </trkseg>
  </trk>
</gpx>